Provisional Data: Apalachin Creek near Apalachin, NY


Please select a monitoring station.
Please select start date.
Please select start date.

Toggle Unit: C/F Toggle Unit: C/F
Sample Time Temperature (C) Temperature (F) Specific Conductivity (mS/cm) pH   Turbidity (NTU+) DO (mg/L)
10/22/2021 12:00:00 AM 14.67 58.406 0.158 7.2 3.13 8.89
10/22/2021 12:15:00 AM 14.66 58.388 0.16 7.21 3.24 8.9
10/22/2021 12:30:00 AM 14.65 58.37 0.159 7.22 3.59 8.91
10/22/2021 12:45:00 AM 14.64 58.352 0.158 7.24 3.73 8.95
10/22/2021 1:00:00 AM 14.63 58.334 0.156 7.25 4.02 8.97
10/22/2021 1:15:00 AM 14.62 58.316 0.154 7.26 4.06 8.99
10/22/2021 1:30:00 AM 14.6 58.28 0.153 7.26 3.91 9
10/22/2021 1:45:00 AM 14.57 58.226 0.153 7.27 4.34 9.03
10/22/2021 2:00:00 AM 14.54 58.172 0.152 7.27 4.11 9.04
10/22/2021 2:15:00 AM 14.48 58.064 0.153 7.28 4.53 9.07
10/22/2021 2:30:00 AM 14.42 57.956 0.153 7.28 4.82 9.09
10/22/2021 2:45:00 AM 14.34 57.812 0.153 7.28 5.92 9.11
10/22/2021 3:00:00 AM 14.27 57.686 0.154 7.29 6.87 9.14
10/22/2021 3:15:00 AM 14.19 57.542 0.154 7.28 8.06 9.17
10/22/2021 3:30:00 AM 14.13 57.434 0.154 7.29 7.19 9.18
10/22/2021 3:45:00 AM 14.07 57.326 0.153 7.28 7.58 9.2
10/22/2021 4:00:00 AM 14.02 57.236 0.153 7.28 7.41 9.22
10/22/2021 4:15:00 AM 13.98 57.164 0.152 7.28 6.64 9.21
10/22/2021 4:30:00 AM 13.93 57.074 0.152 7.28 6.89 9.23
10/22/2021 4:45:00 AM 13.89 57.002 0.151 7.28 6.51 9.25
10/22/2021 5:00:00 AM 13.84 56.912 0.15 7.28 6.52 9.26
10/22/2021 5:15:00 AM 13.8 56.84 0.15 7.28 6.79 9.27
10/22/2021 5:30:00 AM 13.77 56.786 0.15 7.28 7.39 9.28
10/22/2021 5:45:00 AM 13.76 56.768 0.149 7.28 6.76 9.29
10/22/2021 6:00:00 AM 13.75 56.75 0.149 7.28 6.97 9.31
10/22/2021 6:15:00 AM 13.74 56.732 0.149 7.28 7.06 9.32
10/22/2021 6:30:00 AM 13.74 56.732 0.148 7.28 6.94 9.33
10/22/2021 6:45:00 AM 13.73 56.714 0.148 7.28 6.59 9.33
10/22/2021 7:00:00 AM 13.74 56.732 0.148 7.28 6.55 9.33
10/22/2021 7:15:00 AM 13.74 56.732 0.147 7.28 6.31 9.34
10/22/2021 7:30:00 AM 13.74 56.732 0.147 7.28 5.86 9.34
10/22/2021 7:45:00 AM 13.75 56.75 0.147 7.28 5.85 9.37
10/22/2021 8:00:00 AM 13.75 56.75 0.146 7.29 5.52 9.4
10/22/2021 8:15:00 AM 13.76 56.768 0.146 7.29 5.62 9.42
10/22/2021 8:30:00 AM 13.76 56.768 0.145 7.3 5.75 9.47
10/22/2021 8:45:00 AM 13.76 56.768 0.145 7.31 5.54 9.53
10/22/2021 9:00:00 AM 13.77 56.786 0.145 7.32 5.31 9.65
10/22/2021 9:15:00 AM 13.78 56.804 0.145 7.34 5.86 9.75
10/22/2021 9:30:00 AM 13.79 56.822 0.144 7.35 4.97 9.83
10/22/2021 9:45:00 AM 13.81 56.858 0.144 7.37 5.15 9.95
10/22/2021 10:00:00 AM 13.85 56.93 0.144 7.39 4.73 10.12
10/22/2021 10:15:00 AM 13.89 57.002 0.144 7.42 5.07 10.26
10/22/2021 10:30:00 AM 13.93 57.074 0.143 7.45 5.47 10.36
10/22/2021 10:45:00 AM 13.95 57.11 0.143 7.46 4.86 10.41
10/22/2021 11:00:00 AM 13.94 57.092 0.143 7.46 5.04 10.4
10/22/2021 11:15:00 AM 13.92 57.056 0.143 7.45 4.79 10.3
10/22/2021 11:30:00 AM 13.88 56.984 0.143 7.44 4.84 10.23
10/22/2021 11:45:00 AM 13.89 57.002 0.143 7.44 5.1 10.27
10/22/2021 12:00:00 PM 13.92 57.056 0.143 7.46 5.02 10.37
10/22/2021 12:15:00 PM 13.93 57.074 0.142 7.48 4.82 10.47
10/22/2021 12:30:00 PM 13.97 57.146 0.142 7.51 4.77 10.58
10/22/2021 12:45:00 PM 14 57.2 0.142 7.52 4.77 10.64
10/22/2021 1:00:00 PM 14.02 57.236 0.142 7.54 4.91 10.68
10/22/2021 1:15:00 PM 14.08 57.344 0.142 7.56 4.63 10.77
10/22/2021 1:30:00 PM 14.22 57.596 0.142 7.59 4.7 10.87
10/22/2021 1:45:00 PM 14.36 57.848 0.142 7.62 4.65 10.92
10/22/2021 2:00:00 PM 14.48 58.064 0.142 7.64 4.64 10.96
10/22/2021 2:15:00 PM 14.63 58.334 0.142 7.66 4.42 10.97
10/22/2021 2:30:00 PM 14.75 58.55 0.142 7.68 4.41 10.98
10/22/2021 2:45:00 PM 14.82 58.676 0.142 7.69 4.27 10.95
10/22/2021 3:00:00 PM 14.84 58.712 0.142 7.68 4.31 10.89
10/22/2021 3:15:00 PM 14.96 58.928 0.142 7.68 4.26 10.87
10/22/2021 3:30:00 PM 15.07 59.126 0.142 7.68 4.23 10.81
10/22/2021 3:45:00 PM 15.11 59.198 0.142 7.67 4.16 10.78
10/22/2021 4:00:00 PM 15.08 59.144 0.142 7.65 4.01 10.67
10/22/2021 4:15:00 PM 15.01 59.018 0.142 7.62 4.12 10.56
10/22/2021 4:30:00 PM 14.96 58.928 0.142 7.6 3.98 10.51
10/22/2021 4:45:00 PM 14.86 58.748 0.142 7.57 4.09 10.39
10/22/2021 5:00:00 PM 14.72 58.496 0.143 7.53 3.94 10.25
10/22/2021 5:15:00 PM 14.62 58.316 0.143 7.5 4.01 10.17
10/22/2021 5:30:00 PM 14.52 58.136 0.143 7.48 3.97 10.12
10/22/2021 5:45:00 PM 14.41 57.938 0.143 7.45 3.87 10.02
10/22/2021 6:00:00 PM 14.32 57.776 0.143 7.42 3.9 9.91
10/22/2021 6:15:00 PM 14.23 57.614 0.143 7.4 6.35 9.82
10/22/2021 6:30:00 PM 14.14 57.452 0.144 7.37 6.45 9.68
10/22/2021 6:45:00 PM 14.03 57.254 0.144 7.34 9.12 9.59
10/22/2021 7:00:00 PM 13.93 57.074 0.144 7.32 3.82 9.52
10/22/2021 7:15:00 PM 13.83 56.894 0.145 7.31 10.8 9.47
10/22/2021 7:30:00 PM 13.75 56.75 0.145 7.3 14.42 9.43
10/22/2021 7:45:00 PM 13.66 56.588 0.145 7.29 11.6 9.43
10/22/2021 8:00:00 PM 13.57 56.426 0.145 7.28 15.06 9.41
10/22/2021 8:15:00 PM 13.5 56.3 0.145 7.27 10.84 9.42
10/22/2021 8:30:00 PM 13.41 56.138 0.146 7.27 13.78 9.43
10/22/2021 8:45:00 PM 13.33 55.994 0.146 7.27 12.78 9.44
10/22/2021 9:00:00 PM 13.26 55.868 0.146 7.26 14.1 9.45
10/22/2021 9:15:00 PM 13.19 55.742 0.146 7.26 12.34 9.45
10/22/2021 9:30:00 PM 13.12 55.616 0.146 7.26 11.06 9.46
10/22/2021 9:45:00 PM 13.05 55.49 0.146 7.26 9.9 9.48
10/22/2021 10:00:00 PM 13 55.4 0.146 7.26 12.54 9.48
10/22/2021 10:15:00 PM 12.94 55.292 0.147 7.25 13.49 9.49
10/22/2021 10:30:00 PM 12.88 55.184 0.147 7.25 18.14 9.5
10/22/2021 10:45:00 PM 12.82 55.076 0.147 7.25 10.92 9.51
10/22/2021 11:00:00 PM 12.76 54.968 0.147 7.25 12.7 9.53
10/22/2021 11:15:00 PM 12.7 54.86 0.147 7.25 12.24 9.53
10/22/2021 11:30:00 PM 12.63 54.734 0.147 7.25 10.94 9.55
10/22/2021 11:45:00 PM 12.58 54.644 0.147 7.25 11.45 9.55
10/23/2021 12:00:00 AM 12.53 54.554 0.147 7.24 10.6 9.56
10/23/2021 12:15:00 AM 12.46 54.428 0.147 7.25 16.31 9.58
10/23/2021 12:30:00 AM 12.4 54.32 0.148 7.24 10.9 9.58
10/23/2021 12:45:00 AM 12.36 54.248 0.148 7.24 10.75 9.59
10/23/2021 1:00:00 AM 12.31 54.158 0.148 7.24 10.54 9.61
10/23/2021 1:15:00 AM 12.27 54.086 0.148 7.24 20.07 9.61
10/23/2021 1:30:00 AM 12.24 54.032 0.148 7.24 7.35 9.62
10/23/2021 1:45:00 AM 12.21 53.978 0.148 7.24 12.57 9.61
10/23/2021 2:00:00 AM 12.19 53.942 0.148 7.24 12.03 9.63
10/23/2021 2:15:00 AM 12.18 53.924 0.148 7.24 10.22 9.63
10/23/2021 2:30:00 AM 12.16 53.888 0.149 7.24 7.43 9.62
10/23/2021 2:45:00 AM 12.14 53.852 0.149 7.24 9.14 9.63
10/23/2021 3:00:00 AM 12.12 53.816 0.149 7.24 7.59 9.65
10/23/2021 3:15:00 AM 12.1 53.78 0.149 7.24 8.05 9.64
10/23/2021 3:30:00 AM 12.07 53.726 0.149 7.24 8.19 9.65
10/23/2021 3:45:00 AM 12.05 53.69 0.149 7.24 14.64 9.65
10/23/2021 4:00:00 AM 12.02 53.636 0.149 7.24 10.92 9.66
10/23/2021 4:15:00 AM 12 53.6 0.149 7.24 10.65 9.66
10/23/2021 4:30:00 AM 11.98 53.564 0.149 7.24 7.12 9.66
10/23/2021 4:45:00 AM 11.97 53.546 0.149 7.24 11.91 9.68
10/23/2021 5:00:00 AM 11.95 53.51 0.149 7.24 12.91 9.67
10/23/2021 5:15:00 AM 11.95 53.51 0.15 7.24 9.54 9.67
10/23/2021 5:30:00 AM 11.94 53.492 0.149 7.24 8.75 9.67
10/23/2021 5:45:00 AM 11.92 53.456 0.15 7.24 10.03 9.66
10/23/2021 6:00:00 AM 11.92 53.456 0.15 7.24 6.76 9.67
10/23/2021 6:15:00 AM 11.9 53.42 0.15 7.24 9.06 9.68
10/23/2021 6:30:00 AM 11.89 53.402 0.15 7.24 9.3 9.66
10/23/2021 6:45:00 AM 11.88 53.384 0.15 7.24 6.25 9.68
10/23/2021 7:00:00 AM 11.88 53.384 0.15 7.24 6.29 9.68
10/23/2021 7:15:00 AM 11.87 53.366 0.15 7.24 3.08 9.68
10/23/2021 7:30:00 AM 11.87 53.366 0.15 7.24 3.01 9.68
10/23/2021 7:45:00 AM 11.87 53.366 0.15 7.24 2.93 9.69
10/23/2021 8:00:00 AM 11.86 53.348 0.15 7.24 3.08 9.74
10/23/2021 8:15:00 AM 11.88 53.384 0.15 7.26 3 9.84
10/23/2021 8:30:00 AM 11.88 53.384 0.15 7.27 2.95 9.98
10/23/2021 8:45:00 AM 11.89 53.402 0.15 7.29 2.92 10.15
10/23/2021 9:00:00 AM 11.9 53.42 0.15 7.32 2.94 10.3
10/23/2021 9:15:00 AM 11.95 53.51 0.15 7.35 2.97 10.52
10/23/2021 9:30:00 AM 12.03 53.654 0.15 7.38 2.94 10.74
10/23/2021 9:45:00 AM 12.07 53.726 0.15 7.4 2.83 10.8
10/23/2021 10:00:00 AM 12.12 53.816 0.15 7.42 2.85 10.91
10/23/2021 10:15:00 AM 12.17 53.906 0.15 7.44 2.86 10.97
10/23/2021 10:30:00 AM 12.22 53.996 0.15 7.46 2.87 11.02
10/23/2021 10:45:00 AM 12.3 54.14 0.15 7.48 2.82 11.11
10/23/2021 11:00:00 AM 12.39 54.302 0.15 7.5 2.82 11.18
10/23/2021 11:15:00 AM 12.47 54.446 0.15 7.52 2.84 11.25
10/23/2021 11:30:00 AM 12.56 54.608 0.15 7.54 2.81 11.29
10/23/2021 11:45:00 AM 12.66 54.788 0.15 7.56 2.77 11.3
10/23/2021 12:00:00 PM 12.73 54.914 0.149 7.58 2.77 11.34
10/23/2021 12:15:00 PM 12.8 55.04 0.149 7.59 2.82 11.34
10/23/2021 12:30:00 PM 12.84 55.112 0.149 7.59 2.85 11.29
10/23/2021 12:45:00 PM 12.87 55.166 0.149 7.59 3.01 11.29
10/23/2021 1:00:00 PM 12.95 55.31 0.149 7.61 3.45 11.31
10/23/2021 1:15:00 PM 12.99 55.382 0.149 7.6 3.45 11.25
10/23/2021 1:30:00 PM 12.99 55.382 0.149 7.58 2.94 11.17
10/23/2021 1:45:00 PM 13.02 55.436 0.149 7.58 9.9 11.15
10/23/2021 2:00:00 PM 13.06 55.508 0.149 7.59 2.95 11.15
10/23/2021 2:15:00 PM 13.09 55.562 0.149 7.59 2.83 11.17
10/23/2021 2:30:00 PM 13.11 55.598 0.149 7.59 2.9 11.16
10/23/2021 2:45:00 PM 13.11 55.598 0.149 7.59 2.81 11.11
10/23/2021 3:00:00 PM 13.11 55.598 0.149 7.56 2.71 10.99
10/23/2021 3:15:00 PM 13.1 55.58 0.15 7.54 2.73 10.9
10/23/2021 3:30:00 PM 13.09 55.562 0.15 7.52 2.82 10.79
10/23/2021 3:45:00 PM 13.07 55.526 0.15 7.5 3.05 10.71
10/23/2021 4:00:00 PM 13.05 55.49 0.15 7.48 3.51 10.65
10/23/2021 4:15:00 PM 13.06 55.508 0.15 7.48 4.53 10.65
10/23/2021 4:30:00 PM 13.06 55.508 0.15 7.47 4.81 10.64
10/23/2021 4:45:00 PM 13.04 55.472 0.15 7.46 4.89 10.58
10/23/2021 5:00:00 PM 13.02 55.436 0.15 7.44 4.69 10.49
10/23/2021 5:15:00 PM 12.99 55.382 0.15 7.42 4.5 10.36
10/23/2021 5:30:00 PM 12.96 55.328 0.15 7.4 3.75 10.27
10/23/2021 5:45:00 PM 12.93 55.274 0.151 7.38 3.32 10.2
10/23/2021 6:00:00 PM 12.88 55.184 0.151 7.36 3.17 10.09
10/23/2021 6:15:00 PM 12.82 55.076 0.151 7.35 2.88 9.99
10/23/2021 6:30:00 PM 12.75 54.95 0.151 7.32 2.8 9.89
10/23/2021 6:45:00 PM 12.68 54.824 0.151 7.31 2.73 9.82
10/23/2021 7:00:00 PM 12.61 54.698 0.152 7.29 2.74 9.76
10/23/2021 7:15:00 PM 12.56 54.608 0.152 7.29 2.69 9.72
10/23/2021 7:30:00 PM 12.5 54.5 0.152 7.28 2.64 9.68
10/23/2021 7:45:00 PM 12.44 54.392 0.152 7.27 2.74 9.66
10/23/2021 8:00:00 PM 12.37 54.266 0.152 7.26 2.72 9.65
10/23/2021 8:15:00 PM 12.31 54.158 0.152 7.26 2.64 9.64
10/23/2021 8:30:00 PM 12.26 54.068 0.152 7.25 2.69 9.65
10/23/2021 8:45:00 PM 12.22 53.996 0.152 7.25 2.62 9.65
10/23/2021 9:00:00 PM 12.18 53.924 0.152 7.25 2.6 9.65
10/23/2021 9:15:00 PM 12.14 53.852 0.152 7.25 2.71 9.66
10/23/2021 9:30:00 PM 12.1 53.78 0.152 7.25 2.63 9.66
10/23/2021 9:45:00 PM 12.07 53.726 0.153 7.25 2.63 9.65
10/23/2021 10:00:00 PM 12.04 53.672 0.153 7.25 2.6 9.67
10/23/2021 10:15:00 PM 12.01 53.618 0.153 7.25 2.64 9.67
10/23/2021 10:30:00 PM 11.99 53.582 0.153 7.24 2.66 9.67
10/23/2021 10:45:00 PM 11.98 53.564 0.153 7.24 2.56 9.69
10/23/2021 11:00:00 PM 11.98 53.564 0.153 7.24 2.63 9.69
10/23/2021 11:15:00 PM 11.96 53.528 0.153 7.24 2.59 9.69
10/23/2021 11:30:00 PM 11.95 53.51 0.153 7.24 2.66 9.68
10/23/2021 11:45:00 PM 11.92 53.456 0.153 7.24 2.53 9.69
10/24/2021 12:00:00 AM 11.91 53.438 0.153 7.24 2.6 9.69
10/24/2021 12:15:00 AM 11.89 53.402 0.153 7.24 2.57 9.7
10/24/2021 12:30:00 AM 11.88 53.384 0.153 7.24 2.59 9.69
10/24/2021 12:45:00 AM 11.87 53.366 0.153 7.24 2.58 9.7
10/24/2021 1:00:00 AM 11.85 53.33 0.153 7.24 2.6 9.69
10/24/2021 1:15:00 AM 11.84 53.312 0.153 7.24 2.57 9.7
10/24/2021 1:30:00 AM 11.83 53.294 0.153 7.24 2.58 9.7
10/24/2021 1:45:00 AM 11.81 53.258 0.154 7.24 2.58 9.71
10/24/2021 2:00:00 AM 11.8 53.24 0.154 7.24 2.67 9.72
10/24/2021 2:15:00 AM 11.79 53.222 0.154 7.24 2.61 9.72
10/24/2021 2:30:00 AM 11.77 53.186 0.154 7.24 2.83 9.72
10/24/2021 2:45:00 AM 11.74 53.132 0.154 7.24 2.75 9.72
10/24/2021 3:00:00 AM 11.71 53.078 0.154 7.24 2.79 9.72
10/24/2021 3:15:00 AM 11.7 53.06 0.154 7.23 2.84 9.73
10/24/2021 3:30:00 AM 11.69 53.042 0.154 7.23 2.77 9.73
10/24/2021 3:45:00 AM 11.68 53.024 0.154 7.23 2.84 9.73
10/24/2021 4:00:00 AM 11.67 53.006 0.154 7.23 2.89 9.74
10/24/2021 4:15:00 AM 11.66 52.988 0.154 7.23 2.86 9.74
10/24/2021 4:30:00 AM 11.65 52.97 0.154 7.23 2.77 9.74
10/24/2021 4:45:00 AM 11.63 52.934 0.154 7.21 2.77 9.73
10/24/2021 5:00:00 AM 11.63 52.934 0.154 7.19 2.68 9.74
10/24/2021 5:15:00 AM 11.61 52.898 0.154 7.18 2.77 9.74
10/24/2021 5:30:00 AM 11.6 52.88 0.154 7.19 2.67 9.75
10/24/2021 5:45:00 AM 11.6 52.88 0.154 7.19 2.69 9.74
10/24/2021 6:00:00 AM 11.6 52.88 0.154 7.19 2.68 9.75
10/24/2021 6:15:00 AM 11.59 52.862 0.154 7.2 2.67 9.75
10/24/2021 6:30:00 AM 11.59 52.862 0.154 7.2 2.64 9.75
10/24/2021 6:45:00 AM 11.59 52.862 0.154 7.21 2.65 9.75
10/24/2021 7:00:00 AM 11.58 52.844 0.154 7.21 2.58 9.75
10/24/2021 7:15:00 AM 11.59 52.862 0.154 7.21 2.59 9.75
10/24/2021 7:30:00 AM 11.58 52.844 0.154 7.22 2.6 9.76
10/24/2021 7:45:00 AM 11.59 52.862 0.154 7.22 2.61 9.76
10/24/2021 8:00:00 AM 11.58 52.844 0.155 7.23 2.55 9.81
10/24/2021 8:15:00 AM 11.58 52.844 0.155 7.24 2.56 9.89
10/24/2021 8:30:00 AM 11.58 52.844 0.154 7.25 2.48 10.05
10/24/2021 8:45:00 AM 11.59 52.862 0.154 7.27 2.43 10.21
10/24/2021 9:00:00 AM 11.62 52.916 0.154 7.31 2.47 10.44
10/24/2021 9:15:00 AM 11.64 52.952 0.154 7.34 2.51 10.62
10/24/2021 9:30:00 AM 11.65 52.97 0.154 7.36 2.47 10.75
10/24/2021 9:45:00 AM 11.69 53.042 0.154 7.39 2.44 10.9
10/24/2021 10:00:00 AM 11.74 53.132 0.154 7.41 2.5 11.05
10/24/2021 10:15:00 AM 11.84 53.312 0.154 7.45 2.43 11.19
10/24/2021 10:30:00 AM 11.92 53.456 0.154 7.47 2.47 11.29
10/24/2021 10:45:00 AM 12.02 53.636 0.153 7.5 2.4 11.38
10/24/2021 11:00:00 AM 12.13 53.834 0.153 7.52 2.42 11.42
10/24/2021 11:15:00 AM 12.22 53.996 0.153 7.54 2.39 11.5
10/24/2021 11:30:00 AM 12.35 54.23 0.153 7.57 2.48 11.54
10/24/2021 11:45:00 AM 12.48 54.464 0.153 7.6 2.61 11.62
10/24/2021 12:00:00 PM 12.61 54.698 0.153 7.61 2.41 11.59
10/24/2021 12:15:00 PM 12.76 54.968 0.153 7.63 2.42 11.62
10/24/2021 12:30:00 PM 12.92 55.256 0.153 7.64 2.42 11.61
10/24/2021 12:45:00 PM 13.06 55.508 0.153 7.65 2.35 11.56
10/24/2021 1:00:00 PM 13.17 55.706 0.153 7.65 2.34 11.54
10/24/2021 1:15:00 PM 13.26 55.868 0.153 7.66 2.41 11.53
10/24/2021 1:30:00 PM 13.29 55.922 0.153 7.66 2.38 11.49
10/24/2021 1:45:00 PM 13.28 55.904 0.153 7.66 2.33 11.46
10/24/2021 2:00:00 PM 13.25 55.85 0.153 7.65 2.33 11.39
10/24/2021 2:15:00 PM 13.23 55.814 0.153 7.62 2.34 11.28
10/24/2021 2:30:00 PM 13.19 55.742 0.153 7.57 3.04 11.17
10/24/2021 2:45:00 PM 13.17 55.706 0.153 7.58 2.61 11.11
10/24/2021 3:00:00 PM 13.15 55.67 0.153 7.57 2.64 11.1
10/24/2021 3:15:00 PM 13.12 55.616 0.153 7.54 3.4 10.94
10/24/2021 3:30:00 PM 13.08 55.544 0.153 7.51 2.45 10.85
10/24/2021 3:45:00 PM 13.04 55.472 0.153 7.48 2.4 10.69
10/24/2021 4:00:00 PM 13.01 55.418 0.153 7.45 2.54 10.56
10/24/2021 4:15:00 PM 12.99 55.382 0.153 7.43 2.53 10.48
10/24/2021 4:30:00 PM 12.96 55.328 0.153 7.41 2.45 10.38
10/24/2021 4:45:00 PM 12.93 55.274 0.154 7.39 2.38 10.28
10/24/2021 5:00:00 PM 12.91 55.238 0.154 7.37 2.4 10.2
10/24/2021 5:15:00 PM 12.89 55.202 0.154 7.36 9.77 10.13
10/24/2021 5:30:00 PM 12.86 55.148 0.154 7.34 2.38 10.05
10/24/2021 5:45:00 PM 12.84 55.112 0.154 7.33 2.39 9.96
10/24/2021 6:00:00 PM 12.82 55.076 0.154 7.31 2.37 9.89
10/24/2021 6:15:00 PM 12.79 55.022 0.154 7.3 2.37 9.83
10/24/2021 6:30:00 PM 12.77 54.986 0.154 7.29 17.35 9.76
10/24/2021 6:45:00 PM 12.74 54.932 0.154 7.28 11.71 9.71
10/24/2021 7:00:00 PM 12.71 54.878 0.155 7.27 5.13 9.67
10/24/2021 7:15:00 PM 12.69 54.842 0.155 7.26 8.31 9.64
10/24/2021 7:30:00 PM 12.66 54.788 0.155 7.26 12.91 9.62
10/24/2021 7:45:00 PM 12.64 54.752 0.155 7.26 12.47 9.59
10/24/2021 8:00:00 PM 12.63 54.734 0.155 7.25 20.11 9.58
10/24/2021 8:15:00 PM 12.61 54.698 0.155 7.25 10.65 9.57
10/24/2021 8:30:00 PM 12.59 54.662 0.155 7.24 11.27 9.56
10/24/2021 8:45:00 PM 12.58 54.644 0.155 7.24 6.99 9.56
10/24/2021 9:00:00 PM 12.56 54.608 0.155 7.24 11.75 9.56
10/24/2021 9:15:00 PM 12.54 54.572 0.155 7.24 25.35 9.56
10/24/2021 9:30:00 PM 12.52 54.536 0.155 7.24 16.28 9.57
10/24/2021 9:45:00 PM 12.51 54.518 0.155 7.24 14.94 9.56
10/24/2021 10:00:00 PM 12.49 54.482 0.154 7.24 17.54 9.57
10/24/2021 10:15:00 PM 12.48 54.464 0.154 7.24 11.08 9.56
10/24/2021 10:30:00 PM 12.47 54.446 0.154 7.24 15.73 9.57
10/24/2021 10:45:00 PM 12.46 54.428 0.154 7.24 15.8 9.57
10/24/2021 11:00:00 PM 12.45 54.41 0.154 7.24 12.77 9.57
10/24/2021 11:15:00 PM 12.43 54.374 0.153 7.23 11.51 9.57
10/24/2021 11:30:00 PM 12.41 54.338 0.153 7.23 10.84 9.59
10/24/2021 11:45:00 PM 12.4 54.32 0.152 7.24 10.83 9.6
10/25/2021 12:00:00 AM 12.38 54.284 0.152 7.24 15.9 9.6
10/25/2021 12:15:00 AM 12.36 54.248 0.152 7.24 6.43 9.6
10/25/2021 12:30:00 AM 12.35 54.23 0.152 7.24 12.12 9.6
10/25/2021 12:45:00 AM 12.34 54.212 0.151 7.24 14.06 9.6
10/25/2021 1:00:00 AM 12.33 54.194 0.151 7.24 9.55 9.61
10/25/2021 1:15:00 AM 12.31 54.158 0.151 7.24 13.12 9.61
10/25/2021 1:30:00 AM 12.3 54.14 0.151 7.24 9.23 9.61
10/25/2021 1:45:00 AM 12.29 54.122 0.151 7.24 17.08 9.62
10/25/2021 2:00:00 AM 12.28 54.104 0.151 7.24 2.98 9.61
10/25/2021 2:15:00 AM 12.27 54.086 0.152 7.24 5.42 9.62
10/25/2021 2:30:00 AM 12.25 54.05 0.154 7.23 10.23 9.63
10/25/2021 2:45:00 AM 12.22 53.996 0.156 7.24 10.32 9.64
10/25/2021 3:00:00 AM 12.18 53.924 0.156 7.27 12.64 9.69
10/25/2021 3:15:00 AM 12.16 53.888 0.154 7.27 11.75 9.71
10/25/2021 3:30:00 AM 12.11 53.798 0.151 7.28 6.77 9.75
10/25/2021 3:45:00 AM 11.95 53.51 0.149 7.31 12.99 9.94
10/25/2021 4:00:00 AM 11.83 53.294 0.15 7.21 19.87 10.02
10/25/2021 4:15:00 AM 11.73 53.114 0.15 7.21 22.02 10.08
10/25/2021 4:30:00 AM 11.67 53.006 0.149 7.22 24.83 10.13
10/25/2021 4:45:00 AM 11.61 52.898 0.147 7.23 24.35 10.16
10/25/2021 5:00:00 AM 11.57 52.826 0.145 7.23 25.09 10.17
10/25/2021 5:15:00 AM 11.53 52.754 0.144 7.23 25.1 10.19
10/25/2021 5:30:00 AM 11.49 52.682 0.142 7.23 26.33 10.2
10/25/2021 5:45:00 AM 11.46 52.628 0.141 7.24 33.14 10.21
10/25/2021 6:00:00 AM 11.42 52.556 0.14 7.26 34.47 10.22
10/25/2021 6:15:00 AM 11.39 52.502 0.139 7.28 47.18 10.22
10/25/2021 6:30:00 AM 11.36 52.448 0.139 7.29 36.54 10.23
10/25/2021 6:45:00 AM 11.33 52.394 0.139 7.3 33.71 10.25
10/25/2021 7:00:00 AM 11.3 52.34 0.139 7.3 33.02 10.25
10/25/2021 7:15:00 AM 11.28 52.304 0.138 7.32 28.15 10.26
10/25/2021 7:30:00 AM 11.25 52.25 0.137 7.33 26.11 10.27
10/25/2021 7:45:00 AM 11.24 52.232 0.136 7.34 26.62 10.28
10/25/2021 8:00:00 AM 11.24 52.232 0.136 7.35 23.72 10.3
10/25/2021 8:15:00 AM 11.24 52.232 0.135 7.36 20.72 10.34
10/25/2021 8:30:00 AM 11.26 52.268 0.134 7.37 25.75 10.36
10/25/2021 8:45:00 AM 11.3 52.34 0.134 7.38 22.49 10.43
10/25/2021 9:00:00 AM 11.35 52.43 0.133 7.39 23.23 10.47
10/25/2021 9:15:00 AM 11.43 52.574 0.133 7.4 19.27 10.55
10/25/2021 9:30:00 AM 11.5 52.7 0.132 7.42 19.2 10.59
10/25/2021 9:45:00 AM 11.59 52.862 0.132 7.43 18.88 10.65
10/25/2021 10:00:00 AM 11.71 53.078 0.131 7.45 20.25 10.73
10/25/2021 10:15:00 AM 11.85 53.33 0.131 7.47 17.69 10.8
10/25/2021 10:30:00 AM 11.98 53.564 0.131 7.49 15.86 10.84
10/25/2021 10:45:00 AM 12.12 53.816 0.13 7.5 14.45 10.85
10/25/2021 11:00:00 AM 12.26 54.068 0.13 7.52 14.55 10.85
10/25/2021 11:15:00 AM 12.42 54.356 0.13 7.53 14.14 10.87
10/25/2021 11:30:00 AM 12.6 54.68 0.13 7.54 13.61 10.87
10/25/2021 11:45:00 AM 12.79 55.022 0.13 7.56 13.65 10.89
10/25/2021 12:00:00 PM 13 55.4 0.129 7.58 12.95 10.9
10/25/2021 12:15:00 PM 13.22 55.796 0.129 7.59 12.24 10.9
10/25/2021 12:30:00 PM 13.45 56.21 0.129 7.61 11.96 10.89
10/25/2021 12:45:00 PM 13.67 56.606 0.129 7.62 12.17 10.9
10/25/2021 1:00:00 PM 13.88 56.984 0.129 7.64 11.55 10.86
10/25/2021 1:15:00 PM 14.08 57.344 0.129 7.65 11.32 10.84
10/25/2021 1:30:00 PM 14.28 57.704 0.129 7.67 10.17 10.84
10/25/2021 1:45:00 PM 14.46 58.028 0.129 7.68 10.36 10.8
10/25/2021 2:00:00 PM 14.61 58.298 0.129 7.69 10.78 10.78
10/25/2021 2:15:00 PM 14.74 58.532 0.129 7.69 10.21 10.73
10/25/2021 2:30:00 PM 14.86 58.748 0.129 7.69 10.35 10.7
10/25/2021 2:45:00 PM 14.96 58.928 0.129 7.7 9.68 10.66
10/25/2021 3:00:00 PM 15.03 59.054 0.129 7.69 9.39 10.62
10/25/2021 3:15:00 PM 15.06 59.108 0.129 7.69 9.47 10.58
10/25/2021 3:30:00 PM 15.02 59.036 0.13 7.66 9.35 10.47
10/25/2021 3:45:00 PM 14.97 58.946 0.13 7.64 8.79 10.4
10/25/2021 4:00:00 PM 14.9 58.82 0.13 7.61 8.8 10.33
10/25/2021 4:15:00 PM 14.83 58.694 0.13 7.58 8.46 10.26
10/25/2021 4:30:00 PM 14.78 58.604 0.13 7.57 8.35 10.24
10/25/2021 4:45:00 PM 14.73 58.514 0.131 7.55 8.31 10.2
10/25/2021 5:00:00 PM 14.68 58.424 0.131 7.53 9.9 10.14
10/25/2021 5:15:00 PM 14.63 58.334 0.131 7.5 7.56 10.03
10/25/2021 5:30:00 PM 14.58 58.244 0.131 7.46 7.84 9.92
10/25/2021 5:45:00 PM 14.52 58.136 0.132 7.43 7.44 9.8
10/25/2021 6:00:00 PM 14.46 58.028 0.132 7.4 7.93 9.68
10/25/2021 6:15:00 PM 14.4 57.92 0.132 7.37 7.54 9.59
10/25/2021 6:30:00 PM 14.35 57.83 0.132 7.35 7.06 9.52
10/25/2021 6:45:00 PM 14.3 57.74 0.133 7.33 9 9.47
10/25/2021 7:00:00 PM 14.26 57.668 0.133 7.32 11.07 9.44
10/25/2021 7:15:00 PM 14.22 57.596 0.133 7.31 10.28 9.42
10/25/2021 7:30:00 PM 14.18 57.524 0.133 7.3 6.48 9.4
10/25/2021 7:45:00 PM 14.14 57.452 0.133 7.29 12.31 9.38
10/25/2021 8:00:00 PM 14.1 57.38 0.134 7.29 12.94 9.39
10/25/2021 8:15:00 PM 14.07 57.326 0.134 7.28 12.52 9.38
10/25/2021 8:30:00 PM 14.03 57.254 0.134 7.28 10.75 9.37
10/25/2021 8:45:00 PM 13.99 57.182 0.134 7.27 12.27 9.36
10/25/2021 9:00:00 PM 13.96 57.128 0.134 7.27 12.54 9.37
10/25/2021 9:15:00 PM 13.92 57.056 0.135 7.27 13.76 9.37
10/25/2021 9:30:00 PM 13.89 57.002 0.135 7.26 16.66 9.38
10/25/2021 9:45:00 PM 13.86 56.948 0.135 7.26 5.99 9.38
10/25/2021 10:00:00 PM 13.83 56.894 0.135 7.26 5.94 9.38
10/25/2021 10:15:00 PM 13.8 56.84 0.135 7.25 5.91 9.38
10/25/2021 10:30:00 PM 13.78 56.804 0.135 7.25 5.71 9.38
10/25/2021 10:45:00 PM 13.75 56.75 0.135 7.25 5.79 9.38
10/25/2021 11:00:00 PM 13.73 56.714 0.135 7.25 5.98 9.38
10/25/2021 11:15:00 PM 13.72 56.696 0.135 7.24 5.84 9.38
10/25/2021 11:30:00 PM 13.7 56.66 0.136 7.24 5.93 9.38
10/25/2021 11:45:00 PM 13.69 56.642 0.136 7.24 5.87 9.37
10/26/2021 12:00:00 AM 13.68 56.624 0.136 7.24 5.68 9.38
10/26/2021 12:15:00 AM 13.66 56.588 0.136 7.24 11.58 9.36
10/26/2021 12:30:00 AM 13.65 56.57 0.136 7.24 5.82 9.37
10/26/2021 12:45:00 AM 13.64 56.552 0.136 7.24 5.8 9.37
10/26/2021 1:00:00 AM 13.64 56.552 0.137 7.24 5.59 9.36
10/26/2021 1:15:00 AM 13.63 56.534 0.137 7.25 6.02 9.36
10/26/2021 1:30:00 AM 13.63 56.534 0.137 7.25 5.66 9.36
10/26/2021 1:45:00 AM 13.62 56.516 0.137 7.25 5.99 9.36
10/26/2021 2:00:00 AM 13.62 56.516 0.137 7.25 5.8 9.36
10/26/2021 2:15:00 AM 13.62 56.516 0.137 7.25 5.63 9.36
10/26/2021 2:30:00 AM 13.62 56.516 0.137 7.25 5.64 9.34
10/26/2021 2:45:00 AM 13.61 56.498 0.137 7.25 5.81 9.35
10/26/2021 3:00:00 AM 13.61 56.498 0.137 7.25 5.5 9.33
10/26/2021 3:15:00 AM 13.61 56.498 0.138 7.25 5.42 9.33
10/26/2021 3:30:00 AM 13.61 56.498 0.138 7.25 5.28 9.33
10/26/2021 3:45:00 AM 13.61 56.498 0.137 7.25 5.28 9.32
10/26/2021 4:00:00 AM 13.61 56.498 0.138 7.25 5.18 9.34
10/26/2021 4:15:00 AM 13.61 56.498 0.138 7.25 5.08 9.32
10/26/2021 4:30:00 AM 13.61 56.498 0.137 7.25 5.18 9.33
10/26/2021 4:45:00 AM 13.61 56.498 0.137 7.25 11.44 9.34
10/26/2021 5:00:00 AM 13.61 56.498 0.137 7.25 11.44 9.34
10/26/2021 5:15:00 AM 13.61 56.498 0.137 7.25 10.59 9.33
10/26/2021 5:30:00 AM 13.61 56.498 0.137 7.25 9.34 9.33
10/26/2021 5:45:00 AM 13.61 56.498 0.137 7.25 8.99 9.33
10/26/2021 6:00:00 AM 13.6 56.48 0.137 7.25 10.69 9.33
10/26/2021 6:15:00 AM 13.6 56.48 0.137 7.25 9.61 9.33
10/26/2021 6:30:00 AM 13.6 56.48 0.137 7.25 10.68 9.32
10/26/2021 6:45:00 AM 13.6 56.48 0.137 7.25 10.2 9.33
10/26/2021 7:00:00 AM 13.59 56.462 0.137 7.25 11.79 9.33
10/26/2021 7:15:00 AM 13.59 56.462 0.138 7.25 10.22 9.34
10/26/2021 7:30:00 AM 13.59 56.462 0.138 7.25 5.16 9.34
10/26/2021 7:45:00 AM 13.58 56.444 0.138 7.26 5.62 9.35
10/26/2021 8:00:00 AM 13.57 56.426 0.139 7.27 5.81 9.39
10/26/2021 8:15:00 AM 13.55 56.39 0.139 7.29 6.71 9.45
10/26/2021 8:30:00 AM 13.53 56.354 0.138 7.31 8.1 9.52
10/26/2021 8:45:00 AM 13.5 56.3 0.139 7.33 9.93 9.58
10/26/2021 9:00:00 AM 13.47 56.246 0.14 7.35 14.77 9.66
10/26/2021 9:15:00 AM 13.44 56.192 0.14 7.37 22.73 9.72
10/26/2021 9:30:00 AM 13.42 56.156 0.138 7.39 31.54 9.74
10/26/2021 9:45:00 AM 13.41 56.138 0.137 7.4 30.01 9.77
10/26/2021 10:00:00 AM 13.4 56.12 0.135 7.41 55.39 9.79
10/26/2021 10:15:00 AM 13.39 56.102 0.133 7.42 63.99 9.8
10/26/2021 10:30:00 AM 13.38 56.084 0.132 7.42 50.35 9.81
10/26/2021 10:45:00 AM 13.38 56.084 0.131 7.43 56.83 9.81
10/26/2021 11:00:00 AM 13.37 56.066 0.13 7.44 51.86 9.84
10/26/2021 11:15:00 AM 13.35 56.03 0.129 7.43 52.33 9.84
10/26/2021 11:30:00 AM 13.33 55.994 0.127 7.43 59.03 9.85
10/26/2021 11:45:00 AM 13.31 55.958 0.126 7.43 54.03 9.87
10/26/2021 12:00:00 PM 13.28 55.904 0.125 7.43 51.22 9.88
10/26/2021 12:15:00 PM 13.26 55.868 0.123 7.43 56.92 9.89
10/26/2021 12:30:00 PM 13.24 55.832 0.121 7.44 55.35 9.92
10/26/2021 12:45:00 PM 13.21 55.778 0.12 7.45 72.58 9.94
10/26/2021 1:00:00 PM 13.19 55.742 0.119 7.45 112.92 9.97
10/26/2021 1:15:00 PM 13.15 55.67 0.114 7.19 202.6 9.99
10/26/2021 1:30:00 PM 13.1 55.58 0.105 7.4 460.87 10.02
10/26/2021 1:45:00 PM 13.06 55.508 0.096 7.32 697.97 10.06
10/26/2021 2:00:00 PM 13.02 55.436 0.089 7.25 820.5 10.1
10/26/2021 2:15:00 PM 12.98 55.364 0.083 7.17 884.8 10.12
10/26/2021 2:30:00 PM 12.94 55.292 0.079 7.11 954.96 10.14
10/26/2021 2:45:00 PM 12.89 55.202 0.075 7.07 1060.62 10.15
10/26/2021 3:00:00 PM 12.84 55.112 0.072 7.04 1173.05 10.16
10/26/2021 3:15:00 PM 12.78 55.004 0.07 7.01 1200.82 10.17
10/26/2021 3:30:00 PM 12.74 54.932 0.068 6.97 1154.45 10.18
10/26/2021 3:45:00 PM 12.69 54.842 0.067 6.96 1125.43 10.17
10/26/2021 4:00:00 PM 12.66 54.788 0.066 6.95 1075.12 10.17
10/26/2021 4:15:00 PM 12.62 54.716 0.064 6.94 1018.89 10.18
10/26/2021 4:30:00 PM 12.58 54.644 0.063 6.99 942.34 10.19
10/26/2021 4:45:00 PM 12.55 54.59 0.063 6.99 862.1 10.2
10/26/2021 5:00:00 PM 12.52 54.536 0.062 7.02 817.52 10.21
10/26/2021 5:15:00 PM 12.49 54.482 0.062 6.99 759.47 10.21
10/26/2021 5:30:00 PM 12.47 54.446 0.062 6.93 708.65 10.21
10/26/2021 5:45:00 PM 12.44 54.392 0.062 6.97 665.24 10.22
10/26/2021 6:00:00 PM 12.42 54.356 0.062 6.97 632.66 10.22
10/26/2021 6:15:00 PM 12.41 54.338 0.062 6.95 588.14 10.22
10/26/2021 6:30:00 PM 12.39 54.302 0.063 6.97 554.67 10.23
10/26/2021 6:45:00 PM 12.38 54.284 0.063 6.94 527.97 10.23
10/26/2021 7:00:00 PM 12.37 54.266 0.063 6.92 498.64 10.23
10/26/2021 7:15:00 PM 12.37 54.266 0.064 6.9 481.24 10.24
10/26/2021 7:30:00 PM 12.36 54.248 0.064 6.93 447.84 10.24
10/26/2021 7:45:00 PM 12.36 54.248 0.064 6.92 440.15 10.24
10/26/2021 8:00:00 PM 12.36 54.248 0.065 6.89 421.07 10.24
10/26/2021 8:15:00 PM 12.36 54.248 0.065 6.92 402.81 10.24
10/26/2021 8:30:00 PM 12.36 54.248 0.066 6.92 366.29 10.24
10/26/2021 8:45:00 PM 12.37 54.266 0.066 6.94 348.87 10.23
10/26/2021 9:00:00 PM 12.38 54.284 0.066 6.93 343.88 10.23
10/26/2021 9:15:00 PM 12.39 54.302 0.067 6.94 331.76 10.22
10/26/2021 9:30:00 PM 12.4 54.32 0.067 6.94 322.58 10.22
10/26/2021 9:45:00 PM 12.4 54.32 0.068 6.95 305.61 10.21
10/26/2021 10:00:00 PM 12.41 54.338 0.068 6.94 292.85 10.21
10/26/2021 10:15:00 PM 12.43 54.374 0.068 6.95 281.67 10.2
10/26/2021 10:30:00 PM 12.44 54.392 0.069 6.97 274.3 10.2
10/26/2021 10:45:00 PM 12.44 54.392 0.069 6.93 263.13 10.19
10/26/2021 11:00:00 PM 12.45 54.41 0.07 6.95 260.03 10.19
10/26/2021 11:15:00 PM 12.46 54.428 0.071 6.94 254.04 10.18
10/26/2021 11:30:00 PM 12.47 54.446 0.071 6.71 243.51 10.17
10/26/2021 11:45:00 PM 12.48 54.464 0.072 6.69 249.93 10.16
10/27/2021 12:00:00 AM 12.49 54.482 0.072 6.71 221.87 10.16
10/27/2021 12:15:00 AM 12.5 54.5 0.073 6.72 206.16 10.16
10/27/2021 12:30:00 AM 12.51 54.518 0.073 6.74 194.93 10.15
10/27/2021 12:45:00 AM 12.51 54.518 0.074 6.77 188.54 10.16
10/27/2021 1:00:00 AM 12.52 54.536 0.074 6.81 185.5 10.15
10/27/2021 1:15:00 AM 12.52 54.536 0.075 6.84 177.87 10.15
10/27/2021 1:30:00 AM 12.53 54.554 0.075 6.87 164.32 10.15
10/27/2021 1:45:00 AM 12.53 54.554 0.076 6.9 161.05 10.15
10/27/2021 2:00:00 AM 12.53 54.554 0.076 6.92 147.89 10.15
10/27/2021 2:15:00 AM 12.53 54.554 0.076 6.94 146.54 10.15
10/27/2021 2:30:00 AM 12.53 54.554 0.076 6.95 147.34 10.15
10/27/2021 2:45:00 AM 12.52 54.536 0.076 6.96 142.88 10.15
10/27/2021 3:00:00 AM 12.52 54.536 0.077 6.97 136 10.15
10/27/2021 3:15:00 AM 12.52 54.536 0.077 6.97 135.99 10.15
10/27/2021 3:30:00 AM 12.51 54.518 0.077 6.98 136.52 10.15
10/27/2021 3:45:00 AM 12.5 54.5 0.077 6.98 126.63 10.15
10/27/2021 4:00:00 AM 12.5 54.5 0.077 6.99 132.55 10.15
10/27/2021 4:15:00 AM 12.49 54.482 0.078 6.99 118.23 10.15
10/27/2021 4:30:00 AM 12.48 54.464 0.078 6.99 114.83 10.15
10/27/2021 4:45:00 AM 12.47 54.446 0.078 7 108.94 10.15
10/27/2021 5:00:00 AM 12.46 54.428 0.078 7 108.61 10.15
10/27/2021 5:15:00 AM 12.45 54.41 0.079 7 107.45 10.15
10/27/2021 5:30:00 AM 12.43 54.374 0.079 7 102.45 10.15
10/27/2021 5:45:00 AM 12.42 54.356 0.079 7 105.59 10.15
10/27/2021 6:00:00 AM 12.41 54.338 0.08 6.99 104.97 10.16
10/27/2021 6:15:00 AM 12.39 54.302 0.08 6.99 98.31 10.16
10/27/2021 6:30:00 AM 12.38 54.284 0.08 6.99 98.16 10.17
10/27/2021 6:45:00 AM 12.37 54.266 0.081 6.99 93.6 10.16
10/27/2021 7:00:00 AM 12.36 54.248 0.081 6.99 91.16 10.16
10/27/2021 7:15:00 AM 12.34 54.212 0.081 6.99 90.18 10.17
10/27/2021 7:30:00 AM 12.33 54.194 0.081 7 89.23 10.17
10/27/2021 7:45:00 AM 12.31 54.158 0.082 6.99 85.66 10.18
10/27/2021 8:00:00 AM 12.3 54.14 0.082 7 80.39 10.18
10/27/2021 8:15:00 AM 12.29 54.122 0.082 7.01 79.9 10.18
10/27/2021 8:30:00 AM 12.27 54.086 0.083 7.01 74.88 10.19
10/27/2021 8:45:00 AM 12.26 54.068 0.083 7.02 71.9 10.19
10/27/2021 9:00:00 AM 12.25 54.05 0.083 7.03 70.53 10.18
10/27/2021 9:15:00 AM 12.24 54.032 0.083 7.04 69.74 10.19
10/27/2021 9:30:00 AM 12.23 54.014 0.084 7.05 75.62 10.19
10/27/2021 9:45:00 AM 12.22 53.996 0.084 7.05 68.48 10.19
10/27/2021 10:00:00 AM 12.21 53.978 0.084 7.06 65.36 10.2
10/27/2021 10:15:00 AM 12.21 53.978 0.084 7.05 65.46 10.21
10/27/2021 10:30:00 AM 12.21 53.978 0.085 7.07 63.04 10.21
10/27/2021 10:45:00 AM 12.23 54.014 0.085 7.08 64.04 10.2
10/27/2021 11:00:00 AM 12.3 54.14 0.085 7.09 65.26 10.2
10/27/2021 11:15:00 AM 12.36 54.248 0.086 7.1 65.61 10.19
10/27/2021 11:30:00 AM 12.44 54.392 0.086 7.11 58.77 10.19
10/27/2021 11:45:00 AM 12.53 54.554 0.086 7.09 62.63 10.17
10/27/2021 12:00:00 PM 12.58 54.644 0.086 7.1 59.14 10.16
10/27/2021 12:15:00 PM 12.62 54.716 0.087 7.09 59.02 10.15
10/27/2021 12:30:00 PM 12.69 54.842 0.087 7.1 57.44 10.13
10/27/2021 12:45:00 PM 12.72 54.896 0.087 7.1 56.82 10.13
10/27/2021 1:00:00 PM 12.78 55.004 0.087 7.09 56.81 10.12
10/27/2021 1:15:00 PM 12.81 55.058 0.087 7.1 53.64 10.11
10/27/2021 1:30:00 PM 12.83 55.094 0.088 7.11 54.4 10.11
10/27/2021 1:45:00 PM 12.86 55.148 0.088 7.1 56.38 10.09
10/27/2021 2:00:00 PM 12.94 55.292 0.088 7.11 51.36 10.08
10/27/2021 2:15:00 PM 13.05 55.49 0.088 7.11 52.65 10.06
10/27/2021 2:30:00 PM 13.12 55.616 0.088 7.11 51.94 10.05
10/27/2021 2:45:00 PM 13.15 55.67 0.088 7.12 54.43 10.04
10/27/2021 3:00:00 PM 13.18 55.724 0.089 7.12 48.51 10.03
10/27/2021 3:15:00 PM 13.2 55.76 0.089 7.11 48.51 10.03
10/27/2021 3:30:00 PM 13.2 55.76 0.089 7.1 45.67 10.01
10/27/2021 3:45:00 PM 13.19 55.742 0.089 7.11 46.47 10
10/27/2021 4:00:00 PM 13.16 55.688 0.089 7.12 47.41 10
10/27/2021 4:15:00 PM 13.13 55.634 0.089 7.11 51.01 10
10/27/2021 4:30:00 PM 13.08 55.544 0.089 7.11 44.71 10
10/27/2021 4:45:00 PM 13.03 55.454 0.09 7.11 45.42 10
10/27/2021 5:00:00 PM 12.97 55.346 0.09 7.11 49.36 10
10/27/2021 5:15:00 PM 12.91 55.238 0.09 7.09 43.43 10.01
10/27/2021 5:30:00 PM 12.85 55.13 0.09 7.1 44.65 10.01
10/27/2021 5:45:00 PM 12.79 55.022 0.09 7.1 41.79 10.02
10/27/2021 6:00:00 PM 12.73 54.914 0.09 7.1 41.5 10.03
10/27/2021 6:15:00 PM 12.67 54.806 0.091 7.1 41.07 10.04
10/27/2021 6:30:00 PM 12.61 54.698 0.091 7.11 38.13 10.05
10/27/2021 6:45:00 PM 12.56 54.608 0.091 7.09 40.84 10.06
10/27/2021 7:00:00 PM 12.51 54.518 0.091 7.1 36.83 10.07
10/27/2021 7:15:00 PM 12.47 54.446 0.091 7.1 37.15 10.08
10/27/2021 7:30:00 PM 12.43 54.374 0.091 7.1 39.89 10.09
10/27/2021 7:45:00 PM 12.38 54.284 0.092 7.09 36.36 10.1
10/27/2021 8:00:00 PM 12.32 54.176 0.092 7.1 37.5 10.11
10/27/2021 8:15:00 PM 12.27 54.086 0.092 7.1 49.12 10.13
10/27/2021 8:30:00 PM 12.22 53.996 0.092 7.1 37.03 10.13
10/27/2021 8:45:00 PM 12.17 53.906 0.092 7.1 35.84 10.15
10/27/2021 9:00:00 PM 12.12 53.816 0.092 7.09 35.55 10.15
10/27/2021 9:15:00 PM 12.07 53.726 0.092 7.09 36.94 10.17
10/27/2021 9:30:00 PM 12.02 53.636 0.093 7.1 39.87 10.17
10/27/2021 9:45:00 PM 11.96 53.528 0.093 7.09 36.29 10.19
10/27/2021 10:00:00 PM 11.91 53.438 0.093 7.09 33.48 10.21
10/27/2021 10:15:00 PM 11.85 53.33 0.093 7.1 35.34 10.22
10/27/2021 10:30:00 PM 11.8 53.24 0.093 7.1 33.38 10.23
10/27/2021 10:45:00 PM 11.74 53.132 0.093 7.1 32.74 10.24
10/27/2021 11:00:00 PM 11.69 53.042 0.094 7.09 31.97 10.26
10/27/2021 11:15:00 PM 11.64 52.952 0.094 7.1 32.75 10.27
10/27/2021 11:30:00 PM 11.59 52.862 0.094 7.1 33.66 10.28
10/27/2021 11:45:00 PM 11.54 52.772 0.094 7.09 32.78 10.28
10/28/2021 12:00:00 AM 11.5 52.7 0.094 7.1 36.46 10.29
10/28/2021 12:15:00 AM 11.45 52.61 0.094 7.1 32.06 10.3
10/28/2021 12:30:00 AM 11.4 52.52 0.095 7.1 32.89 10.31
10/28/2021 12:45:00 AM 11.36 52.448 0.095 7.1 32.37 10.33
10/28/2021 1:00:00 AM 11.31 52.358 0.095 7.09 34.09 10.34
10/28/2021 1:15:00 AM 11.27 52.286 0.095 7.1 31.84 10.35
10/28/2021 1:30:00 AM 11.22 52.196 0.095 7.1 31.85 10.36
10/28/2021 1:45:00 AM 11.18 52.124 0.095 7.09 30.42 10.37
10/28/2021 2:00:00 AM 11.13 52.034 0.095 7.09 29.51 10.38
10/28/2021 2:15:00 AM 11.09 51.962 0.096 7.1 28.92 10.4
10/28/2021 2:30:00 AM 11.05 51.89 0.096 7.1 28.9 10.42
10/28/2021 2:45:00 AM 11 51.8 0.096 7.11 27.52 10.43
10/28/2021 3:00:00 AM 10.96 51.728 0.096 7.1 28.06 10.44
10/28/2021 3:15:00 AM 10.91 51.638 0.096 7.1 29.3 10.45
10/28/2021 3:30:00 AM 10.87 51.566 0.096 7.1 28.24 10.44
10/28/2021 3:45:00 AM 10.83 51.494 0.096 7.1 27.67 10.47
10/28/2021 4:00:00 AM 10.79 51.422 0.096 7.1 29.25 10.48
10/28/2021 4:15:00 AM 10.77 51.386 0.097 7.1 33.18 10.49
10/28/2021 4:30:00 AM 10.75 51.35 0.097 7.1 27.81 10.49
10/28/2021 4:45:00 AM 10.72 51.296 0.097 7.1 28.88 10.5
10/28/2021 5:00:00 AM 10.7 51.26 0.097 7.11 27.18 10.51
10/28/2021 5:15:00 AM 10.67 51.206 0.097 7.1 27.81 10.51
10/28/2021 5:30:00 AM 10.65 51.17 0.097 7.1 30.31 10.53
10/28/2021 5:45:00 AM 10.61 51.098 0.097 7.1 26.58 10.52
10/28/2021 6:00:00 AM 10.57 51.026 0.097 7.11 26.98 10.53
10/28/2021 6:15:00 AM 10.52 50.936 0.098 7.11 24.48 10.55
10/28/2021 6:30:00 AM 10.47 50.846 0.098 7.11 26.52 10.56
10/28/2021 6:45:00 AM 10.44 50.792 0.098 7.11 20.6 10.57
10/28/2021 7:00:00 AM 10.41 50.738 0.098 7.1 23.35 10.58
10/28/2021 7:15:00 AM 10.38 50.684 0.098 7.11 22.75 10.59
10/28/2021 7:30:00 AM 10.34 50.612 0.098 7.11 23.21 10.6
10/28/2021 7:45:00 AM 10.32 50.576 0.098 7.1 22.61 10.6
10/28/2021 8:00:00 AM 10.31 50.558 0.099 7.11 23.93 10.61
10/28/2021 8:15:00 AM 10.3 50.54 0.099 7.11 22.28 10.62
10/28/2021 8:30:00 AM 10.29 50.522 0.099 7.11 21.71 10.63
10/28/2021 8:45:00 AM 10.29 50.522 0.099 7.11 25.51 10.63
10/28/2021 9:00:00 AM 10.29 50.522 0.099 7.12 20.18 10.63
10/28/2021 9:15:00 AM 10.29 50.522 0.099 7.11 22.25 10.64
10/28/2021 9:30:00 AM 10.3 50.54 0.099 7.12 19.93 10.65
10/28/2021 9:45:00 AM 10.32 50.576 0.099 7.12 20.07 10.65
10/28/2021 10:00:00 AM 10.35 50.63 0.1 7.11 19.86 10.65
10/28/2021 10:15:00 AM 10.38 50.684 0.1 7.11 19.43 10.65
10/28/2021 10:30:00 AM 10.43 50.774 0.1 7.12 20.89 10.64
10/28/2021 10:45:00 AM 10.48 50.864 0.1 7.12 18.7 10.64
10/28/2021 11:00:00 AM 10.55 50.99 0.1 7.12 16.94 10.63
10/28/2021 11:15:00 AM 10.58 51.044 0.1 7.12 19.76 10.62
10/28/2021 11:30:00 AM 10.66 51.188 0.1 7.12 18.55 10.61
10/28/2021 11:45:00 AM 10.77 51.386 0.1 7.13 19.4 10.58
10/28/2021 12:00:00 PM 10.91 51.638 0.1 7.13 18.83 10.58
10/28/2021 12:15:00 PM 11.06 51.908 0.101 7.13 18.29 10.55
10/28/2021 12:30:00 PM 11.21 52.178 0.101 7.13 17.92 10.51
10/28/2021 12:45:00 PM 11.37 52.466 0.101 7.14 15.5 10.47
10/28/2021 1:00:00 PM 11.53 52.754 0.101 7.14 17.85 10.43
10/28/2021 1:15:00 PM 11.7 53.06 0.101 7.14 18.85 10.4
10/28/2021 1:30:00 PM 11.86 53.348 0.101 7.14 18.61 10.35
10/28/2021 1:45:00 PM 12 53.6 0.101 7.15 18.8 10.32
10/28/2021 2:00:00 PM 12.12 53.816 0.101 7.15 18.13 10.29
10/28/2021 2:15:00 PM 12.22 53.996 0.101 7.15 18.33 10.26
10/28/2021 2:30:00 PM 12.31 54.158 0.102 7.15 18.96 10.24
10/28/2021 2:45:00 PM 12.39 54.302 0.102 7.15 16.97 10.21
10/28/2021 3:00:00 PM 12.44 54.392 0.102 7.15 23.06 10.19
10/28/2021 3:15:00 PM 12.48 54.464 0.102 7.15 17.86 10.17
10/28/2021 3:30:00 PM 12.5 54.5 0.102 7.15 19.1 10.16
10/28/2021 3:45:00 PM 12.5 54.5 0.102 7.15 20.24 10.14
10/28/2021 4:00:00 PM 12.48 54.464 0.102 7.15 20.66 10.13
10/28/2021 4:15:00 PM 12.45 54.41 0.102 7.16 26.85 10.12
10/28/2021 4:30:00 PM 12.41 54.338 0.102 7.15 22.44 10.12
10/28/2021 4:45:00 PM 12.36 54.248 0.102 7.15 24.03 10.11
10/28/2021 5:00:00 PM 12.31 54.158 0.103 7.15 29.97 10.11
10/28/2021 5:15:00 PM 12.25 54.05 0.103 7.15 22.94 10.12
10/28/2021 5:30:00 PM 12.2 53.96 0.103 7.14 23.92 10.12
10/28/2021 5:45:00 PM 12.15 53.87 0.103 7.14 24.65 10.12
10/28/2021 6:00:00 PM 12.1 53.78 0.103 7.14 23.27 10.12
10/28/2021 6:15:00 PM 12.06 53.708 0.103 7.13 23.18 10.13
10/28/2021 6:30:00 PM 12.02 53.636 0.103 7.13 25.07 10.13
10/28/2021 6:45:00 PM 11.98 53.564 0.103 7.13 23.8 10.14
10/28/2021 7:00:00 PM 11.95 53.51 0.103 7.13 25.45 10.14
10/28/2021 7:15:00 PM 11.92 53.456 0.103 7.12 22.14 10.14
10/28/2021 7:30:00 PM 11.89 53.402 0.103 7.13 22.81 10.16
10/28/2021 7:45:00 PM 11.85 53.33 0.103 7.13 23.57 10.16
10/28/2021 8:00:00 PM 11.81 53.258 0.104 7.13 23.27 10.16
10/28/2021 8:15:00 PM 11.76 53.168 0.104 7.12 23.68 10.17
10/28/2021 8:30:00 PM 11.72 53.096 0.104 7.12 22.34 10.18
10/28/2021 8:45:00 PM 11.68 53.024 0.104 7.13 20.63 10.19
10/28/2021 9:00:00 PM 11.64 52.952 0.104 7.12 21.68 10.2
10/28/2021 9:15:00 PM 11.6 52.88 0.104 7.13 21.42 10.21
10/28/2021 9:30:00 PM 11.56 52.808 0.104 7.12 21.12 10.22
10/28/2021 9:45:00 PM 11.52 52.736 0.104 7.12 20 10.23
10/28/2021 10:00:00 PM 11.48 52.664 0.104 7.13 19.61 10.23
10/28/2021 10:15:00 PM 11.44 52.592 0.105 7.12 17.64 10.24
10/28/2021 10:30:00 PM 11.39 52.502 0.105 7.12 23.79 10.25
10/28/2021 10:45:00 PM 11.35 52.43 0.105 7.12 17.62 10.27
10/28/2021 11:00:00 PM 11.3 52.34 0.105 7.12 17.33 10.28
10/28/2021 11:15:00 PM 11.25 52.25 0.105 7.12 16.13 10.29
10/28/2021 11:30:00 PM 11.21 52.178 0.105 7.12 17.27 10.3
10/28/2021 11:45:00 PM 11.16 52.088 0.105 7.12 16.84 10.31
10/29/2021 12:00:00 AM 11.11 51.998 0.105 7.12 18.84 10.32
10/29/2021 12:15:00 AM 11.06 51.908 0.105 7.12 17.52 10.33
10/29/2021 12:30:00 AM 11.01 51.818 0.105 7.12 17.09 10.34
10/29/2021 12:45:00 AM 10.97 51.746 0.105 7.12 16.01 10.35
10/29/2021 1:00:00 AM 10.96 51.728 0.105 7.12 17.02 10.37
10/29/2021 1:15:00 AM 10.95 51.71 0.106 7.12 17.35 10.36
10/29/2021 1:30:00 AM 10.94 51.692 0.106 7.12 16.08 10.38
10/29/2021 1:45:00 AM 10.91 51.638 0.106 7.12 16.2 10.38
10/29/2021 2:00:00 AM 10.89 51.602 0.106 7.12 17.2 10.38
10/29/2021 2:15:00 AM 10.88 51.584 0.106 7.12 16.95 10.4
10/29/2021 2:30:00 AM 10.87 51.566 0.106 7.12 16.39 10.4
10/29/2021 2:45:00 AM 10.86 51.548 0.106 7.12 15.89 10.4
10/29/2021 3:00:00 AM 10.86 51.548 0.106 7.13 16.16 10.39
10/29/2021 3:15:00 AM 10.86 51.548 0.106 7.13 16.02 10.41
10/29/2021 3:30:00 AM 10.87 51.566 0.106 7.13 15.24 10.4
10/29/2021 3:45:00 AM 10.85 51.53 0.106 7.13 14.86 10.4
10/29/2021 4:00:00 AM 10.84 51.512 0.107 7.13 15.44 10.4
10/29/2021 4:15:00 AM 10.82 51.476 0.107 7.13 15.66 10.41
10/29/2021 4:30:00 AM 10.79 51.422 0.107 7.13 16.12 10.41
10/29/2021 4:45:00 AM 10.77 51.386 0.107 7.13 14.42 10.42
10/29/2021 5:00:00 AM 10.76 51.368 0.107 7.13 14.1 10.41
10/29/2021 5:15:00 AM 10.77 51.386 0.107 7.13 15.3 10.4
10/29/2021 5:30:00 AM 10.78 51.404 0.107 7.13 14.44 10.42
10/29/2021 5:45:00 AM 10.79 51.422 0.107 7.13 14.33 10.4
10/29/2021 6:00:00 AM 10.8 51.44 0.107 7.13 14.12 10.4
10/29/2021 6:15:00 AM 10.8 51.44 0.107 7.13 14.31 10.4
10/29/2021 6:30:00 AM 10.81 51.458 0.107 7.13 13.6 10.4
10/29/2021 6:45:00 AM 10.81 51.458 0.107 7.13 13.73 10.4
10/29/2021 7:00:00 AM 10.81 51.458 0.107 7.14 14.37 10.4
10/29/2021 7:15:00 AM 10.81 51.458 0.108 7.14 15 10.41
10/29/2021 7:30:00 AM 10.82 51.476 0.107 7.14 15.02 10.4
10/29/2021 7:45:00 AM 10.83 51.494 0.108 7.14 16.4 10.4
10/29/2021 8:00:00 AM 10.84 51.512 0.108 7.14 16.45 10.39
10/29/2021 8:15:00 AM 10.85 51.53 0.108 7.14 15.95 10.39
10/29/2021 8:30:00 AM 10.85 51.53 0.108 7.15 15.32 10.39
10/29/2021 8:45:00 AM 10.85 51.53 0.108 7.15 15.37 10.4
10/29/2021 9:00:00 AM 10.87 51.566 0.108 7.14 13.7 10.39
10/29/2021 9:15:00 AM 10.89 51.602 0.108 7.15 14.16 10.4
10/29/2021 9:30:00 AM 10.91 51.638 0.108 7.15 13.98 10.39
10/29/2021 9:45:00 AM 10.94 51.692 0.108 7.15 13.76 10.4
10/29/2021 10:00:00 AM 10.97 51.746 0.108 7.15 13.01 10.4
10/29/2021 10:15:00 AM 11.04 51.872 0.108 7.15 12.88 10.39
10/29/2021 10:30:00 AM 11.12 52.016 0.108 7.16 17.09 10.37
10/29/2021 10:45:00 AM 11.16 52.088 0.109 7.16 21.07 10.37
10/29/2021 11:00:00 AM 11.22 52.196 0.109 7.16 20.54 10.36
10/29/2021 11:15:00 AM 11.35 52.43 0.109 7.16 20.86 10.35
10/29/2021 11:30:00 AM 11.45 52.61 0.109 7.16 22.35 10.33
10/29/2021 11:45:00 AM 11.5 52.7 0.109 7.17 22.93 10.32
10/29/2021 12:00:00 PM 11.57 52.826 0.109 7.16 20.35 10.3
10/29/2021 12:15:00 PM 11.61 52.898 0.109 7.16 19.15 10.27
10/29/2021 12:30:00 PM 11.66 52.988 0.109 7.17 18.59 10.26
10/29/2021 12:45:00 PM 11.68 53.024 0.109 7.17 20 10.25
10/29/2021 1:00:00 PM 11.74 53.132 0.109 7.17 17.84 10.24
10/29/2021 1:15:00 PM 11.9 53.42 0.109 7.17 17.59 10.21
10/29/2021 1:30:00 PM 12.03 53.654 0.109 7.17 18.15 10.2
10/29/2021 1:45:00 PM 12.13 53.834 0.109 7.17 15.02 10.18
10/29/2021 2:00:00 PM 12.23 54.014 0.11 7.17 14.42 10.15
10/29/2021 2:15:00 PM 12.23 54.014 0.11 7.17 13.33 10.13
10/29/2021 2:30:00 PM 12.21 53.978 0.11 7.17 13.13 10.11
10/29/2021 2:45:00 PM 12.15 53.87 0.11 7.17 16.7 10.11
10/29/2021 3:00:00 PM 12.12 53.816 0.11 7.17 16.18 10.1
10/29/2021 3:15:00 PM 12.1 53.78 0.11 7.17 14.76 10.1
10/29/2021 3:30:00 PM 12.08 53.744 0.11 7.17 14.94 10.09
10/29/2021 3:45:00 PM 12.06 53.708 0.11 7.17 14.61 10.08
10/29/2021 4:00:00 PM 12.02 53.636 0.11 7.17 14.41 10.08
10/29/2021 4:15:00 PM 11.99 53.582 0.11 7.16 14.57 10.08
10/29/2021 4:30:00 PM 11.95 53.51 0.11 7.16 14.26 10.08
10/29/2021 4:45:00 PM 11.93 53.474 0.11 7.17 13.67 10.08
10/29/2021 5:00:00 PM 11.9 53.42 0.111 7.16 11.55 10.06
10/29/2021 5:15:00 PM 11.87 53.366 0.111 7.16 12.09 10.07
10/29/2021 5:30:00 PM 11.83 53.294 0.111 7.16 11.51 10.08
10/29/2021 5:45:00 PM 11.8 53.24 0.111 7.16 11.09 10.07
10/29/2021 6:00:00 PM 11.76 53.168 0.111 7.16 12.39 10.07
10/29/2021 6:15:00 PM 11.74 53.132 0.111 7.16 11.98 10.07
10/29/2021 6:30:00 PM 11.72 53.096 0.111 7.16 10.94 10.07
10/29/2021 6:45:00 PM 11.7 53.06 0.111 7.16 11.3 10.07
10/29/2021 7:00:00 PM 11.68 53.024 0.111 7.15 11.23 10.07
10/29/2021 7:15:00 PM 11.65 52.97 0.111 7.15 10.84 10.08
10/29/2021 7:30:00 PM 11.63 52.934 0.111 7.16 11.26 10.09
10/29/2021 7:45:00 PM 11.6 52.88 0.111 7.15 11.09 10.1
10/29/2021 8:00:00 PM 11.58 52.844 0.111 7.15 10.58 10.1
10/29/2021 8:15:00 PM 11.57 52.826 0.111 7.15 11.51 10.1
10/29/2021 8:30:00 PM 11.55 52.79 0.111 7.15 11.24 10.11
10/29/2021 8:45:00 PM 11.53 52.754 0.111 7.15 11.43 10.1
10/29/2021 9:00:00 PM 11.52 52.736 0.111 7.15 10.89 10.11
10/29/2021 9:15:00 PM 11.49 52.682 0.111 7.15 10.86 10.12
10/29/2021 9:30:00 PM 11.47 52.646 0.111 7.15 11.34 10.13
10/29/2021 9:45:00 PM 11.42 52.556 0.11 7.16 12.5 10.16
10/29/2021 10:00:00 PM 11.38 52.484 0.109 7.16 11.39 10.18
10/29/2021 10:15:00 PM 11.34 52.412 0.109 7.16 11.99 10.2
10/29/2021 10:30:00 PM 11.3 52.34 0.108 7.17 11.83 10.22
10/29/2021 10:45:00 PM 11.28 52.304 0.108 7.17 11.89 10.23
10/29/2021 11:00:00 PM 11.26 52.268 0.109 7.17 13.5 10.24
10/29/2021 11:15:00 PM 11.22 52.196 0.112 7.17 18.6 10.26
10/29/2021 11:30:00 PM 11.16 52.088 0.113 7.2 42.97 10.33
10/29/2021 11:45:00 PM 10.96 51.728 0.108 7.24 104.03 10.48
10/30/2021 12:00:00 AM 10.68 51.224 0.102 7.27 279.69 10.65
10/30/2021 12:15:00 AM 10.5 50.9 0.094 7.31 359.01 10.77
10/30/2021 12:30:00 AM 10.41 50.738 0.087 7.26 413.57 10.82
10/30/2021 12:45:00 AM 10.36 50.648 0.085 7.25 380.15 10.84
10/30/2021 1:00:00 AM 10.31 50.558 0.082 7.23 347.08 10.86
10/30/2021 1:15:00 AM 10.29 50.522 0.08 7.2 331.48 10.85
10/30/2021 1:30:00 AM 10.29 50.522 0.077 7.23 308.96 10.85
10/30/2021 1:45:00 AM 10.29 50.522 0.076 7.2 271.75 10.85
10/30/2021 2:00:00 AM 10.29 50.522 0.075 7.19 240.28 10.84
10/30/2021 2:15:00 AM 10.3 50.54 0.074 7.19 222.06 10.83
10/30/2021 2:30:00 AM 10.3 50.54 0.073 7.17 201.22 10.81
10/30/2021 2:45:00 AM 10.31 50.558 0.073 7.15 188.14 10.8
10/30/2021 3:00:00 AM 10.32 50.576 0.073 7.15 169.81 10.79
10/30/2021 3:15:00 AM 10.33 50.594 0.073 7.15 154.26 10.77
10/30/2021 3:30:00 AM 10.34 50.612 0.073 7.15 146.84 10.76
10/30/2021 3:45:00 AM 10.35 50.63 0.073 7.14 134.75 10.75
10/30/2021 4:00:00 AM 10.36 50.648 0.074 7.14 130.3 10.74
10/30/2021 4:15:00 AM 10.38 50.684 0.074 7.14 116.55 10.72
10/30/2021 4:30:00 AM 10.39 50.702 0.075 7.12 110.54 10.71
10/30/2021 4:45:00 AM 10.41 50.738 0.075 7.14 101.8 10.69
10/30/2021 5:00:00 AM 10.42 50.756 0.076 7.13 95.75 10.68
10/30/2021 5:15:00 AM 10.44 50.792 0.076 7.13 89.5 10.67
10/30/2021 5:30:00 AM 10.45 50.81 0.077 7.14 82.24 10.66
10/30/2021 5:45:00 AM 10.47 50.846 0.078 7.13 80.41 10.65
10/30/2021 6:00:00 AM 10.48 50.864 0.078 7.14 75.98 10.64
10/30/2021 6:15:00 AM 10.5 50.9 0.079 7.15 76.44 10.63
10/30/2021 6:30:00 AM 10.52 50.936 0.079 7.14 79.05 10.62
10/30/2021 6:45:00 AM 10.54 50.972 0.08 7.14 68.89 10.61
10/30/2021 7:00:00 AM 10.55 50.99 0.08 7.14 59.2 10.6
10/30/2021 7:15:00 AM 10.56 51.008 0.081 7.14 59.42 10.6
10/30/2021 7:30:00 AM 10.58 51.044 0.082 7.15 57.34 10.58
10/30/2021 7:45:00 AM 10.6 51.08 0.082 7.14 52.6 10.57
10/30/2021 8:00:00 AM 10.61 51.098 0.082 7.14 60.34 10.58
10/30/2021 8:15:00 AM 10.63 51.134 0.083 7.13 50.73 10.57
10/30/2021 8:30:00 AM 10.65 51.17 0.083 7.14 51.72 10.56
10/30/2021 8:45:00 AM 10.67 51.206 0.084 7.14 46.62 10.56
10/30/2021 9:00:00 AM 10.7 51.26 0.084 7.13 44.42 10.55
10/30/2021 9:15:00 AM 10.74 51.332 0.085 7.14 33.13 10.53
10/30/2021 9:30:00 AM 10.77 51.386 0.085 7.14 44.86 10.54
10/30/2021 9:45:00 AM 10.8 51.44 0.085 7.15 45.47 10.53
10/30/2021 10:00:00 AM 10.84 51.512 0.086 7.15 39.33 10.51
10/30/2021 10:15:00 AM 10.9 51.62 0.086 7.14 38.2 10.51
10/30/2021 10:30:00 AM 10.94 51.692 0.086 7.15 34.08 10.49
10/30/2021 10:45:00 AM 10.99 51.782 0.087 7.15 36.84 10.49
10/30/2021 11:00:00 AM 11.03 51.854 0.087 7.15 37.6 10.47
10/30/2021 11:15:00 AM 11.08 51.944 0.087 7.15 36.02 10.46
10/30/2021 11:30:00 AM 11.13 52.034 0.088 7.15 34.6 10.44
10/30/2021 11:45:00 AM 11.17 52.106 0.088 7.15 33.88 10.43
10/30/2021 12:00:00 PM 11.21 52.178 0.088 7.15 34.16 10.41
10/30/2021 12:15:00 PM 11.25 52.25 0.088 7.16 33.52 10.4
10/30/2021 12:30:00 PM 11.29 52.322 0.089 7.15 32.32 10.4
10/30/2021 12:45:00 PM 11.33 52.394 0.089 7.14 32.46 10.38
10/30/2021 1:00:00 PM 11.38 52.484 0.089 7.15 31.77 10.37
10/30/2021 1:15:00 PM 11.43 52.574 0.089 7.16 33.7 10.36
10/30/2021 1:30:00 PM 11.48 52.664 0.09 7.16 31.96 10.35
10/30/2021 1:45:00 PM 11.51 52.718 0.09 7.16 29.59 10.33
10/30/2021 2:00:00 PM 11.54 52.772 0.09 7.16 32.7 10.32
10/30/2021 2:15:00 PM 11.56 52.808 0.09 7.17 30.23 10.32
10/30/2021 2:30:00 PM 11.57 52.826 0.09 7.16 29.51 10.32
10/30/2021 2:45:00 PM 11.58 52.844 0.09 7.16 26.86 10.31
10/30/2021 3:00:00 PM 11.59 52.862 0.09 7.16 31.47 10.31
10/30/2021 3:15:00 PM 11.61 52.898 0.09 7.17 32.37 10.31
10/30/2021 3:30:00 PM 11.63 52.934 0.09 7.16 29.22 10.3
10/30/2021 3:45:00 PM 11.66 52.988 0.09 7.17 29.53 10.3
10/30/2021 4:00:00 PM 11.68 53.024 0.09 7.17 28.54 10.29
10/30/2021 4:15:00 PM 11.7 53.06 0.09 7.17 30.05 10.28
10/30/2021 4:30:00 PM 11.71 53.078 0.09 7.17 30.37 10.28
10/30/2021 4:45:00 PM 11.72 53.096 0.09 7.17 30.77 10.27
10/30/2021 5:00:00 PM 11.73 53.114 0.09 7.17 30.26 10.27
10/30/2021 5:15:00 PM 11.74 53.132 0.09 7.17 48.47 10.26
10/30/2021 5:30:00 PM 11.75 53.15 0.09 7.16 28.18 10.26
10/30/2021 5:45:00 PM 11.76 53.168 0.09 7.17 30.51 10.25
10/30/2021 6:00:00 PM 11.76 53.168 0.091 7.16 25.96 10.24
10/30/2021 6:15:00 PM 11.77 53.186 0.091 7.16 29.65 10.24
10/30/2021 6:30:00 PM 11.76 53.168 0.091 7.15 30.36 10.23
10/30/2021 6:45:00 PM 11.74 53.132 0.091 7.15 26.21 10.24
10/30/2021 7:00:00 PM 11.72 53.096 0.091 7.16 26.25 10.23
10/30/2021 7:15:00 PM 11.7 53.06 0.092 7.15 27.28 10.23
10/30/2021 7:30:00 PM 11.67 53.006 0.092 7.16 25.89 10.24
10/30/2021 7:45:00 PM 11.65 52.97 0.092 7.14 25.58 10.24
10/30/2021 8:00:00 PM 11.63 52.934 0.092 7.14 24.92 10.24
10/30/2021 8:15:00 PM 11.61 52.898 0.092 7.14 34.31 10.24
10/30/2021 8:30:00 PM 11.59 52.862 0.092 7.14 23.34 10.25
10/30/2021 8:45:00 PM 11.57 52.826 0.093 7.13 24.45 10.26
10/30/2021 9:00:00 PM 11.54 52.772 0.093 7.14 23.7 10.26
10/30/2021 9:15:00 PM 11.52 52.736 0.093 7.14 21.98 10.26
10/30/2021 9:30:00 PM 11.51 52.718 0.093 7.14 18.99 10.26
10/30/2021 9:45:00 PM 11.5 52.7 0.093 7.13 23.82 10.26
10/30/2021 10:00:00 PM 11.49 52.682 0.093 7.14 23.52 10.27
10/30/2021 10:15:00 PM 11.47 52.646 0.094 7.14 30.31 10.27
10/30/2021 10:30:00 PM 11.45 52.61 0.094 7.14 23.12 10.27
10/30/2021 10:45:00 PM 11.43 52.574 0.094 7.14 22.76 10.28
10/30/2021 11:00:00 PM 11.41 52.538 0.094 7.14 21.91 10.28
10/30/2021 11:15:00 PM 11.39 52.502 0.094 7.14 25.58 10.28
10/30/2021 11:30:00 PM 11.37 52.466 0.094 7.14 23.24 10.28
10/30/2021 11:45:00 PM 11.35 52.43 0.095 7.14 23.41 10.28
10/31/2021 12:00:00 AM 11.33 52.394 0.095 7.14 21.6 10.29
10/31/2021 12:15:00 AM 11.31 52.358 0.095 7.14 21.17 10.29
10/31/2021 12:30:00 AM 11.28 52.304 0.095 7.14 22.45 10.29
10/31/2021 12:45:00 AM 11.26 52.268 0.095 7.14 25.06 10.3
10/31/2021 1:00:00 AM 11.24 52.232 0.095 7.14 22.31 10.3
10/31/2021 1:15:00 AM 11.22 52.196 0.096 7.14 21.72 10.3
10/31/2021 1:30:00 AM 11.2 52.16 0.096 7.14 21.62 10.3
10/31/2021 1:45:00 AM 11.18 52.124 0.096 7.14 20.94 10.31
10/31/2021 2:00:00 AM 11.16 52.088 0.096 7.15 19.42 10.3
10/31/2021 2:15:00 AM 11.14 52.052 0.096 7.14 20.11 10.32
10/31/2021 2:30:00 AM 11.11 51.998 0.096 7.15 18.99 10.32
10/31/2021 2:45:00 AM 11.09 51.962 0.096 7.14 19.56 10.33
10/31/2021 3:00:00 AM 11.07 51.926 0.096 7.14 21.41 10.32
10/31/2021 3:15:00 AM 11.06 51.908 0.097 7.14 23.25 10.33
10/31/2021 3:30:00 AM 11.04 51.872 0.097 7.14 28.48 10.33
10/31/2021 3:45:00 AM 11.03 51.854 0.097 7.15 21.95 10.34
10/31/2021 4:00:00 AM 11.01 51.818 0.097 7.15 23.54 10.33
10/31/2021 4:15:00 AM 10.99 51.782 0.097 7.14 23.02 10.35
10/31/2021 4:30:00 AM 10.98 51.764 0.097 7.15 19.86 10.35
10/31/2021 4:45:00 AM 10.97 51.746 0.097 7.15 20.03 10.35
10/31/2021 5:00:00 AM 10.96 51.728 0.097 7.15 18.95 10.35
10/31/2021 5:15:00 AM 10.95 51.71 0.097 7.15 23.21 10.34
10/31/2021 5:30:00 AM 10.93 51.674 0.098 7.14 17.45 10.36
10/31/2021 5:45:00 AM 10.92 51.656 0.098 7.14 17.41 10.35
10/31/2021 6:00:00 AM 10.92 51.656 0.098 7.15 19.33 10.36
10/31/2021 6:15:00 AM 10.91 51.638 0.098 7.15 17.8 10.35
10/31/2021 6:30:00 AM 10.9 51.62 0.098 7.15 17.47 10.35
10/31/2021 6:45:00 AM 10.89 51.602 0.098 7.15 17.01 10.37
10/31/2021 7:00:00 AM 10.88 51.584 0.098 7.14 16.84 10.35
10/31/2021 7:15:00 AM 10.88 51.584 0.098 7.15 16.72 10.36
10/31/2021 7:30:00 AM 10.87 51.566 0.098 7.14 16.98 10.37
10/31/2021 7:45:00 AM 10.87 51.566 0.098 7.14 15.9 10.35
10/31/2021 8:00:00 AM 10.87 51.566 0.098 7.14 16.92 10.36
10/31/2021 8:15:00 AM 10.87 51.566 0.098 7.15 16.32 10.38
10/31/2021 8:30:00 AM 10.88 51.584 0.099 7.15 16.54 10.38
10/31/2021 8:45:00 AM 10.88 51.584 0.099 7.14 15.77 10.38
10/31/2021 9:00:00 AM 10.89 51.602 0.099 7.15 15.78 10.37
10/31/2021 9:15:00 AM 10.9 51.62 0.099 7.15 15.3 10.37
10/31/2021 9:30:00 AM 10.92 51.656 0.099 7.15 15.1 10.37
10/31/2021 9:45:00 AM 10.94 51.692 0.099 7.15 16.23 10.37
10/31/2021 10:00:00 AM 10.96 51.728 0.099 7.15 15.34 10.38
10/31/2021 10:15:00 AM 10.99 51.782 0.099 7.15 15.52 10.38
10/31/2021 10:30:00 AM 11.03 51.854 0.099 7.15 14.89 10.37
10/31/2021 10:45:00 AM 11.09 51.962 0.099 7.15 14.74 10.36
10/31/2021 11:00:00 AM 11.17 52.106 0.099 7.15 15.67 10.36
10/31/2021 11:15:00 AM 11.24 52.232 0.099 7.16 14.97 10.36
10/31/2021 11:30:00 AM 11.3 52.34 0.099 7.16 15.24 10.34
10/31/2021 11:45:00 AM 11.37 52.466 0.099 7.17 15.56 10.33
10/31/2021 12:00:00 PM 11.44 52.592 0.099 7.17 15.08 10.32
10/31/2021 12:15:00 PM 11.54 52.772 0.099 7.17 15.89 10.31
10/31/2021 12:30:00 PM 11.63 52.934 0.099 7.18 15.86 10.3
10/31/2021 12:45:00 PM 11.7 53.06 0.099 7.18 15.66 10.29
10/31/2021 1:00:00 PM 11.78 53.204 0.099 7.19 15.95 10.28
10/31/2021 1:15:00 PM 11.87 53.366 0.099 7.18 15.28 10.26
10/31/2021 1:30:00 PM 11.91 53.438 0.099 7.19 16.01 10.25
10/31/2021 1:45:00 PM 12.04 53.672 0.099 7.19 16.12 10.24
10/31/2021 2:00:00 PM 12.13 53.834 0.099 7.2 15.6 10.22
10/31/2021 2:15:00 PM 12.11 53.798 0.098 7.19 17.75 10.19
10/31/2021 2:30:00 PM 12.06 53.708 0.098 7.2 18.46 10.2
10/31/2021 2:45:00 PM 12.04 53.672 0.098 7.19 16.93 10.2
10/31/2021 3:00:00 PM 12.06 53.708 0.098 7.19 17.44 10.19
10/31/2021 3:15:00 PM 12.1 53.78 0.098 7.2 17.8 10.18
10/31/2021 3:30:00 PM 12.14 53.852 0.098 7.2 17.45 10.17
10/31/2021 3:45:00 PM 12.16 53.888 0.098 7.19 18.44 10.16
10/31/2021 4:00:00 PM 12.16 53.888 0.098 7.2 17.69 10.16
10/31/2021 4:15:00 PM 12.17 53.906 0.098 7.2 17.76 10.15
10/31/2021 4:30:00 PM 12.17 53.906 0.098 7.19 13.4 10.15
10/31/2021 4:45:00 PM 12.2 53.96 0.098 7.19 17.62 10.14
10/31/2021 5:00:00 PM 12.21 53.978 0.098 7.19 16.46 10.14
10/31/2021 5:15:00 PM 12.2 53.96 0.098 7.19 16.57 10.14
10/31/2021 5:30:00 PM 12.18 53.924 0.098 7.19 17.27 10.13
10/31/2021 5:45:00 PM 12.15 53.87 0.098 7.19 17.16 10.13
10/31/2021 6:00:00 PM 12.13 53.834 0.098 7.19 16.46 10.13
10/31/2021 6:15:00 PM 12.1 53.78 0.098 7.19 19.02 10.13
10/31/2021 6:30:00 PM 12.08 53.744 0.098 7.18 17.21 10.13
10/31/2021 6:45:00 PM 12.06 53.708 0.098 7.18 18.63 10.13
10/31/2021 7:00:00 PM 12.05 53.69 0.098 7.18 18.38 10.14
10/31/2021 7:15:00 PM 12.04 53.672 0.099 7.18 17.18 10.14
10/31/2021 7:30:00 PM 12.03 53.654 0.099 7.17 16.57 10.15
10/31/2021 7:45:00 PM 12.01 53.618 0.099 7.18 16.03 10.15
10/31/2021 8:00:00 PM 11.96 53.528 0.099 7.18 17.18 10.16
10/31/2021 8:15:00 PM 11.92 53.456 0.099 7.18 15.51 10.16
10/31/2021 8:30:00 PM 11.88 53.384 0.099 7.17 15.42 10.17
10/31/2021 8:45:00 PM 11.84 53.312 0.099 7.17 15.09 10.17
10/31/2021 9:00:00 PM 11.8 53.24 0.099 7.16 15.59 10.19
10/31/2021 9:15:00 PM 11.77 53.186 0.099 7.17 15.25 10.2
10/31/2021 9:30:00 PM 11.74 53.132 0.099 7.16 14.96 10.21
10/31/2021 9:45:00 PM 11.7 53.06 0.099 7.16 14.96 10.22
10/31/2021 10:00:00 PM 11.65 52.97 0.099 7.17 15.45 10.22
10/31/2021 10:15:00 PM 11.63 52.934 0.099 7.16 15.09 10.23
10/31/2021 10:30:00 PM 11.61 52.898 0.1 7.16 13.71 10.24
10/31/2021 10:45:00 PM 11.6 52.88 0.1 7.16 13.51 10.24
10/31/2021 11:00:00 PM 11.58 52.844 0.1 7.16 14.64 10.25
10/31/2021 11:15:00 PM 11.56 52.808 0.1 7.16 13.7 10.25
10/31/2021 11:30:00 PM 11.53 52.754 0.1 7.16 13.72 10.26
10/31/2021 11:45:00 PM 11.51 52.718 0.1 7.16 13.06 10.26
11/1/2021 12:00:00 AM 11.5 52.7 0.1 7.15 12.77 10.27
11/1/2021 12:15:00 AM 11.48 52.664 0.1 7.16 13.81 10.27
11/1/2021 12:30:00 AM 11.47 52.646 0.1 7.16 12.62 10.27
11/1/2021 12:45:00 AM 11.46 52.628 0.101 7.16 13.44 10.28
11/1/2021 1:00:00 AM 11.45 52.61 0.101 7.16 13.02 10.28
11/1/2021 1:15:00 AM 11.45 52.61 0.101 7.15 12.77 10.28
11/1/2021 1:30:00 AM 11.44 52.592 0.101 7.16 13.7 10.28
11/1/2021 1:45:00 AM 11.43 52.574 0.101 7.16 13.2 10.29
11/1/2021 2:00:00 AM 11.42 52.556 0.101 7.16 12.96 10.29
11/1/2021 2:15:00 AM 11.41 52.538 0.101 7.16 12.76 10.29
11/1/2021 2:30:00 AM 11.4 52.52 0.101 7.16 12.69 10.29
11/1/2021 2:45:00 AM 11.39 52.502 0.101 7.16 12.95 10.3
11/1/2021 3:00:00 AM 11.37 52.466 0.101 7.17 12.41 10.31
11/1/2021 3:15:00 AM 11.36 52.448 0.102 7.17 11.74 10.31
11/1/2021 3:30:00 AM 11.35 52.43 0.102 7.17 12.38 10.31
11/1/2021 3:45:00 AM 11.34 52.412 0.102 7.17 11.99 10.31
11/1/2021 4:00:00 AM 11.32 52.376 0.102 7.17 11.72 10.32
11/1/2021 4:15:00 AM 11.3 52.34 0.102 7.17 11.21 10.32
11/1/2021 4:30:00 AM 11.29 52.322 0.102 7.17 11.22 10.33
11/1/2021 4:45:00 AM 11.26 52.268 0.102 7.16 11.42 10.34
11/1/2021 5:00:00 AM 11.23 52.214 0.102 7.16 10.94 10.35
11/1/2021 5:15:00 AM 11.21 52.178 0.102 7.17 12.26 10.35
11/1/2021 5:30:00 AM 11.2 52.16 0.102 7.17 12.37 10.36
11/1/2021 5:45:00 AM 11.18 52.124 0.102 7.17 11.64 10.36
11/1/2021 6:00:00 AM 11.15 52.07 0.102 7.17 11.92 10.37
11/1/2021 6:15:00 AM 11.1 51.98 0.102 7.17 11.55 10.39
11/1/2021 6:30:00 AM 11.04 51.872 0.102 7.17 10.93 10.39
11/1/2021 6:45:00 AM 10.98 51.764 0.102 7.17 11.12 10.42
11/1/2021 7:00:00 AM 10.91 51.638 0.103 7.17 11.53 10.42
11/1/2021 7:15:00 AM 10.85 51.53 0.103 7.17 11.66 10.45
11/1/2021 7:30:00 AM 10.79 51.422 0.103 7.17 11.55 10.45
11/1/2021 7:45:00 AM 10.74 51.332 0.103 7.17 11.55 10.48
11/1/2021 8:00:00 AM 10.69 51.242 0.103 7.17 11.51 10.49
11/1/2021 8:15:00 AM 10.65 51.17 0.103 7.17 11.25 10.52
11/1/2021 8:30:00 AM 10.62 51.116 0.103 7.17 10.56 10.53
11/1/2021 8:45:00 AM 10.59 51.062 0.103 7.17 11.17 10.54
11/1/2021 9:00:00 AM 10.58 51.044 0.103 7.17 10.94 10.55
11/1/2021 9:15:00 AM 10.57 51.026 0.103 7.18 11.26 10.56
11/1/2021 9:30:00 AM 10.59 51.062 0.103 7.18 10.55 10.59
11/1/2021 9:45:00 AM 10.6 51.08 0.103 7.18 13.47 10.59
11/1/2021 10:00:00 AM 10.63 51.134 0.103 7.18 10.56 10.59
11/1/2021 10:15:00 AM 10.66 51.188 0.103 7.18 10.38 10.6
11/1/2021 10:30:00 AM 10.69 51.242 0.103 7.18 15.99 10.61
11/1/2021 10:45:00 AM 10.78 51.404 0.104 7.18 23.38 10.58
11/1/2021 11:00:00 AM 10.87 51.566 0.104 7.18 24.17 10.59
11/1/2021 11:15:00 AM 10.91 51.638 0.104 7.18 17.73 10.58
11/1/2021 11:30:00 AM 10.92 51.656 0.104 7.18 15.9 10.56
11/1/2021 11:45:00 AM 10.99 51.782 0.104 7.19 14.66 10.55
11/1/2021 12:00:00 PM 11.07 51.926 0.104 7.18 13.86 10.53
11/1/2021 12:15:00 PM 11.16 52.088 0.104 7.19 16 10.53
11/1/2021 12:30:00 PM 11.22 52.196 0.104 7.19 22.67 10.51
11/1/2021 12:45:00 PM 11.25 52.25 0.105 7.19 23.46 10.5
11/1/2021 1:00:00 PM 11.27 52.286 0.105 7.19 18.33 10.49
11/1/2021 1:15:00 PM 11.29 52.322 0.105 7.19 16.43 10.49
11/1/2021 1:30:00 PM 11.46 52.628 0.105 7.19 14.34 10.46
11/1/2021 1:45:00 PM 11.76 53.168 0.105 7.2 13.29 10.43
11/1/2021 2:00:00 PM 11.95 53.51 0.105 7.2 14.76 10.38
11/1/2021 2:15:00 PM 12.08 53.744 0.105 7.21 18.78 10.34
11/1/2021 2:30:00 PM 12.17 53.906 0.105 7.2 23.47 10.32
11/1/2021 2:45:00 PM 12.22 53.996 0.105 7.2 20.55 10.31
11/1/2021 3:00:00 PM 12.18 53.924 0.105 7.2 14.49 10.3
11/1/2021 3:15:00 PM 12.09 53.762 0.105 7.2 19.81 10.3
11/1/2021 3:30:00 PM 11.96 53.528 0.105 7.2 21.96 10.32
11/1/2021 3:45:00 PM 11.86 53.348 0.106 7.2 29.74 10.32
11/1/2021 4:00:00 PM 11.81 53.258 0.106 7.2 17.21 10.33
11/1/2021 4:15:00 PM 11.75 53.15 0.106 7.19 14.71 10.34
11/1/2021 4:30:00 PM 11.69 53.042 0.106 7.19 12.92 10.34
11/1/2021 4:45:00 PM 11.66 52.988 0.106 7.19 11.48 10.34
11/1/2021 5:00:00 PM 11.61 52.898 0.106 7.19 12.05 10.32
11/1/2021 5:15:00 PM 11.53 52.754 0.106 7.19 10.82 10.34
11/1/2021 5:30:00 PM 11.45 52.61 0.106 7.19 13.76 10.35
11/1/2021 5:45:00 PM 11.38 52.484 0.106 7.18 10.22 10.36
11/1/2021 6:00:00 PM 11.32 52.376 0.106 7.18 10.54 10.36
11/1/2021 6:15:00 PM 11.25 52.25 0.106 7.18 9.55 10.37
11/1/2021 6:30:00 PM 11.18 52.124 0.106 7.17 9.27 10.38
11/1/2021 6:45:00 PM 11.11 51.998 0.106 7.17 10.04 10.4
11/1/2021 7:00:00 PM 11.03 51.854 0.106 7.17 8.93 10.42
11/1/2021 7:15:00 PM 10.96 51.728 0.106 7.16 8.95 10.42
11/1/2021 7:30:00 PM 10.89 51.602 0.107 7.17 8.81 10.45
11/1/2021 7:45:00 PM 10.82 51.476 0.107 7.17 9.31 10.45
11/1/2021 8:00:00 PM 10.75 51.35 0.107 7.17 9.02 10.47
11/1/2021 8:15:00 PM 10.68 51.224 0.107 7.17 8.64 10.49
11/1/2021 8:30:00 PM 10.62 51.116 0.107 7.17 8.95 10.51
11/1/2021 8:45:00 PM 10.55 50.99 0.107 7.16 9.04 10.53
11/1/2021 9:00:00 PM 10.49 50.882 0.107 7.16 9.37 10.55
11/1/2021 9:15:00 PM 10.43 50.774 0.107 7.16 9.07 10.56
11/1/2021 9:30:00 PM 10.37 50.666 0.107 7.16 9.65 10.58
11/1/2021 9:45:00 PM 10.32 50.576 0.107 7.16 8.99 10.59
11/1/2021 10:00:00 PM 10.26 50.468 0.107 7.16 8.6 10.61
11/1/2021 10:15:00 PM 10.21 50.378 0.107 7.16 9.26 10.62
11/1/2021 10:30:00 PM 10.16 50.288 0.108 7.16 8.67 10.64
11/1/2021 10:45:00 PM 10.12 50.216 0.108 7.16 9 10.65
11/1/2021 11:00:00 PM 10.1 50.18 0.108 7.16 8.51 10.66
11/1/2021 11:15:00 PM 10.08 50.144 0.108 7.16 9.61 10.67
11/1/2021 11:30:00 PM 10.06 50.108 0.108 7.16 9.15 10.68
11/1/2021 11:45:00 PM 10.04 50.072 0.108 7.16 8.67 10.68
11/2/2021 12:00:00 AM 10.02 50.036 0.108 7.16 8.29 10.69
11/2/2021 12:15:00 AM 10 50 0.108 7.16 8.4 10.69
11/2/2021 12:30:00 AM 9.98 49.964 0.108 7.16 8.28 10.7
11/2/2021 12:45:00 AM 9.96 49.928 0.108 7.16 8.15 10.7
11/2/2021 1:00:00 AM 9.94 49.892 0.108 7.16 8.58 10.71
11/2/2021 1:15:00 AM 9.92 49.856 0.108 7.16 8.55 10.71
11/2/2021 1:30:00 AM 9.9 49.82 0.108 7.16 8.27 10.72
11/2/2021 1:45:00 AM 9.89 49.802 0.109 7.16 8.45 10.73
11/2/2021 2:00:00 AM 9.87 49.766 0.109 7.16 8.1 10.73
11/2/2021 2:15:00 AM 9.85 49.73 0.109 7.16 8.37 10.74
11/2/2021 2:30:00 AM 9.82 49.676 0.109 7.16 8.07 10.74
11/2/2021 2:45:00 AM 9.8 49.64 0.109 7.16 7.65 10.74
11/2/2021 3:00:00 AM 9.79 49.622 0.109 7.15 7.96 10.75
11/2/2021 3:15:00 AM 9.77 49.586 0.109 7.16 7.62 10.76
11/2/2021 3:30:00 AM 9.75 49.55 0.109 7.16 8 10.76
11/2/2021 3:45:00 AM 9.73 49.514 0.109 7.16 7.51 10.77
11/2/2021 4:00:00 AM 9.71 49.478 0.109 7.16 8.15 10.77
11/2/2021 4:15:00 AM 9.69 49.442 0.109 7.16 7.57 10.78
11/2/2021 4:30:00 AM 9.67 49.406 0.109 7.16 7.68 10.78
11/2/2021 4:45:00 AM 9.65 49.37 0.109 7.16 7.25 10.79
11/2/2021 5:00:00 AM 9.63 49.334 0.109 7.16 7.28 10.79
11/2/2021 5:15:00 AM 9.61 49.298 0.11 7.16 7.82 10.79
11/2/2021 5:30:00 AM 9.59 49.262 0.11 7.15 7.48 10.8
11/2/2021 5:45:00 AM 9.56 49.208 0.11 7.16 7.52 10.81
11/2/2021 6:00:00 AM 9.53 49.154 0.11 7.15 7.41 10.81
11/2/2021 6:15:00 AM 9.49 49.082 0.11 7.15 7.43 10.82
11/2/2021 6:30:00 AM 9.46 49.028 0.11 7.15 7.29 10.83
11/2/2021 6:45:00 AM 9.42 48.956 0.11 7.16 7.72 10.84
11/2/2021 7:00:00 AM 9.4 48.92 0.11 7.16 7.22 10.85
11/2/2021 7:15:00 AM 9.37 48.866 0.11 7.15 7.66 10.86
11/2/2021 7:30:00 AM 9.35 48.83 0.11 7.15 7.53 10.87
11/2/2021 7:45:00 AM 9.32 48.776 0.11 7.16 7.17 10.87
11/2/2021 8:00:00 AM 9.3 48.74 0.11 7.15 7.31 10.89
11/2/2021 8:15:00 AM 9.29 48.722 0.11 7.16 7.16 10.89
11/2/2021 8:30:00 AM 9.29 48.722 0.11 7.16 6.73 10.91
11/2/2021 8:45:00 AM 9.29 48.722 0.11 7.16 7.25 10.92
11/2/2021 9:00:00 AM 9.32 48.776 0.11 7.16 6.72 10.93
11/2/2021 9:15:00 AM 9.37 48.866 0.11 7.16 7.36 10.93
11/2/2021 9:30:00 AM 9.43 48.974 0.11 7.17 7.15 10.93
11/2/2021 9:45:00 AM 9.48 49.064 0.11 7.17 6.89 10.92
11/2/2021 10:00:00 AM 9.53 49.154 0.11 7.17 7.15 10.92
11/2/2021 10:15:00 AM 9.56 49.208 0.111 7.18 6.62 10.92
11/2/2021 10:30:00 AM 9.61 49.298 0.111 7.18 6.64 10.91
11/2/2021 10:45:00 AM 9.64 49.352 0.111 7.18 6.55 10.9
11/2/2021 11:00:00 AM 9.68 49.424 0.111 7.18 7.42 10.9
11/2/2021 11:15:00 AM 9.8 49.64 0.111 7.18 6.73 10.89
11/2/2021 11:30:00 AM 9.93 49.874 0.111 7.19 6.71 10.87
11/2/2021 11:45:00 AM 10.03 50.054 0.111 7.19 6.67 10.85
11/2/2021 12:00:00 PM 10.11 50.198 0.111 7.19 6.86 10.82
11/2/2021 12:15:00 PM 10.13 50.234 0.111 7.19 6.36 10.81
11/2/2021 12:30:00 PM 10.13 50.234 0.111 7.19 6.93 10.79
11/2/2021 12:45:00 PM 10.1 50.18 0.111 7.19 6.82 10.77
11/2/2021 1:00:00 PM 10.07 50.126 0.111 7.19 6.34 10.76
11/2/2021 1:15:00 PM 10.07 50.126 0.111 7.19 6.63 10.76
11/2/2021 1:30:00 PM 10.13 50.234 0.111 7.19 6.44 10.76
11/2/2021 1:45:00 PM 10.25 50.45 0.111 7.2 6.76 10.75
11/2/2021 2:00:00 PM 10.36 50.648 0.111 7.2 11.8 10.73
11/2/2021 2:15:00 PM 10.39 50.702 0.111 7.2 6.4 10.71
11/2/2021 2:30:00 PM 10.37 50.666 0.111 7.2 6.31 10.71
11/2/2021 2:45:00 PM 10.43 50.774 0.111 7.2 10.72 10.71
11/2/2021 3:00:00 PM 10.4 50.72 0.112 7.2 6.38 10.69
11/2/2021 3:15:00 PM 10.38 50.684 0.112 7.2 6.22 10.68
11/2/2021 3:30:00 PM 10.39 50.702 0.112 7.19 6.07 10.69
11/2/2021 3:45:00 PM 10.38 50.684 0.112 7.2 5.92 10.68
11/2/2021 4:00:00 PM 10.38 50.684 0.112 7.19 6.01 10.68
11/2/2021 4:15:00 PM 10.38 50.684 0.112 7.19 6.29 10.68
11/2/2021 4:30:00 PM 10.35 50.63 0.112 7.19 6.22 10.67
11/2/2021 4:45:00 PM 10.29 50.522 0.112 7.19 6.4 10.68
11/2/2021 5:00:00 PM 10.24 50.432 0.112 7.19 6.19 10.68
11/2/2021 5:15:00 PM 10.19 50.342 0.112 7.19 5.8 10.68
11/2/2021 5:30:00 PM 10.14 50.252 0.112 7.19 6.37 10.68
11/2/2021 5:45:00 PM 10.1 50.18 0.112 7.18 6.1 10.68
11/2/2021 6:00:00 PM 10.05 50.09 0.112 7.18 6.49 10.69
11/2/2021 6:15:00 PM 10 50 0.112 7.18 6.11 10.69
11/2/2021 6:30:00 PM 9.96 49.928 0.112 7.18 6.42 10.7
11/2/2021 6:45:00 PM 9.92 49.856 0.112 7.18 6.32 10.71
11/2/2021 7:00:00 PM 9.88 49.784 0.112 7.18 6.15 10.71
11/2/2021 7:15:00 PM 9.83 49.694 0.113 7.18 6.29 10.72
11/2/2021 7:30:00 PM 9.79 49.622 0.113 7.17 6.24 10.74
11/2/2021 7:45:00 PM 9.75 49.55 0.113 7.17 6.27 10.74
11/2/2021 8:00:00 PM 9.71 49.478 0.113 7.17 6.34 10.75
11/2/2021 8:15:00 PM 9.66 49.388 0.113 7.17 6.35 10.76
11/2/2021 8:30:00 PM 9.63 49.334 0.113 7.17 6.08 10.77
11/2/2021 8:45:00 PM 9.61 49.298 0.113 7.17 6.24 10.78
11/2/2021 9:00:00 PM 9.57 49.226 0.113 7.17 6.17 10.79
11/2/2021 9:15:00 PM 9.53 49.154 0.113 7.17 6.34 10.8
11/2/2021 9:30:00 PM 9.49 49.082 0.113 7.17 6.26 10.8
11/2/2021 9:45:00 PM 9.44 48.992 0.113 7.17 6.65 10.81
11/2/2021 10:00:00 PM 9.4 48.92 0.113 7.17 6.18 10.83
11/2/2021 10:15:00 PM 9.37 48.866 0.113 7.16 6.24 10.84
11/2/2021 10:30:00 PM 9.33 48.794 0.113 7.17 5.93 10.84
11/2/2021 10:45:00 PM 9.3 48.74 0.113 7.17 6.07 10.86
11/2/2021 11:00:00 PM 9.25 48.65 0.113 7.17 6.38 10.86
11/2/2021 11:15:00 PM 9.21 48.578 0.113 7.16 6.16 10.87
11/2/2021 11:30:00 PM 9.17 48.506 0.113 7.16 5.87 10.89
11/2/2021 11:45:00 PM 9.12 48.416 0.113 7.16 6.27 10.91
11/3/2021 12:00:00 AM 9.07 48.326 0.114 7.16 6.2 10.91
11/3/2021 12:15:00 AM 9.02 48.236 0.114 7.16 6.23 10.92
11/3/2021 12:30:00 AM 8.98 48.164 0.114 7.16 5.74 10.94
11/3/2021 12:45:00 AM 8.93 48.074 0.114 7.17 5.9 10.95
11/3/2021 1:00:00 AM 8.88 47.984 0.114 7.16 6.04 10.96
11/3/2021 1:15:00 AM 8.84 47.912 0.114 7.16 6.16 10.97
11/3/2021 1:30:00 AM 8.79 47.822 0.114 7.17 5.92 10.99
11/3/2021 1:45:00 AM 8.75 47.75 0.114 7.16 5.85 11
11/3/2021 2:00:00 AM 8.71 47.678 0.114 7.16 5.84 11.01
11/3/2021 2:15:00 AM 8.67 47.606 0.114 7.16 5.87 11.03
11/3/2021 2:30:00 AM 8.62 47.516 0.114 7.16 6.08 11.04
11/3/2021 2:45:00 AM 8.57 47.426 0.114 7.16 6.08 11.05
11/3/2021 3:00:00 AM 8.54 47.372 0.114 7.16 5.73 11.07
11/3/2021 3:15:00 AM 8.5 47.3 0.114 7.16 6.06 11.07
11/3/2021 3:30:00 AM 8.48 47.264 0.114 7.16 5.84 11.09
11/3/2021 3:45:00 AM 8.44 47.192 0.114 7.16 5.69 11.1
11/3/2021 4:00:00 AM 8.4 47.12 0.114 7.16 5.82 11.11
11/3/2021 4:15:00 AM 8.36 47.048 0.114 7.16 5.8 11.12
11/3/2021 4:30:00 AM 8.32 46.976 0.115 7.16 6.04 11.13
11/3/2021 4:45:00 AM 8.29 46.922 0.115 7.16 5.95 11.14
11/3/2021 5:00:00 AM 8.27 46.886 0.115 7.16 5.68 11.16
11/3/2021 5:15:00 AM 8.25 46.85 0.115 7.16 6.02 11.16
11/3/2021 5:30:00 AM 8.24 46.832 0.115 7.16 5.82 11.16
11/3/2021 5:45:00 AM 8.22 46.796 0.115 7.16 5.9 11.17
11/3/2021 6:00:00 AM 8.21 46.778 0.115 7.16 5.79 11.18
11/3/2021 6:15:00 AM 8.2 46.76 0.115 7.16 5.83 11.18
11/3/2021 6:30:00 AM 8.19 46.742 0.115 7.16 6.11 11.18
11/3/2021 6:45:00 AM 8.17 46.706 0.115 7.16 6.05 11.19
11/3/2021 7:00:00 AM 8.15 46.67 0.115 7.16 5.94 11.2
11/3/2021 7:15:00 AM 8.14 46.652 0.115 7.16 5.84 11.2
11/3/2021 7:30:00 AM 8.12 46.616 0.115 7.16 5.63 11.21
11/3/2021 7:45:00 AM 8.12 46.616 0.115 7.17 5.84 11.21
11/3/2021 8:00:00 AM 8.12 46.616 0.115 7.16 5.71 11.22
11/3/2021 8:15:00 AM 8.11 46.598 0.115 7.16 5.5 11.22
11/3/2021 8:30:00 AM 8.12 46.616 0.115 7.16 5.56 11.23
11/3/2021 8:45:00 AM 8.14 46.652 0.116 7.17 5.88 11.24
11/3/2021 9:00:00 AM 8.15 46.67 0.116 7.17 5.71 11.24
11/3/2021 9:15:00 AM 8.17 46.706 0.116 7.17 5.43 11.26
11/3/2021 9:30:00 AM 8.19 46.742 0.116 7.17 5.45 11.25
11/3/2021 9:45:00 AM 8.22 46.796 0.116 7.17 5.9 11.26
11/3/2021 10:00:00 AM 8.27 46.886 0.116 7.17 5.65 11.26
11/3/2021 10:15:00 AM 8.37 47.066 0.116 7.17 5.88 11.26
11/3/2021 10:30:00 AM 8.5 47.3 0.116 7.18 5.41 11.23
11/3/2021 10:45:00 AM 8.55 47.39 0.116 7.18 5.59 11.23
11/3/2021 11:00:00 AM 8.61 47.498 0.116 7.18 5.15 11.21
11/3/2021 11:15:00 AM 8.73 47.714 0.116 7.18 5.09 11.2
11/3/2021 11:30:00 AM 8.89 48.002 0.116 7.19 5.48 11.18
11/3/2021 11:45:00 AM 8.98 48.164 0.116 7.19 5.55 11.15
11/3/2021 12:00:00 PM 8.99 48.182 0.116 7.19 5.35 11.13
11/3/2021 12:15:00 PM 8.95 48.11 0.116 7.19 5.51 11.13
11/3/2021 12:30:00 PM 8.96 48.128 0.116 7.19 5.15 11.12
11/3/2021 12:45:00 PM 9.04 48.272 0.116 7.2 5.29 11.12
11/3/2021 1:00:00 PM 9.16 48.488 0.116 7.2 5.11 11.1
11/3/2021 1:15:00 PM 9.22 48.596 0.116 7.2 5.09 11.08
11/3/2021 1:30:00 PM 9.25 48.65 0.116 7.2 5.06 11.06
11/3/2021 1:45:00 PM 9.25 48.65 0.116 7.2 5 11.06
11/3/2021 2:00:00 PM 9.32 48.776 0.116 7.2 5.25 11.05
11/3/2021 2:15:00 PM 9.36 48.848 0.116 7.2 5.34 11.04
11/3/2021 2:30:00 PM 9.4 48.92 0.117 7.2 5.36 11.03
11/3/2021 2:45:00 PM 9.42 48.956 0.117 7.2 4.88 11.03
11/3/2021 3:00:00 PM 9.45 49.01 0.117 7.2 5.05 11.01
11/3/2021 3:15:00 PM 9.49 49.082 0.117 7.2 5.5 11
11/3/2021 3:30:00 PM 9.53 49.154 0.117 7.2 5.17 10.98
11/3/2021 3:45:00 PM 9.5 49.1 0.117 7.2 5.36 10.98
11/3/2021 4:00:00 PM 9.46 49.028 0.117 7.2 5.13 10.98
11/3/2021 4:15:00 PM 9.44 48.992 0.117 7.2 5.38 10.98
11/3/2021 4:30:00 PM 9.42 48.956 0.117 7.2 5.44 10.98
11/3/2021 4:45:00 PM 9.38 48.884 0.117 7.2 5.42 10.98
11/3/2021 5:00:00 PM 9.32 48.776 0.117 7.2 4.96 10.97
11/3/2021 5:15:00 PM 9.25 48.65 0.117 7.19 5.42 10.97
11/3/2021 5:30:00 PM 9.18 48.524 0.117 7.19 5.11 10.97
11/3/2021 5:45:00 PM 9.11 48.398 0.117 7.19 5.25 10.97
11/3/2021 6:00:00 PM 9.03 48.254 0.117 7.18 7.73 10.98
11/3/2021 6:15:00 PM 8.95 48.11 0.118 7.18 19.92 10.99
11/3/2021 6:30:00 PM 8.88 47.984 0.117 7.18 56.03 11.01
11/3/2021 6:45:00 PM 8.83 47.894 0.117 7.18 67.89 11.02
11/3/2021 7:00:00 PM 8.77 47.786 0.117 7.17 85.54 11.03
11/3/2021 7:15:00 PM 8.71 47.678 0.117 7.17 78.99 11.04
11/3/2021 7:30:00 PM 8.66 47.588 0.117 7.17 102.69 11.06
11/3/2021 7:45:00 PM 8.59 47.462 0.117 7.17 100.96 11.07
11/3/2021 8:00:00 PM 8.53 47.354 0.118 7.17 98.07 11.09
11/3/2021 8:15:00 PM 8.47 47.246 0.118 7.17 69.39 11.11
11/3/2021 8:30:00 PM 8.42 47.156 0.118 7.17 41.6 11.13
11/3/2021 8:45:00 PM 8.37 47.066 0.118 7.17 30.53 11.14
11/3/2021 9:00:00 PM 8.32 46.976 0.118 7.17 23.06 11.16
11/3/2021 9:15:00 PM 8.27 46.886 0.118 7.17 17.02 11.17
11/3/2021 9:30:00 PM 8.23 46.814 0.118 7.17 13.72 11.19
11/3/2021 9:45:00 PM 8.2 46.76 0.118 7.17 11.79 11.19
11/3/2021 10:00:00 PM 8.17 46.706 0.118 7.17 10.32 11.21
11/3/2021 10:15:00 PM 8.13 46.634 0.118 7.17 9.64 11.22
11/3/2021 10:30:00 PM 8.09 46.562 0.118 7.17 9.35 11.22
11/3/2021 10:45:00 PM 8.05 46.49 0.118 7.17 10.46 11.24
11/3/2021 11:00:00 PM 8.01 46.418 0.118 7.17 12.73 11.25
11/3/2021 11:15:00 PM 7.99 46.382 0.118 7.17 17.86 11.26
11/3/2021 11:30:00 PM 7.96 46.328 0.119 7.17 22.82 11.28
11/3/2021 11:45:00 PM 7.92 46.256 0.119 7.17 26.61 11.28
11/4/2021 12:00:00 AM 7.9 46.22 0.119 7.17 26.24 11.29
11/4/2021 12:15:00 AM 7.88 46.184 0.119 7.17 23.79 11.29
11/4/2021 12:30:00 AM 7.86 46.148 0.119 7.17 26.11 11.3
11/4/2021 12:45:00 AM 7.83 46.094 0.119 7.17 19.56 11.31
11/4/2021 1:00:00 AM 7.8 46.04 0.119 7.17 15.88 11.32
11/4/2021 1:15:00 AM 7.76 45.968 0.119 7.17 13.47 11.33
11/4/2021 1:30:00 AM 7.73 45.914 0.119 7.17 11.73 11.34
11/4/2021 1:45:00 AM 7.69 45.842 0.119 7.17 10.77 11.35
11/4/2021 2:00:00 AM 7.65 45.77 0.119 7.17 9.03 11.36
11/4/2021 2:15:00 AM 7.62 45.716 0.119 7.17 8.33 11.37
11/4/2021 2:30:00 AM 7.59 45.662 0.119 7.17 7.63 11.38
11/4/2021 2:45:00 AM 7.55 45.59 0.119 7.17 7.23 11.38
11/4/2021 3:00:00 AM 7.52 45.536 0.119 7.17 7.41 11.39
11/4/2021 3:15:00 AM 7.48 45.464 0.119 7.16 7.18 11.41
11/4/2021 3:30:00 AM 7.45 45.41 0.119 7.16 7.03 11.41
11/4/2021 3:45:00 AM 7.41 45.338 0.119 7.16 6.52 11.43
11/4/2021 4:00:00 AM 7.37 45.266 0.119 7.17 6.34 11.44
11/4/2021 4:15:00 AM 7.34 45.212 0.12 7.16 6.42 11.44
11/4/2021 4:30:00 AM 7.29 45.122 0.12 7.16 6.49 11.47
11/4/2021 4:45:00 AM 7.26 45.068 0.12 7.16 6.21 11.48
11/4/2021 5:00:00 AM 7.23 45.014 0.12 7.16 6.14 11.49
11/4/2021 5:15:00 AM 7.19 44.942 0.12 7.17 5.74 11.5
11/4/2021 5:30:00 AM 7.16 44.888 0.12 7.16 5.91 11.51
11/4/2021 5:45:00 AM 7.12 44.816 0.12 7.16 6.2 11.52
11/4/2021 6:00:00 AM 7.09 44.762 0.12 7.16 6.25 11.54
11/4/2021 6:15:00 AM 7.07 44.726 0.12 7.16 5.94 11.55
11/4/2021 6:30:00 AM 7.06 44.708 0.12 7.17 5.83 11.55
11/4/2021 6:45:00 AM 7.04 44.672 0.12 7.17 5.7 11.56
11/4/2021 7:00:00 AM 7.03 44.654 0.12 7.16 5.91 11.57
11/4/2021 7:15:00 AM 7.02 44.636 0.12 7.17 5.7 11.58
11/4/2021 7:30:00 AM 7.01 44.618 0.12 7.16 5.6 11.58
11/4/2021 7:45:00 AM 6.98 44.564 0.12 7.16 5.59 11.59
11/4/2021 8:00:00 AM 6.97 44.546 0.12 7.17 5.52 11.6
11/4/2021 8:15:00 AM 6.97 44.546 0.12 7.17 5.75 11.61
11/4/2021 8:30:00 AM 6.97 44.546 0.12 7.17 5.58 11.61
11/4/2021 8:45:00 AM 6.98 44.564 0.12 7.17 5.69 11.62
11/4/2021 9:00:00 AM 7 44.6 0.121 7.17 5.33 11.63
11/4/2021 9:15:00 AM 7.02 44.636 0.121 7.17 5.14 11.65
11/4/2021 9:30:00 AM 7.06 44.708 0.121 7.17 5.12 11.64
11/4/2021 9:45:00 AM 7.09 44.762 0.121 7.17 5.22 11.65
11/4/2021 10:00:00 AM 7.14 44.852 0.121 7.17 5.18 11.64
11/4/2021 10:15:00 AM 7.19 44.942 0.121 7.17 5.08 11.64
11/4/2021 10:30:00 AM 7.27 45.086 0.121 7.18 4.94 11.64
11/4/2021 10:45:00 AM 7.36 45.248 0.121 7.18 5.01 11.62
11/4/2021 11:00:00 AM 7.47 45.446 0.121 7.18 5.19 11.6
11/4/2021 11:15:00 AM 7.58 45.644 0.121 7.18 4.85 11.58
11/4/2021 11:30:00 AM 7.71 45.878 0.121 7.18 4.97 11.56
11/4/2021 11:45:00 AM 7.82 46.076 0.121 7.19 5.08 11.54
11/4/2021 12:00:00 PM 7.95 46.31 0.121 7.19 4.91 11.5
11/4/2021 12:15:00 PM 8.04 46.472 0.121 7.19 4.96 11.48
11/4/2021 12:30:00 PM 8.14 46.652 0.121 7.19 4.77 11.45
11/4/2021 12:45:00 PM 8.2 46.76 0.121 7.2 5.01 11.43
11/4/2021 1:00:00 PM 8.24 46.832 0.121 7.2 4.75 11.41
11/4/2021 1:15:00 PM 8.31 46.958 0.121 7.2 4.73 11.38
11/4/2021 1:30:00 PM 8.42 47.156 0.121 7.2 4.88 11.36
11/4/2021 1:45:00 PM 8.57 47.426 0.121 7.2 4.73 11.33
11/4/2021 2:00:00 PM 8.71 47.678 0.121 7.2 4.62 11.29
11/4/2021 2:15:00 PM 8.8 47.84 0.121 7.2 5.21 11.24
11/4/2021 2:30:00 PM 8.84 47.912 0.121 7.21 5.31 11.21
11/4/2021 2:45:00 PM 8.82 47.876 0.121 7.2 4.8 11.18
11/4/2021 3:00:00 PM 8.81 47.858 0.121 7.2 4.64 11.17
11/4/2021 3:15:00 PM 8.82 47.876 0.122 7.2 4.9 11.17
11/4/2021 3:30:00 PM 8.84 47.912 0.122 7.21 4.61 11.16
11/4/2021 3:45:00 PM 8.89 48.002 0.122 7.2 5.1 11.15
11/4/2021 4:00:00 PM 8.93 48.074 0.122 7.21 4.88 11.13
11/4/2021 4:15:00 PM 8.96 48.128 0.122 7.21 5.19 11.11
11/4/2021 4:30:00 PM 8.96 48.128 0.122 7.21 4.75 11.1
11/4/2021 4:45:00 PM 8.95 48.11 0.122 7.2 4.76 11.1
11/4/2021 5:00:00 PM 8.92 48.056 0.122 7.2 4.92 11.09
11/4/2021 5:15:00 PM 8.88 47.984 0.122 7.2 5.03 11.09
11/4/2021 5:30:00 PM 8.84 47.912 0.122 7.2 5.89 11.09
11/4/2021 5:45:00 PM 8.77 47.786 0.122 7.2 6.12 11.08
11/4/2021 6:00:00 PM 8.71 47.678 0.122 7.2 7.74 11.07
11/4/2021 6:15:00 PM 8.65 47.57 0.122 7.19 8.51 11.09
11/4/2021 6:30:00 PM 8.59 47.462 0.122 7.19 8.47 11.09
11/4/2021 6:45:00 PM 8.53 47.354 0.122 7.19 9.5 11.1
11/4/2021 7:00:00 PM 8.48 47.264 0.122 7.18 8.33 11.11
11/4/2021 7:15:00 PM 8.43 47.174 0.122 7.18 7.49 11.12
11/4/2021 7:30:00 PM 8.37 47.066 0.122 7.18 7.46 11.13
11/4/2021 7:45:00 PM 8.31 46.958 0.122 7.18 7.36 11.14
11/4/2021 8:00:00 PM 8.24 46.832 0.123 7.18 5.93 11.16
11/4/2021 8:15:00 PM 8.18 46.724 0.123 7.18 5.91 11.17
11/4/2021 8:30:00 PM 8.11 46.598 0.123 7.18 5.64 11.2
11/4/2021 8:45:00 PM 8.05 46.49 0.123 7.18 5.41 11.21
11/4/2021 9:00:00 PM 7.99 46.382 0.123 7.17 5.88 11.22
11/4/2021 9:15:00 PM 7.92 46.256 0.123 7.17 5.76 11.24
11/4/2021 9:30:00 PM 7.87 46.166 0.123 7.17 5.69 11.26
11/4/2021 9:45:00 PM 7.8 46.04 0.123 7.17 5.74 11.28
11/4/2021 10:00:00 PM 7.75 45.95 0.123 7.17 6.1 11.29
11/4/2021 10:15:00 PM 7.69 45.842 0.123 7.17 6.06 11.31
11/4/2021 10:30:00 PM 7.63 45.734 0.123 7.17 7.02 11.33
11/4/2021 10:45:00 PM 7.58 45.644 0.123 7.17 7.18 11.34
11/4/2021 11:00:00 PM 7.54 45.572 0.123 7.17 8.9 11.35
11/4/2021 11:15:00 PM 7.49 45.482 0.123 7.17 10.91 11.37
11/4/2021 11:30:00 PM 7.44 45.392 0.123 7.17 12.02 11.39
11/4/2021 11:45:00 PM 7.39 45.302 0.123 7.17 15.37 11.41
11/5/2021 12:00:00 AM 7.36 45.248 0.123 7.17 15.1 11.41
11/5/2021 12:15:00 AM 7.32 45.176 0.124 7.17 18.36 11.43
11/5/2021 12:30:00 AM 7.27 45.086 0.124 7.17 18.25 11.44
11/5/2021 12:45:00 AM 7.24 45.032 0.124 7.17 18.52 11.45
11/5/2021 1:00:00 AM 7.2 44.96 0.124 7.17 21.09 11.46
11/5/2021 1:15:00 AM 7.17 44.906 0.124 7.17 20.52 11.47
11/5/2021 1:30:00 AM 7.13 44.834 0.124 7.17 18.68 11.48
11/5/2021 1:45:00 AM 7.09 44.762 0.124 7.17 18.93 11.5
11/5/2021 2:00:00 AM 7.05 44.69 0.124 7.17 18.84 11.51
11/5/2021 2:15:00 AM 7.02 44.636 0.124 7.17 17.69 11.51
11/5/2021 2:30:00 AM 6.98 44.564 0.124 7.17 16.89 11.52
11/5/2021 2:45:00 AM 6.95 44.51 0.124 7.17 14.22 11.54
11/5/2021 3:00:00 AM 6.92 44.456 0.124 7.17 12.86 11.55
11/5/2021 3:15:00 AM 6.88 44.384 0.124 7.17 11.25 11.56
11/5/2021 3:30:00 AM 6.85 44.33 0.124 7.17 10.54 11.57
11/5/2021 3:45:00 AM 6.81 44.258 0.124 7.17 10.08 11.59
11/5/2021 4:00:00 AM 6.78 44.204 0.124 7.17 9.14 11.6
11/5/2021 4:15:00 AM 6.77 44.186 0.124 7.17 8.42 11.61
11/5/2021 4:30:00 AM 6.77 44.186 0.124 7.17 8.05 11.61
11/5/2021 4:45:00 AM 6.76 44.168 0.124 7.17 7.49 11.62
11/5/2021 5:00:00 AM 6.75 44.15 0.124 7.17 7.54 11.62
11/5/2021 5:15:00 AM 6.74 44.132 0.125 7.17 6.93 11.62
11/5/2021 5:30:00 AM 6.73 44.114 0.125 7.17 6.88 11.63
11/5/2021 5:45:00 AM 6.71 44.078 0.125 7.17 7.4 11.65
11/5/2021 6:00:00 AM 6.69 44.042 0.125 7.17 6.53 11.65
11/5/2021 6:15:00 AM 6.68 44.024 0.125 7.17 6.35 11.65
11/5/2021 6:30:00 AM 6.66 43.988 0.125 7.17 5.87 11.67
11/5/2021 6:45:00 AM 6.64 43.952 0.125 7.17 6.44 11.68
11/5/2021 7:00:00 AM 6.61 43.898 0.125 7.17 5.62 11.69
11/5/2021 7:15:00 AM 6.57 43.826 0.125 7.17 5.7 11.7
11/5/2021 7:30:00 AM 6.52 43.736 0.125 7.17 5.65 11.72
11/5/2021 7:45:00 AM 6.47 43.646 0.125 7.17 5.53 11.73
11/5/2021 8:00:00 AM 6.42 43.556 0.125 7.17 5.92 11.75
11/5/2021 8:15:00 AM 6.37 43.466 0.125 7.17 5.83 11.78
11/5/2021 8:30:00 AM 6.33 43.394 0.125 7.17 5.7 11.81
11/5/2021 8:45:00 AM 6.28 43.304 0.125 7.17 5.65 11.83
11/5/2021 9:00:00 AM 6.25 43.25 0.125 7.17 5.53 11.85
11/5/2021 9:15:00 AM 6.27 43.286 0.125 7.16 5.19 11.88
11/5/2021 9:30:00 AM 6.34 43.412 0.125 7.17 4.88 11.88
11/5/2021 9:45:00 AM 6.4 43.52 0.125 7.17 5.09 11.89
11/5/2021 10:00:00 AM 6.44 43.592 0.125 7.17 5.07 11.88
11/5/2021 10:15:00 AM 6.49 43.682 0.125 7.17 4.89 11.88
11/5/2021 10:30:00 AM 6.54 43.772 0.125 7.17 4.7 11.87
11/5/2021 10:45:00 AM 6.61 43.898 0.125 7.18 4.9 11.88
11/5/2021 11:00:00 AM 6.69 44.042 0.125 7.18 4.65 11.86
11/5/2021 11:15:00 AM 6.8 44.24 0.126 7.18 4.79 11.85
11/5/2021 11:30:00 AM 6.89 44.402 0.126 7.18 4.64 11.83
11/5/2021 11:45:00 AM 7.05 44.69 0.126 7.19 4.74 11.79
11/5/2021 12:00:00 PM 7.22 44.996 0.126 7.19 4.61 11.76
11/5/2021 12:15:00 PM 7.38 45.284 0.126 7.19 4.66 11.72
11/5/2021 12:30:00 PM 7.54 45.572 0.126 7.19 4.63 11.68
11/5/2021 12:45:00 PM 7.71 45.878 0.126 7.2 4.36 11.63
11/5/2021 1:00:00 PM 7.87 46.166 0.126 7.2 4.47 11.59
11/5/2021 1:15:00 PM 8.03 46.454 0.126 7.2 4.4 11.54
11/5/2021 1:30:00 PM 8.2 46.76 0.126 7.21 4.44 11.48
11/5/2021 1:45:00 PM 8.36 47.048 0.126 7.21 4.41 11.43
11/5/2021 2:00:00 PM 8.51 47.318 0.126 7.21 4.65 11.4
11/5/2021 2:15:00 PM 8.64 47.552 0.126 7.21 4.52 11.35
11/5/2021 2:30:00 PM 8.75 47.75 0.126 7.21 4.49 11.31
11/5/2021 2:45:00 PM 8.85 47.93 0.126 7.21 4.58 11.27
11/5/2021 3:00:00 PM 8.86 47.948 0.126 7.21 4.88 11.24
11/5/2021 3:15:00 PM 8.83 47.894 0.126 7.21 4.77 11.21
11/5/2021 3:30:00 PM 8.8 47.84 0.126 7.21 4.93 11.22
11/5/2021 3:45:00 PM 8.76 47.768 0.126 7.21 4.59 11.22
11/5/2021 4:00:00 PM 8.74 47.732 0.126 7.21 4.32 11.2
11/5/2021 4:15:00 PM 8.74 47.732 0.126 7.21 4.46 11.22
11/5/2021 4:30:00 PM 8.71 47.678 0.126 7.21 4.48 11.21
11/5/2021 4:45:00 PM 8.67 47.606 0.126 7.21 4.38 11.21
11/5/2021 5:00:00 PM 8.62 47.516 0.126 7.2 4.52 11.19
11/5/2021 5:15:00 PM 8.55 47.39 0.126 7.2 4.26 11.19
11/5/2021 5:30:00 PM 8.47 47.246 0.126 7.2 4.93 11.2
11/5/2021 5:45:00 PM 8.39 47.102 0.126 7.2 4.41 11.21
11/5/2021 6:00:00 PM 8.31 46.958 0.126 7.2 4.57 11.22
11/5/2021 6:15:00 PM 8.22 46.796 0.126 7.19 4.24 11.23
11/5/2021 6:30:00 PM 8.16 46.688 0.127 7.19 5.17 11.23
11/5/2021 6:45:00 PM 8.1 46.58 0.127 7.19 4.31 11.24
11/5/2021 7:00:00 PM 8.03 46.454 0.127 7.18 6.04 11.25
11/5/2021 7:15:00 PM 7.97 46.346 0.127 7.18 7.76 11.26
11/5/2021 7:30:00 PM 7.91 46.238 0.127 7.18 6.13 11.27
11/5/2021 7:45:00 PM 7.84 46.112 0.127 7.18 7.18 11.29
11/5/2021 8:00:00 PM 7.78 46.004 0.127 7.18 7.31 11.31
11/5/2021 8:15:00 PM 7.72 45.896 0.127 7.18 9.93 11.33
11/5/2021 8:30:00 PM 7.66 45.788 0.127 7.18 7.8 11.35
11/5/2021 8:45:00 PM 7.59 45.662 0.127 7.18 7.08 11.37
11/5/2021 9:00:00 PM 7.54 45.572 0.127 7.18 11 11.38
11/5/2021 9:15:00 PM 7.48 45.464 0.127 7.18 13.64 11.39
11/5/2021 9:30:00 PM 7.42 45.356 0.127 7.18 9.81 11.41
11/5/2021 9:45:00 PM 7.37 45.266 0.127 7.17 10.88 11.42
11/5/2021 10:00:00 PM 7.32 45.176 0.128 7.17 12.22 11.45
11/5/2021 10:15:00 PM 7.27 45.086 0.128 7.18 15.24 11.46
11/5/2021 10:30:00 PM 7.22 44.996 0.128 7.17 16.77 11.48
11/5/2021 10:45:00 PM 7.17 44.906 0.128 7.18 20.07 11.5
11/5/2021 11:00:00 PM 7.12 44.816 0.128 7.17 27.5 11.51
11/5/2021 11:15:00 PM 7.06 44.708 0.128 7.17 25.2 11.52
11/5/2021 11:30:00 PM 7.01 44.618 0.128 7.17 32.18 11.54
11/5/2021 11:45:00 PM 6.96 44.528 0.128 7.17 33.08 11.56
11/6/2021 12:00:00 AM 6.91 44.438 0.128 7.17 38.26 11.56
11/6/2021 12:15:00 AM 6.87 44.366 0.128 7.17 33.43 11.59
11/6/2021 12:30:00 AM 6.82 44.276 0.128 7.17 34.71 11.6
11/6/2021 12:45:00 AM 6.77 44.186 0.128 7.17 37.07 11.62
11/6/2021 1:00:00 AM 6.72 44.096 0.128 7.17 32.82 11.64
11/6/2021 1:15:00 AM 6.68 44.024 0.128 7.17 32.17 11.65
11/6/2021 1:30:00 AM 6.64 43.952 0.128 7.17 32.69 11.66
11/6/2021 1:45:00 AM 6.6 43.88 0.128 7.17 28.27 11.68
11/6/2021 2:00:00 AM 6.55 43.79 0.128 7.17 34.72 11.69
11/6/2021 2:15:00 AM 6.51 43.718 0.128 7.17 24.19 11.71
11/6/2021 2:30:00 AM 6.47 43.646 0.128 7.17 23.12 11.71
11/6/2021 2:45:00 AM 6.43 43.574 0.128 7.17 22.56 11.73
11/6/2021 3:00:00 AM 6.4 43.52 0.128 7.17 22 11.74
11/6/2021 3:15:00 AM 6.36 43.448 0.128 7.16 18.28 11.76
11/6/2021 3:30:00 AM 6.32 43.376 0.128 7.16 15.01 11.76
11/6/2021 3:45:00 AM 6.29 43.322 0.129 7.15 14.61 11.77
11/6/2021 4:00:00 AM 6.26 43.268 0.129 7.14 15.66 11.79
11/6/2021 4:15:00 AM 6.22 43.196 0.129 7.14 13.13 11.8
11/6/2021 4:30:00 AM 6.19 43.142 0.129 7.13 12.85 11.81
11/6/2021 4:45:00 AM 6.17 43.106 0.129 7.13 13.58 11.82
11/6/2021 5:00:00 AM 6.14 43.052 0.129 7.13 12.31 11.83
11/6/2021 5:15:00 AM 6.12 43.016 0.129 7.13 13.55 11.85
11/6/2021 5:30:00 AM 6.09 42.962 0.129 7.13 9.63 11.85
11/6/2021 5:45:00 AM 6.07 42.926 0.129 7.13 10.17 11.86
11/6/2021 6:00:00 AM 6.03 42.854 0.129 7.13 10.24 11.87
11/6/2021 6:15:00 AM 5.99 42.782 0.129 7.13 9.14 11.88
11/6/2021 6:30:00 AM 5.96 42.728 0.129 7.13 10.25 11.89
11/6/2021 6:45:00 AM 5.94 42.692 0.129 7.13 7.06 11.9
11/6/2021 7:00:00 AM 5.93 42.674 0.129 7.13 6.37 11.91
11/6/2021 7:15:00 AM 5.93 42.674 0.129 7.14 6.43 11.89
11/6/2021 7:30:00 AM 5.93 42.674 0.129 7.14 7.53 11.91
11/6/2021 7:45:00 AM 5.93 42.674 0.129 7.15 7.73 11.92
11/6/2021 8:00:00 AM 5.94 42.692 0.129 7.15 5.86 11.92
11/6/2021 8:15:00 AM 5.96 42.728 0.129 7.15 5.63 11.92
11/6/2021 8:30:00 AM 5.97 42.746 0.129 7.16 6.06 11.94
11/6/2021 8:45:00 AM 5.99 42.782 0.129 7.16 5.42 11.95
11/6/2021 9:00:00 AM 6.01 42.818 0.129 7.16 5.55 11.95
11/6/2021 9:15:00 AM 6.03 42.854 0.13 7.17 5.51 11.97
11/6/2021 9:30:00 AM 6.06 42.908 0.13 7.17 5.98 11.97
11/6/2021 9:45:00 AM 6.1 42.98 0.13 7.17 5.57 11.98
11/6/2021 10:00:00 AM 6.14 43.052 0.13 7.18 5.21 11.98
11/6/2021 10:15:00 AM 6.19 43.142 0.13 7.18 4.93 11.98
11/6/2021 10:30:00 AM 6.25 43.25 0.13 7.18 5.07 11.99
11/6/2021 10:45:00 AM 6.35 43.43 0.13 7.18 5.82 11.98
11/6/2021 11:00:00 AM 6.45 43.61 0.13 7.19 4.82 11.97
11/6/2021 11:15:00 AM 6.55 43.79 0.13 7.18 5 11.94
11/6/2021 11:30:00 AM 6.65 43.97 0.13 7.19 5.05 11.92
11/6/2021 11:45:00 AM 6.77 44.186 0.13 7.19 4.5 11.89
11/6/2021 12:00:00 PM 6.91 44.438 0.13 7.19 4.47 11.86
11/6/2021 12:15:00 PM 7.04 44.672 0.13 7.19 4.9 11.86
11/6/2021 12:30:00 PM 7.17 44.906 0.13 7.2 4.95 11.8
11/6/2021 12:45:00 PM 7.32 45.176 0.13 7.2 4.38 11.77
11/6/2021 1:00:00 PM 7.49 45.482 0.13 7.2 4.55 11.73
11/6/2021 1:15:00 PM 7.66 45.788 0.13 7.2 4.54 11.67
11/6/2021 1:30:00 PM 7.83 46.094 0.13 7.2 4.4 11.63
11/6/2021 1:45:00 PM 7.99 46.382 0.13 7.21 4.65 11.58
11/6/2021 2:00:00 PM 8.14 46.652 0.13 7.21 4.23 11.52
11/6/2021 2:15:00 PM 8.27 46.886 0.13 7.21 4.2 11.47
11/6/2021 2:30:00 PM 8.39 47.102 0.13 7.22 4.37 11.43
11/6/2021 2:45:00 PM 8.51 47.318 0.13 7.22 4.94 11.4
11/6/2021 3:00:00 PM 8.61 47.498 0.13 7.22 4.43 11.35
11/6/2021 3:15:00 PM 8.67 47.606 0.13 7.22 4.62 11.31
11/6/2021 3:30:00 PM 8.71 47.678 0.13 7.22 4.76 11.28
11/6/2021 3:45:00 PM 8.73 47.714 0.13 7.22 4.55 11.25
11/6/2021 4:00:00 PM 8.72 47.696 0.13 7.21 4.28 11.23
11/6/2021 4:15:00 PM 8.69 47.642 0.13 7.22 4.37 11.24
11/6/2021 4:30:00 PM 8.63 47.534 0.13 7.21 4.53 11.23
11/6/2021 4:45:00 PM 8.55 47.39 0.13 7.21 4.71 11.22
11/6/2021 5:00:00 PM 8.46 47.228 0.13 7.21 4.35 11.23
11/6/2021 5:15:00 PM 8.36 47.048 0.131 7.2 4.28 11.23
11/6/2021 5:30:00 PM 8.26 46.868 0.131 7.2 4.21 11.24
11/6/2021 5:45:00 PM 8.16 46.688 0.131 7.2 4.22 11.25
11/6/2021 6:00:00 PM 8.06 46.508 0.131 7.2 4.01 11.26
11/6/2021 6:15:00 PM 7.96 46.328 0.131 7.2 4 11.27
11/6/2021 6:30:00 PM 7.87 46.166 0.131 7.2 3.88 11.28
11/6/2021 6:45:00 PM 7.78 46.004 0.131 7.19 5.25 11.3
11/6/2021 7:00:00 PM 7.7 45.86 0.131 7.19 3.91 11.31
11/6/2021 7:15:00 PM 7.62 45.716 0.131 7.19 3.95 11.33
11/6/2021 7:30:00 PM 7.54 45.572 0.131 7.19 4.05 11.34
11/6/2021 7:45:00 PM 7.47 45.446 0.131 7.19 4.23 11.36
11/6/2021 8:00:00 PM 7.41 45.338 0.131 7.18 4.03 11.37
11/6/2021 8:15:00 PM 7.35 45.23 0.131 7.18 4.13 11.39
11/6/2021 8:30:00 PM 7.29 45.122 0.131 7.18 4.1 11.41
11/6/2021 8:45:00 PM 7.22 44.996 0.131 7.18 4.33 11.42
11/6/2021 9:00:00 PM 7.17 44.906 0.131 7.18 4.34 11.44
11/6/2021 9:15:00 PM 7.11 44.798 0.131 7.18 4.29 11.45
11/6/2021 9:30:00 PM 7.06 44.708 0.131 7.18 4.28 11.47
11/6/2021 9:45:00 PM 7.01 44.618 0.131 7.18 4.29 11.48
11/6/2021 10:00:00 PM 6.97 44.546 0.132 7.18 4.3 11.5
11/6/2021 10:15:00 PM 6.92 44.456 0.132 7.18 4.19 11.52
11/6/2021 10:30:00 PM 6.88 44.384 0.132 7.18 3.99 11.52
11/6/2021 10:45:00 PM 6.84 44.312 0.132 7.18 4.15 11.54
11/6/2021 11:00:00 PM 6.8 44.24 0.132 7.18 4.2 11.55
11/6/2021 11:15:00 PM 6.76 44.168 0.132 7.18 4.22 11.56
11/6/2021 11:30:00 PM 6.72 44.096 0.132 7.18 4.02 11.57
11/6/2021 11:45:00 PM 6.68 44.024 0.132 7.18 4.27 11.58
11/7/2021 12:00:00 AM 6.63 43.934 0.132 7.18 4.11 11.6
11/7/2021 12:15:00 AM 6.59 43.862 0.132 7.18 4.21 11.61
11/7/2021 12:30:00 AM 6.55 43.79 0.132 7.17 4.01 11.62
11/7/2021 12:45:00 AM 6.5 43.7 0.132 7.18 3.97 11.64
11/7/2021 1:00:00 AM 6.46 43.628 0.132 7.18 4.15 11.65
11/7/2021 1:15:00 AM 6.42 43.556 0.132 7.17 3.97 11.68
11/7/2021 1:30:00 AM 6.38 43.484 0.132 7.18 4 11.67
11/7/2021 1:45:00 AM 6.33 43.394 0.132 7.17 4.04 11.69
11/7/2021 2:00:00 AM 6.29 43.322 0.132 7.18 4.05 11.71
11/7/2021 2:15:00 AM 6.25 43.25 0.132 7.17 4.2 11.72
11/7/2021 2:30:00 AM 6.2 43.16 0.132 7.17 4.01 11.74
11/7/2021 2:45:00 AM 6.16 43.088 0.132 7.18 3.9 11.75
11/7/2021 3:00:00 AM 6.12 43.016 0.132 7.17 3.94 11.76
11/7/2021 3:15:00 AM 6.08 42.944 0.132 7.17 4.06 11.77
11/7/2021 3:30:00 AM 6.04 42.872 0.132 7.17 3.99 11.78
11/7/2021 3:45:00 AM 6 42.8 0.132 7.17 3.71 11.8
11/7/2021 4:00:00 AM 5.97 42.746 0.133 7.17 3.88 11.81
11/7/2021 4:15:00 AM 5.82 42.476 0.133 7.17 3.9 11.86
11/7/2021 4:30:00 AM 5.78 42.404 0.133 7.17 3.84 11.87
11/7/2021 4:45:00 AM 5.75 42.35 0.133 7.17 4.12 11.88
11/7/2021 5:00:00 AM 5.73 42.314 0.133 7.17 3.75 11.89
11/7/2021 5:15:00 AM 5.7 42.26 0.133 7.17 3.89 11.89
11/7/2021 5:30:00 AM 5.67 42.206 0.133 7.17 3.84 11.91
11/7/2021 5:45:00 AM 5.65 42.17 0.133 7.17 3.77 11.91
11/7/2021 6:00:00 AM 5.62 42.116 0.133 7.17 3.89 11.93
11/7/2021 6:15:00 AM 5.6 42.08 0.133 7.17 3.89 11.93
11/7/2021 6:30:00 AM 5.57 42.026 0.133 7.17 3.79 11.94
11/7/2021 6:45:00 AM 5.55 41.99 0.133 7.17 3.89 11.95
11/7/2021 7:00:00 AM 5.52 41.936 0.133 7.17 3.99 11.97
11/7/2021 7:15:00 AM 5.5 41.9 0.133 7.17 3.74 11.96
11/7/2021 7:30:00 AM 5.48 41.864 0.133 7.17 3.89 12
11/7/2021 7:45:00 AM 5.48 41.864 0.133 7.18 3.75 12.02
11/7/2021 8:00:00 AM 5.49 41.882 0.133 7.17 3.81 12.03
11/7/2021 8:15:00 AM 5.5 41.9 0.133 7.18 3.64 12.05
11/7/2021 8:30:00 AM 5.55 41.99 0.133 7.18 3.72 12.06
11/7/2021 8:45:00 AM 5.59 42.062 0.133 7.18 3.57 12.07
11/7/2021 9:00:00 AM 5.65 42.17 0.133 7.18 3.83 12.07
11/7/2021 9:15:00 AM 5.71 42.278 0.133 7.19 3.74 12.07
11/7/2021 9:30:00 AM 5.8 42.44 0.133 7.19 3.61 12.07
11/7/2021 9:45:00 AM 5.92 42.656 0.133 7.19 3.81 12.06
11/7/2021 10:00:00 AM 6.03 42.854 0.133 7.19 3.6 12.05
11/7/2021 10:15:00 AM 6.16 43.088 0.133 7.19 3.66 12.01
11/7/2021 10:30:00 AM 6.27 43.286 0.133 7.19 3.56 11.99
11/7/2021 10:45:00 AM 6.4 43.52 0.133 7.2 3.58 11.97
11/7/2021 11:00:00 AM 6.54 43.772 0.133 7.2 3.56 11.93
11/7/2021 11:15:00 AM 6.69 44.042 0.133 7.2 3.5 11.9
11/7/2021 11:30:00 AM 6.85 44.33 0.133 7.2 3.64 11.85
11/7/2021 11:45:00 AM 7.03 44.654 0.133 7.2 3.42 11.81
11/7/2021 12:00:00 PM 7.18 44.924 0.133 7.2 3.47 11.77
11/7/2021 12:15:00 PM 7.37 45.266 0.133 7.2 3.47 11.72
11/7/2021 12:30:00 PM 7.54 45.572 0.133 7.21 3.38 11.67
11/7/2021 12:45:00 PM 7.72 45.896 0.133 7.21 3.67 11.63
11/7/2021 1:00:00 PM 7.89 46.202 0.133 7.21 3.53 11.57
11/7/2021 1:15:00 PM 8.04 46.472 0.133 7.22 3.36 11.52
11/7/2021 1:30:00 PM 8.17 46.706 0.133 7.21 3.4 11.46
11/7/2021 1:45:00 PM 8.31 46.958 0.133 7.21 3.54 11.42
11/7/2021 2:00:00 PM 8.43 47.174 0.133 7.22 3.45 11.37
11/7/2021 2:15:00 PM 8.52 47.336 0.133 7.22 3.44 11.33
11/7/2021 2:30:00 PM 8.59 47.462 0.134 7.22 3.36 11.3
11/7/2021 2:45:00 PM 8.63 47.534 0.134 7.22 3.48 11.25
11/7/2021 3:00:00 PM 8.66 47.588 0.134 7.22 3.37 11.23
11/7/2021 3:15:00 PM 8.66 47.588 0.134 7.22 3.28 11.22
11/7/2021 3:30:00 PM 8.62 47.516 0.134 7.22 3.26 11.21
11/7/2021 3:45:00 PM 8.56 47.408 0.134 7.22 3.22 11.19
11/7/2021 4:00:00 PM 8.5 47.3 0.134 7.22 3.31 11.19
11/7/2021 4:15:00 PM 8.41 47.138 0.134 7.21 3.37 11.18
11/7/2021 4:30:00 PM 8.33 46.994 0.134 7.21 3.24 11.18
11/7/2021 4:45:00 PM 8.23 46.814 0.134 7.21 3.38 11.2
11/7/2021 5:00:00 PM 8.13 46.634 0.134 7.2 3.35 11.18
11/7/2021 5:15:00 PM 8.03 46.454 0.134 7.19 3.46 11.19
11/7/2021 5:30:00 PM 7.95 46.31 0.134 7.19 3.43 11.21
11/7/2021 5:45:00 PM 7.86 46.148 0.134 7.19 3.42 11.22
11/7/2021 6:00:00 PM 7.78 46.004 0.134 7.19 3.29 11.23
11/7/2021 6:15:00 PM 7.71 45.878 0.134 7.19 3.38 11.25
11/7/2021 6:30:00 PM 7.64 45.752 0.134 7.19 3.45 11.25
11/7/2021 6:45:00 PM 7.57 45.626 0.134 7.18 3.51 11.28
11/7/2021 7:00:00 PM 7.52 45.536 0.134 7.18 3.43 11.28
11/7/2021 7:15:00 PM 7.45 45.41 0.134 7.18 3.38 11.31
11/7/2021 7:30:00 PM 7.4 45.32 0.134 7.18 3.48 11.32
11/7/2021 7:45:00 PM 7.34 45.212 0.134 7.18 3.63 11.33
11/7/2021 8:00:00 PM 7.29 45.122 0.134 7.18 3.45 11.35
11/7/2021 8:15:00 PM 7.24 45.032 0.134 7.18 3.41 11.36
11/7/2021 8:30:00 PM 7.19 44.942 0.134 7.18 3.56 11.38
11/7/2021 8:45:00 PM 7.14 44.852 0.135 7.18 3.58 11.39
11/7/2021 9:00:00 PM 7.1 44.78 0.135 7.17 3.66 11.4
11/7/2021 9:15:00 PM 7.06 44.708 0.135 7.18 3.61 11.42
11/7/2021 9:30:00 PM 7.02 44.636 0.135 7.17 3.45 11.43
11/7/2021 9:45:00 PM 6.98 44.564 0.135 7.17 3.6 11.44
11/7/2021 10:00:00 PM 6.94 44.492 0.135 7.17 3.71 11.44
11/7/2021 10:15:00 PM 6.91 44.438 0.135 7.17 3.54 11.46
11/7/2021 10:30:00 PM 6.88 44.384 0.135 7.17 3.65 11.48
11/7/2021 10:45:00 PM 6.85 44.33 0.135 7.17 3.64 11.48
11/7/2021 11:00:00 PM 6.81 44.258 0.135 7.17 3.51 11.49
11/7/2021 11:15:00 PM 6.78 44.204 0.135 7.17 3.49 11.49
11/7/2021 11:30:00 PM 6.75 44.15 0.135 7.17 3.51 11.51
11/7/2021 11:45:00 PM 6.72 44.096 0.135 7.17 3.61 11.52
11/8/2021 12:00:00 AM 6.69 44.042 0.135 7.17 3.36 11.52
11/8/2021 12:15:00 AM 6.66 43.988 0.135 7.17 3.31 11.54
11/8/2021 12:30:00 AM 6.63 43.934 0.135 7.17 3.45 11.54
11/8/2021 12:45:00 AM 6.6 43.88 0.135 7.17 3.45 11.56
11/8/2021 1:00:00 AM 6.57 43.826 0.135 7.17 3.5 11.57
11/8/2021 1:15:00 AM 6.53 43.754 0.135 7.17 3.53 11.58
11/8/2021 1:30:00 AM 6.5 43.7 0.135 7.17 3.45 11.59
11/8/2021 1:45:00 AM 6.47 43.646 0.135 7.17 3.59 11.6
11/8/2021 2:00:00 AM 6.43 43.574 0.136 7.17 3.42 11.61
11/8/2021 2:15:00 AM 6.41 43.538 0.136 7.17 3.64 11.63
11/8/2021 2:30:00 AM 6.37 43.466 0.136 7.17 3.58 11.64
11/8/2021 2:45:00 AM 6.34 43.412 0.136 7.17 3.53 11.65
11/8/2021 3:00:00 AM 6.31 43.358 0.136 7.17 3.59 11.65
11/8/2021 3:15:00 AM 6.28 43.304 0.136 7.17 3.63 11.66
11/8/2021 3:30:00 AM 6.25 43.25 0.136 7.17 3.49 11.67
11/8/2021 3:45:00 AM 6.21 43.178 0.136 7.17 3.51 11.68
11/8/2021 4:00:00 AM 6.19 43.142 0.136 7.17 3.57 11.69
11/8/2021 4:15:00 AM 6.16 43.088 0.136 7.17 3.58 11.7
11/8/2021 4:30:00 AM 6.14 43.052 0.136 7.17 3.7 11.71
11/8/2021 4:45:00 AM 6.11 42.998 0.136 7.17 3.5 11.72
11/8/2021 5:00:00 AM 6.09 42.962 0.136 7.17 3.33 11.73
11/8/2021 5:15:00 AM 6.06 42.908 0.136 7.17 3.51 11.72
11/8/2021 5:30:00 AM 6.03 42.854 0.136 7.17 3.38 11.74
11/8/2021 5:45:00 AM 6.01 42.818 0.136 7.17 3.51 11.76
11/8/2021 6:00:00 AM 5.99 42.782 0.136 7.17 3.58 11.77
11/8/2021 6:15:00 AM 5.97 42.746 0.136 7.17 3.41 11.77
11/8/2021 6:30:00 AM 5.95 42.71 0.136 7.17 3.5 11.78
11/8/2021 6:45:00 AM 5.93 42.674 0.136 7.17 3.67 11.78
11/8/2021 7:00:00 AM 5.91 42.638 0.136 7.17 3.58 11.8
11/8/2021 7:15:00 AM 5.9 42.62 0.136 7.17 3.57 11.81
11/8/2021 7:30:00 AM 5.89 42.602 0.136 7.17 3.55 11.84
11/8/2021 7:45:00 AM 5.9 42.62 0.136 7.17 3.63 11.85
11/8/2021 8:00:00 AM 5.91 42.638 0.136 7.18 3.76 11.87
11/8/2021 8:15:00 AM 5.93 42.674 0.136 7.18 3.66 11.89
11/8/2021 8:30:00 AM 5.98 42.764 0.136 7.18 3.46 11.9
11/8/2021 8:45:00 AM 6.03 42.854 0.136 7.18 3.36 11.91
11/8/2021 9:00:00 AM 6.09 42.962 0.136 7.18 3.64 11.92
11/8/2021 9:15:00 AM 6.16 43.088 0.136 7.19 3.63 11.92
11/8/2021 9:30:00 AM 6.25 43.25 0.136 7.19 3.55 11.91
11/8/2021 9:45:00 AM 6.38 43.484 0.136 7.19 3.41 11.89
11/8/2021 10:00:00 AM 6.49 43.682 0.137 7.19 3.51 11.89
11/8/2021 10:15:00 AM 6.62 43.916 0.136 7.19 3.6 11.85
11/8/2021 10:30:00 AM 6.74 44.132 0.136 7.19 3.32 11.84
11/8/2021 10:45:00 AM 6.88 44.384 0.136 7.2 3.35 11.81
11/8/2021 11:00:00 AM 7.02 44.636 0.136 7.2 3.45 11.79
11/8/2021 11:15:00 AM 7.17 44.906 0.136 7.2 3.29 11.77
11/8/2021 11:30:00 AM 7.34 45.212 0.136 7.2 3.38 11.72
11/8/2021 11:45:00 AM 7.51 45.518 0.136 7.2 3.28 11.67
11/8/2021 12:00:00 PM 7.66 45.788 0.136 7.21 3.26 11.64
11/8/2021 12:15:00 PM 7.84 46.112 0.136 7.21 3.29 11.61
11/8/2021 12:30:00 PM 8.03 46.454 0.136 7.21 3.21 11.55
11/8/2021 12:45:00 PM 8.21 46.778 0.136 7.21 3.29 11.5
11/8/2021 1:00:00 PM 8.38 47.084 0.137 7.21 3.3 11.43
11/8/2021 1:15:00 PM -99999.99 -179968 -99999.99 -99999.99 -99999.99 -99999.99
11/8/2021 1:30:00 PM -99999.99 -179968 -99999.99 -99999.99 -99999.99 -99999.99
11/8/2021 1:45:00 PM -99999.99 -179968 -99999.99 -99999.99 -99999.99 -99999.99
11/8/2021 2:00:00 PM -99999.99 -179968 -99999.99 -99999.99 -99999.99 -99999.99
11/8/2021 2:15:00 PM -99999.99 -179968 -99999.99 -99999.99 -99999.99 -99999.99
11/8/2021 2:30:00 PM -99999.99 -179968 -99999.99 -99999.99 -99999.99 -99999.99
11/8/2021 2:45:00 PM -99999.99 -179968 -99999.99 -99999.99 -99999.99 -99999.99
11/8/2021 3:00:00 PM -99999.99 -179968 -99999.99 -99999.99 -99999.99 -99999.99
11/8/2021 3:15:00 PM -99999.99 -179968 -99999.99 -99999.99 -99999.99 -99999.99
11/8/2021 3:30:00 PM -99999.99 -179968 -99999.99 -99999.99 -99999.99 -99999.99
11/8/2021 3:45:00 PM -99999.99 -179968 -99999.99 -99999.99 -99999.99 -99999.99
11/8/2021 4:00:00 PM -99999.99 -179968 -99999.99 -99999.99 -99999.99 -99999.99
11/8/2021 4:15:00 PM -99999.99 -179968 -99999.99 -99999.99 -99999.99 -99999.99
11/8/2021 4:30:00 PM -99999.99 -179968 -99999.99 -99999.99 -99999.99 -99999.99
11/8/2021 4:45:00 PM -99999.99 -179968 -99999.99 -99999.99 -99999.99 -99999.99
11/8/2021 5:00:00 PM -99999.99 -179968 -99999.99 -99999.99 -99999.99 -99999.99
11/8/2021 5:15:00 PM -99999.99 -179968 -99999.99 -99999.99 -99999.99 -99999.99
11/8/2021 5:30:00 PM -99999.99 -179968 -99999.99 -99999.99 -99999.99 -99999.99
11/8/2021 5:45:00 PM -99999.99 -179968 -99999.99 -99999.99 -99999.99 -99999.99
11/8/2021 6:00:00 PM -99999.99 -179968 -99999.99 -99999.99 -99999.99 -99999.99
11/8/2021 6:15:00 PM -99999.99 -179968 -99999.99 -99999.99 -99999.99 -99999.99
11/8/2021 6:30:00 PM -99999.99 -179968 -99999.99 -99999.99 -99999.99 -99999.99
11/8/2021 6:45:00 PM -99999.99 -179968 -99999.99 -99999.99 -99999.99 -99999.99
11/8/2021 7:00:00 PM -99999.99 -179968 -99999.99 -99999.99 -99999.99 -99999.99
11/8/2021 7:15:00 PM -99999.99 -179968 -99999.99 -99999.99 -99999.99 -99999.99
11/8/2021 7:30:00 PM -99999.99 -179968 -99999.99 -99999.99 -99999.99 -99999.99
11/8/2021 7:45:00 PM -99999.99 -179968 -99999.99 -99999.99 -99999.99 -99999.99
11/8/2021 8:00:00 PM -99999.99 -179968 -99999.99 -99999.99 -99999.99 -99999.99
11/8/2021 8:15:00 PM -99999.99 -179968 -99999.99 -99999.99 -99999.99 -99999.99
11/8/2021 8:30:00 PM -99999.99 -179968 -99999.99 -99999.99 -99999.99 -99999.99
11/8/2021 8:45:00 PM -99999.99 -179968 -99999.99 -99999.99 -99999.99 -99999.99
11/8/2021 9:00:00 PM -99999.99 -179968 -99999.99 -99999.99 -99999.99 -99999.99
11/8/2021 9:15:00 PM -99999.99 -179968 -99999.99 -99999.99 -99999.99 -99999.99
11/8/2021 9:30:00 PM -99999.99 -179968 -99999.99 -99999.99 -99999.99 -99999.99
11/8/2021 9:45:00 PM -99999.99 -179968 -99999.99 -99999.99 -99999.99 -99999.99
11/8/2021 10:00:00 PM -99999.99 -179968 -99999.99 -99999.99 -99999.99 -99999.99
11/8/2021 10:15:00 PM -99999.99 -179968 -99999.99 -99999.99 -99999.99 -99999.99
11/8/2021 10:30:00 PM -99999.99 -179968 -99999.99 -99999.99 -99999.99 -99999.99
11/8/2021 10:45:00 PM -99999.99 -179968 -99999.99 -99999.99 -99999.99 -99999.99
11/8/2021 11:00:00 PM -99999.99 -179968 -99999.99 -99999.99 -99999.99 -99999.99
11/8/2021 11:15:00 PM -99999.99 -179968 -99999.99 -99999.99 -99999.99 -99999.99
11/8/2021 11:30:00 PM -99999.99 -179968 -99999.99 -99999.99 -99999.99 -99999.99
11/8/2021 11:45:00 PM -99999.99 -179968 -99999.99 -99999.99 -99999.99 -99999.99
11/9/2021 12:00:00 AM -99999.99 -179968 -99999.99 -99999.99 -99999.99 -99999.99
11/9/2021 12:15:00 AM -99999.99 -179968 -99999.99 -99999.99 -99999.99 -99999.99
11/9/2021 12:30:00 AM -99999.99 -179968 -99999.99 -99999.99 -99999.99 -99999.99
11/9/2021 12:45:00 AM -99999.99 -179968 -99999.99 -99999.99 -99999.99 -99999.99
11/9/2021 1:00:00 AM -99999.99 -179968 -99999.99 -99999.99 -99999.99 -99999.99
11/9/2021 1:15:00 AM -99999.99 -179968 -99999.99 -99999.99 -99999.99 -99999.99
11/9/2021 1:30:00 AM -99999.99 -179968 -99999.99 -99999.99 -99999.99 -99999.99
11/9/2021 1:45:00 AM -99999.99 -179968 -99999.99 -99999.99 -99999.99 -99999.99
11/9/2021 2:00:00 AM -99999.99 -179968 -99999.99 -99999.99 -99999.99 -99999.99
11/9/2021 2:15:00 AM -99999.99 -179968 -99999.99 -99999.99 -99999.99 -99999.99
11/9/2021 2:30:00 AM -99999.99 -179968 -99999.99 -99999.99 -99999.99 -99999.99
11/9/2021 2:45:00 AM -99999.99 -179968 -99999.99 -99999.99 -99999.99 -99999.99
11/9/2021 3:00:00 AM -99999.99 -179968 -99999.99 -99999.99 -99999.99 -99999.99
11/9/2021 3:15:00 AM -99999.99 -179968 -99999.99 -99999.99 -99999.99 -99999.99
11/9/2021 3:30:00 AM -99999.99 -179968 -99999.99 -99999.99 -99999.99 -99999.99
11/9/2021 3:45:00 AM -99999.99 -179968 -99999.99 -99999.99 -99999.99 -99999.99
11/9/2021 4:00:00 AM -99999.99 -179968 -99999.99 -99999.99 -99999.99 -99999.99
11/9/2021 4:15:00 AM -99999.99 -179968 -99999.99 -99999.99 -99999.99 -99999.99
11/9/2021 4:30:00 AM -99999.99 -179968 -99999.99 -99999.99 -99999.99 -99999.99
11/9/2021 4:45:00 AM -99999.99 -179968 -99999.99 -99999.99 -99999.99 -99999.99
11/9/2021 5:00:00 AM -99999.99 -179968 -99999.99 -99999.99 -99999.99 -99999.99
11/9/2021 5:15:00 AM -99999.99 -179968 -99999.99 -99999.99 -99999.99 -99999.99
11/9/2021 5:30:00 AM -99999.99 -179968 -99999.99 -99999.99 -99999.99 -99999.99
11/9/2021 5:45:00 AM -99999.99 -179968 -99999.99 -99999.99 -99999.99 -99999.99
11/9/2021 6:00:00 AM -99999.99 -179968 -99999.99 -99999.99 -99999.99 -99999.99
11/9/2021 6:15:00 AM -99999.99 -179968 -99999.99 -99999.99 -99999.99 -99999.99
11/9/2021 6:30:00 AM -99999.99 -179968 -99999.99 -99999.99 -99999.99 -99999.99
11/9/2021 6:45:00 AM -99999.99 -179968 -99999.99 -99999.99 -99999.99 -99999.99
11/9/2021 7:00:00 AM -99999.99 -179968 -99999.99 -99999.99 -99999.99 -99999.99
11/9/2021 7:15:00 AM -99999.99 -179968 -99999.99 -99999.99 -99999.99 -99999.99
11/9/2021 7:30:00 AM -99999.99 -179968 -99999.99 -99999.99 -99999.99 -99999.99
11/9/2021 7:45:00 AM -99999.99 -179968 -99999.99 -99999.99 -99999.99 -99999.99
11/9/2021 8:00:00 AM -99999.99 -179968 -99999.99 -99999.99 -99999.99 -99999.99
11/9/2021 8:15:00 AM -99999.99 -179968 -99999.99 -99999.99 -99999.99 -99999.99
11/9/2021 8:30:00 AM -99999.99 -179968 -99999.99 -99999.99 -99999.99 -99999.99
11/9/2021 8:45:00 AM -99999.99 -179968 -99999.99 -99999.99 -99999.99 -99999.99
11/9/2021 9:00:00 AM -99999.99 -179968 -99999.99 -99999.99 -99999.99 -99999.99
11/9/2021 9:15:00 AM -99999.99 -179968 -99999.99 -99999.99 -99999.99 -99999.99
11/9/2021 9:30:00 AM -99999.99 -179968 -99999.99 -99999.99 -99999.99 -99999.99
11/9/2021 9:45:00 AM -99999.99 -179968 -99999.99 -99999.99 -99999.99 -99999.99
11/9/2021 10:00:00 AM -99999.99 -179968 -99999.99 -99999.99 -99999.99 -99999.99
11/9/2021 10:15:00 AM -99999.99 -179968 -99999.99 -99999.99 -99999.99 -99999.99
11/9/2021 10:30:00 AM -99999.99 -179968 -99999.99 -99999.99 -99999.99 -99999.99
11/9/2021 10:45:00 AM -99999.99 -179968 -99999.99 -99999.99 -99999.99 -99999.99
11/9/2021 11:00:00 AM -99999.99 -179968 -99999.99 -99999.99 -99999.99 -99999.99
11/9/2021 11:15:00 AM -99999.99 -179968 -99999.99 -99999.99 -99999.99 -99999.99
11/9/2021 11:30:00 AM -99999.99 -179968 -99999.99 -99999.99 -99999.99 -99999.99
11/9/2021 11:45:00 AM -99999.99 -179968 -99999.99 -99999.99 -99999.99 -99999.99
11/9/2021 12:00:00 PM -99999.99 -179968 -99999.99 -99999.99 -99999.99 -99999.99
11/9/2021 12:15:00 PM -99999.99 -179968 -99999.99 -99999.99 -99999.99 -99999.99
11/9/2021 12:30:00 PM -99999.99 -179968 -99999.99 -99999.99 -99999.99 -99999.99
11/9/2021 12:45:00 PM -99999.99 -179968 -99999.99 -99999.99 -99999.99 -99999.99
11/9/2021 1:00:00 PM -99999.99 -179968 -99999.99 -99999.99 -99999.99 -99999.99
11/9/2021 1:15:00 PM -99999.99 -179968 -99999.99 -99999.99 -99999.99 -99999.99
11/9/2021 1:30:00 PM -99999.99 -179968 -99999.99 -99999.99 -99999.99 -99999.99
11/9/2021 1:45:00 PM -99999.99 -179968 -99999.99 -99999.99 -99999.99 -99999.99
11/9/2021 2:00:00 PM -99999.99 -179968 -99999.99 -99999.99 -99999.99 -99999.99
11/9/2021 2:15:00 PM -99999.99 -179968 -99999.99 -99999.99 -99999.99 -99999.99
11/9/2021 2:30:00 PM -99999.99 -179968 -99999.99 -99999.99 -99999.99 -99999.99
11/9/2021 2:45:00 PM -99999.99 -179968 -99999.99 -99999.99 -99999.99 -99999.99
11/9/2021 3:00:00 PM -99999.99 -179968 -99999.99 -99999.99 -99999.99 -99999.99
11/9/2021 3:15:00 PM -99999.99 -179968 -99999.99 -99999.99 -99999.99 -99999.99
11/9/2021 3:30:00 PM -99999.99 -179968 -99999.99 -99999.99 -99999.99 -99999.99
11/9/2021 3:45:00 PM -99999.99 -179968 -99999.99 -99999.99 -99999.99 -99999.99
11/9/2021 4:00:00 PM -99999.99 -179968 -99999.99 -99999.99 -99999.99 -99999.99
11/9/2021 4:15:00 PM -99999.99 -179968 -99999.99 -99999.99 -99999.99 -99999.99
11/9/2021 4:30:00 PM -99999.99 -179968 -99999.99 -99999.99 -99999.99 -99999.99
11/9/2021 4:45:00 PM -99999.99 -179968 -99999.99 -99999.99 -99999.99 -99999.99
11/9/2021 5:00:00 PM -99999.99 -179968 -99999.99 -99999.99 -99999.99 -99999.99
11/9/2021 5:15:00 PM -99999.99 -179968 -99999.99 -99999.99 -99999.99 -99999.99
11/9/2021 5:30:00 PM -99999.99 -179968 -99999.99 -99999.99 -99999.99 -99999.99
11/9/2021 5:45:00 PM -99999.99 -179968 -99999.99 -99999.99 -99999.99 -99999.99
11/9/2021 6:00:00 PM -99999.99 -179968 -99999.99 -99999.99 -99999.99 -99999.99
11/9/2021 6:15:00 PM -99999.99 -179968 -99999.99 -99999.99 -99999.99 -99999.99
11/9/2021 6:30:00 PM -99999.99 -179968 -99999.99 -99999.99 -99999.99 -99999.99
11/9/2021 6:45:00 PM -99999.99 -179968 -99999.99 -99999.99 -99999.99 -99999.99
11/9/2021 7:00:00 PM -99999.99 -179968 -99999.99 -99999.99 -99999.99 -99999.99
11/9/2021 7:15:00 PM -99999.99 -179968 -99999.99 -99999.99 -99999.99 -99999.99
11/9/2021 7:30:00 PM -99999.99 -179968 -99999.99 -99999.99 -99999.99 -99999.99
11/9/2021 7:45:00 PM -99999.99 -179968 -99999.99 -99999.99 -99999.99 -99999.99
11/9/2021 8:00:00 PM -99999.99 -179968 -99999.99 -99999.99 -99999.99 -99999.99
11/9/2021 8:15:00 PM -99999.99 -179968 -99999.99 -99999.99 -99999.99 -99999.99
11/9/2021 8:30:00 PM -99999.99 -179968 -99999.99 -99999.99 -99999.99 -99999.99
11/9/2021 8:45:00 PM -99999.99 -179968 -99999.99 -99999.99 -99999.99 -99999.99
11/9/2021 9:00:00 PM -99999.99 -179968 -99999.99 -99999.99 -99999.99 -99999.99
11/9/2021 9:15:00 PM -99999.99 -179968 -99999.99 -99999.99 -99999.99 -99999.99
11/9/2021 9:30:00 PM -99999.99 -179968 -99999.99 -99999.99 -99999.99 -99999.99
11/9/2021 9:45:00 PM -99999.99 -179968 -99999.99 -99999.99 -99999.99 -99999.99
11/9/2021 10:00:00 PM -99999.99 -179968 -99999.99 -99999.99 -99999.99 -99999.99
11/9/2021 10:15:00 PM -99999.99 -179968 -99999.99 -99999.99 -99999.99 -99999.99
11/9/2021 10:30:00 PM -99999.99 -179968 -99999.99 -99999.99 -99999.99 -99999.99
11/9/2021 10:45:00 PM -99999.99 -179968 -99999.99 -99999.99 -99999.99 -99999.99
11/9/2021 11:00:00 PM -99999.99 -179968 -99999.99 -99999.99 -99999.99 -99999.99
11/9/2021 11:15:00 PM -99999.99 -179968 -99999.99 -99999.99 -99999.99 -99999.99
11/9/2021 11:30:00 PM -99999.99 -179968 -99999.99 -99999.99 -99999.99 -99999.99
11/9/2021 11:45:00 PM -99999.99 -179968 -99999.99 -99999.99 -99999.99 -99999.99
11/10/2021 12:00:00 AM -99999.99 -179968 -99999.99 -99999.99 -99999.99 -99999.99
11/10/2021 12:15:00 AM -99999.99 -179968 -99999.99 -99999.99 -99999.99 -99999.99
11/10/2021 12:30:00 AM -99999.99 -179968 -99999.99 -99999.99 -99999.99 -99999.99
11/10/2021 12:45:00 AM -99999.99 -179968 -99999.99 -99999.99 -99999.99 -99999.99
11/10/2021 1:00:00 AM -99999.99 -179968 -99999.99 -99999.99 -99999.99 -99999.99
11/10/2021 1:15:00 AM -99999.99 -179968 -99999.99 -99999.99 -99999.99 -99999.99
11/10/2021 1:30:00 AM -99999.99 -179968 -99999.99 -99999.99 -99999.99 -99999.99
11/10/2021 1:45:00 AM -99999.99 -179968 -99999.99 -99999.99 -99999.99 -99999.99
11/10/2021 2:00:00 AM -99999.99 -179968 -99999.99 -99999.99 -99999.99 -99999.99
11/10/2021 2:15:00 AM -99999.99 -179968 -99999.99 -99999.99 -99999.99 -99999.99
11/10/2021 2:30:00 AM -99999.99 -179968 -99999.99 -99999.99 -99999.99 -99999.99
11/10/2021 2:45:00 AM -99999.99 -179968 -99999.99 -99999.99 -99999.99 -99999.99
11/10/2021 3:00:00 AM -99999.99 -179968 -99999.99 -99999.99 -99999.99 -99999.99
11/10/2021 3:15:00 AM -99999.99 -179968 -99999.99 -99999.99 -99999.99 -99999.99
11/10/2021 3:30:00 AM -99999.99 -179968 -99999.99 -99999.99 -99999.99 -99999.99
11/10/2021 3:45:00 AM -99999.99 -179968 -99999.99 -99999.99 -99999.99 -99999.99
11/10/2021 4:00:00 AM -99999.99 -179968 -99999.99 -99999.99 -99999.99 -99999.99
11/10/2021 4:15:00 AM -99999.99 -179968 -99999.99 -99999.99 -99999.99 -99999.99
11/10/2021 4:30:00 AM -99999.99 -179968 -99999.99 -99999.99 -99999.99 -99999.99
11/10/2021 4:45:00 AM -99999.99 -179968 -99999.99 -99999.99 -99999.99 -99999.99
11/10/2021 5:00:00 AM -99999.99 -179968 -99999.99 -99999.99 -99999.99 -99999.99
11/10/2021 5:15:00 AM -99999.99 -179968 -99999.99 -99999.99 -99999.99 -99999.99
11/10/2021 5:30:00 AM -99999.99 -179968 -99999.99 -99999.99 -99999.99 -99999.99
11/10/2021 5:45:00 AM -99999.99 -179968 -99999.99 -99999.99 -99999.99 -99999.99
11/10/2021 6:00:00 AM -99999.99 -179968 -99999.99 -99999.99 -99999.99 -99999.99
11/10/2021 6:15:00 AM -99999.99 -179968 -99999.99 -99999.99 -99999.99 -99999.99
11/10/2021 6:30:00 AM -99999.99 -179968 -99999.99 -99999.99 -99999.99 -99999.99
11/10/2021 6:45:00 AM -99999.99 -179968 -99999.99 -99999.99 -99999.99 -99999.99
11/10/2021 7:00:00 AM -99999.99 -179968 -99999.99 -99999.99 -99999.99 -99999.99
11/10/2021 7:15:00 AM -99999.99 -179968 -99999.99 -99999.99 -99999.99 -99999.99
11/10/2021 7:30:00 AM -99999.99 -179968 -99999.99 -99999.99 -99999.99 -99999.99
11/10/2021 7:45:00 AM -99999.99 -179968 -99999.99 -99999.99 -99999.99 -99999.99
11/10/2021 8:00:00 AM -99999.99 -179968 -99999.99 -99999.99 -99999.99 -99999.99
11/10/2021 8:15:00 AM -99999.99 -179968 -99999.99 -99999.99 -99999.99 -99999.99
11/10/2021 8:30:00 AM -99999.99 -179968 -99999.99 -99999.99 -99999.99 -99999.99
11/10/2021 8:45:00 AM -99999.99 -179968 -99999.99 -99999.99 -99999.99 -99999.99
11/10/2021 9:00:00 AM -99999.99 -179968 -99999.99 -99999.99 -99999.99 -99999.99
11/10/2021 9:15:00 AM -99999.99 -179968 -99999.99 -99999.99 -99999.99 -99999.99
11/10/2021 9:30:00 AM -99999.99 -179968 -99999.99 -99999.99 -99999.99 -99999.99
11/10/2021 9:45:00 AM -99999.99 -179968 -99999.99 -99999.99 -99999.99 -99999.99
11/10/2021 10:00:00 AM -99999.99 -179968 -99999.99 -99999.99 -99999.99 -99999.99
11/10/2021 10:15:00 AM -99999.99 -179968 -99999.99 -99999.99 -99999.99 -99999.99
11/10/2021 10:30:00 AM -99999.99 -179968 -99999.99 -99999.99 -99999.99 -99999.99
11/10/2021 10:45:00 AM -99999.99 -179968 -99999.99 -99999.99 -99999.99 -99999.99
11/10/2021 11:00:00 AM -99999.99 -179968 -99999.99 -99999.99 -99999.99 -99999.99
11/10/2021 11:15:00 AM -99999.99 -179968 -99999.99 -99999.99 -99999.99 -99999.99
11/10/2021 11:30:00 AM -99999.99 -179968 -99999.99 -99999.99 -99999.99 -99999.99
11/10/2021 11:45:00 AM -99999.99 -179968 -99999.99 -99999.99 -99999.99 -99999.99
11/10/2021 12:00:00 PM -99999.99 -179968 -99999.99 -99999.99 -99999.99 -99999.99
11/10/2021 12:15:00 PM -99999.99 -179968 -99999.99 -99999.99 -99999.99 -99999.99
11/10/2021 12:30:00 PM -99999.99 -179968 -99999.99 -99999.99 -99999.99 -99999.99
11/10/2021 12:45:00 PM -99999.99 -179968 -99999.99 -99999.99 -99999.99 -99999.99
11/10/2021 1:00:00 PM -99999.99 -179968 -99999.99 -99999.99 -99999.99 -99999.99
11/10/2021 1:15:00 PM -99999.99 -179968 -99999.99 -99999.99 -99999.99 -99999.99
11/10/2021 1:30:00 PM -99999.99 -179968 -99999.99 -99999.99 -99999.99 -99999.99
11/10/2021 1:45:00 PM -99999.99 -179968 -99999.99 -99999.99 -99999.99 -99999.99
11/10/2021 2:00:00 PM -99999.99 -179968 -99999.99 -99999.99 -99999.99 -99999.99
11/10/2021 2:15:00 PM -99999.99 -179968 -99999.99 -99999.99 -99999.99 -99999.99
11/10/2021 2:30:00 PM -99999.99 -179968 -99999.99 -99999.99 -99999.99 -99999.99
11/10/2021 2:45:00 PM -99999.99 -179968 -99999.99 -99999.99 -99999.99 -99999.99
11/10/2021 3:00:00 PM -99999.99 -179968 -99999.99 -99999.99 -99999.99 -99999.99
11/10/2021 3:15:00 PM -99999.99 -179968 -99999.99 -99999.99 -99999.99 -99999.99
11/10/2021 3:30:00 PM -99999.99 -179968 -99999.99 -99999.99 -99999.99 -99999.99
11/10/2021 3:45:00 PM -99999.99 -179968 -99999.99 -99999.99 -99999.99 -99999.99
11/10/2021 4:00:00 PM -99999.99 -179968 -99999.99 -99999.99 -99999.99 -99999.99
11/10/2021 4:15:00 PM -99999.99 -179968 -99999.99 -99999.99 -99999.99 -99999.99
11/10/2021 4:30:00 PM -99999.99 -179968 -99999.99 -99999.99 -99999.99 -99999.99
11/10/2021 4:45:00 PM -99999.99 -179968 -99999.99 -99999.99 -99999.99 -99999.99
11/10/2021 5:00:00 PM -99999.99 -179968 -99999.99 -99999.99 -99999.99 -99999.99
11/10/2021 5:15:00 PM -99999.99 -179968 -99999.99 -99999.99 -99999.99 -99999.99
11/10/2021 5:30:00 PM -99999.99 -179968 -99999.99 -99999.99 -99999.99 -99999.99
11/10/2021 5:45:00 PM -99999.99 -179968 -99999.99 -99999.99 -99999.99 -99999.99
11/10/2021 6:00:00 PM -99999.99 -179968 -99999.99 -99999.99 -99999.99 -99999.99
11/10/2021 6:15:00 PM -99999.99 -179968 -99999.99 -99999.99 -99999.99 -99999.99
11/10/2021 6:30:00 PM -99999.99 -179968 -99999.99 -99999.99 -99999.99 -99999.99
11/10/2021 6:45:00 PM -99999.99 -179968 -99999.99 -99999.99 -99999.99 -99999.99
11/10/2021 7:00:00 PM -99999.99 -179968 -99999.99 -99999.99 -99999.99 -99999.99
11/10/2021 7:15:00 PM -99999.99 -179968 -99999.99 -99999.99 -99999.99 -99999.99
11/10/2021 7:30:00 PM -99999.99 -179968 -99999.99 -99999.99 -99999.99 -99999.99
11/10/2021 7:45:00 PM -99999.99 -179968 -99999.99 -99999.99 -99999.99 -99999.99
11/10/2021 8:00:00 PM -99999.99 -179968 -99999.99 -99999.99 -99999.99 -99999.99
11/10/2021 8:15:00 PM -99999.99 -179968 -99999.99 -99999.99 -99999.99 -99999.99
11/10/2021 8:30:00 PM -99999.99 -179968 -99999.99 -99999.99 -99999.99 -99999.99
11/10/2021 8:45:00 PM -99999.99 -179968 -99999.99 -99999.99 -99999.99 -99999.99
11/10/2021 9:00:00 PM -99999.99 -179968 -99999.99 -99999.99 -99999.99 -99999.99
11/10/2021 9:15:00 PM -99999.99 -179968 -99999.99 -99999.99 -99999.99 -99999.99
11/10/2021 9:30:00 PM -99999.99 -179968 -99999.99 -99999.99 -99999.99 -99999.99
11/10/2021 9:45:00 PM -99999.99 -179968 -99999.99 -99999.99 -99999.99 -99999.99
11/10/2021 10:00:00 PM -99999.99 -179968 -99999.99 -99999.99 -99999.99 -99999.99
11/10/2021 10:15:00 PM -99999.99 -179968 -99999.99 -99999.99 -99999.99 -99999.99
11/10/2021 10:30:00 PM -99999.99 -179968 -99999.99 -99999.99 -99999.99 -99999.99
11/10/2021 10:45:00 PM -99999.99 -179968 -99999.99 -99999.99 -99999.99 -99999.99
11/10/2021 11:00:00 PM -99999.99 -179968 -99999.99 -99999.99 -99999.99 -99999.99
11/10/2021 11:15:00 PM -99999.99 -179968 -99999.99 -99999.99 -99999.99 -99999.99
11/10/2021 11:30:00 PM -99999.99 -179968 -99999.99 -99999.99 -99999.99 -99999.99
11/10/2021 11:45:00 PM -99999.99 -179968 -99999.99 -99999.99 -99999.99 -99999.99
11/11/2021 12:00:00 AM -99999.99 -179968 -99999.99 -99999.99 -99999.99 -99999.99
11/11/2021 12:15:00 AM -99999.99 -179968 -99999.99 -99999.99 -99999.99 -99999.99
11/11/2021 12:30:00 AM -99999.99 -179968 -99999.99 -99999.99 -99999.99 -99999.99
11/11/2021 12:45:00 AM -99999.99 -179968 -99999.99 -99999.99 -99999.99 -99999.99
11/11/2021 1:00:00 AM -99999.99 -179968 -99999.99 -99999.99 -99999.99 -99999.99
11/11/2021 1:15:00 AM -99999.99 -179968 -99999.99 -99999.99 -99999.99 -99999.99
11/11/2021 1:30:00 AM -99999.99 -179968 -99999.99 -99999.99 -99999.99 -99999.99
11/11/2021 1:45:00 AM -99999.99 -179968 -99999.99 -99999.99 -99999.99 -99999.99
11/11/2021 2:00:00 AM -99999.99 -179968 -99999.99 -99999.99 -99999.99 -99999.99
11/11/2021 2:15:00 AM -99999.99 -179968 -99999.99 -99999.99 -99999.99 -99999.99
11/11/2021 2:30:00 AM -99999.99 -179968 -99999.99 -99999.99 -99999.99 -99999.99
11/11/2021 2:45:00 AM -99999.99 -179968 -99999.99 -99999.99 -99999.99 -99999.99
11/11/2021 3:00:00 AM -99999.99 -179968 -99999.99 -99999.99 -99999.99 -99999.99
11/11/2021 3:15:00 AM -99999.99 -179968 -99999.99 -99999.99 -99999.99 -99999.99
11/11/2021 3:30:00 AM -99999.99 -179968 -99999.99 -99999.99 -99999.99 -99999.99
11/11/2021 3:45:00 AM -99999.99 -179968 -99999.99 -99999.99 -99999.99 -99999.99
11/11/2021 4:00:00 AM -99999.99 -179968 -99999.99 -99999.99 -99999.99 -99999.99
11/11/2021 4:15:00 AM -99999.99 -179968 -99999.99 -99999.99 -99999.99 -99999.99
11/11/2021 4:30:00 AM -99999.99 -179968 -99999.99 -99999.99 -99999.99 -99999.99
11/11/2021 4:45:00 AM -99999.99 -179968 -99999.99 -99999.99 -99999.99 -99999.99
11/11/2021 5:00:00 AM -99999.99 -179968 -99999.99 -99999.99 -99999.99 -99999.99
11/11/2021 5:15:00 AM -99999.99 -179968 -99999.99 -99999.99 -99999.99 -99999.99
11/11/2021 5:30:00 AM -99999.99 -179968 -99999.99 -99999.99 -99999.99 -99999.99
11/11/2021 5:45:00 AM -99999.99 -179968 -99999.99 -99999.99 -99999.99 -99999.99
11/11/2021 6:00:00 AM -99999.99 -179968 -99999.99 -99999.99 -99999.99 -99999.99
11/11/2021 6:15:00 AM -99999.99 -179968 -99999.99 -99999.99 -99999.99 -99999.99
11/11/2021 6:30:00 AM -99999.99 -179968 -99999.99 -99999.99 -99999.99 -99999.99
11/11/2021 6:45:00 AM -99999.99 -179968 -99999.99 -99999.99 -99999.99 -99999.99
11/11/2021 7:00:00 AM -99999.99 -179968 -99999.99 -99999.99 -99999.99 -99999.99
11/11/2021 7:15:00 AM -99999.99 -179968 -99999.99 -99999.99 -99999.99 -99999.99
11/11/2021 7:30:00 AM -99999.99 -179968 -99999.99 -99999.99 -99999.99 -99999.99
11/11/2021 7:45:00 AM -99999.99 -179968 -99999.99 -99999.99 -99999.99 -99999.99
11/11/2021 8:00:00 AM -99999.99 -179968 -99999.99 -99999.99 -99999.99 -99999.99
11/11/2021 8:15:00 AM -99999.99 -179968 -99999.99 -99999.99 -99999.99 -99999.99
11/11/2021 8:30:00 AM -99999.99 -179968 -99999.99 -99999.99 -99999.99 -99999.99
11/11/2021 8:45:00 AM -99999.99 -179968 -99999.99 -99999.99 -99999.99 -99999.99
11/11/2021 9:00:00 AM -99999.99 -179968 -99999.99 -99999.99 -99999.99 -99999.99
11/11/2021 9:15:00 AM -99999.99 -179968 -99999.99 -99999.99 -99999.99 -99999.99
11/11/2021 9:30:00 AM -99999.99 -179968 -99999.99 -99999.99 -99999.99 -99999.99
11/11/2021 9:45:00 AM -99999.99 -179968 -99999.99 -99999.99 -99999.99 -99999.99
11/11/2021 10:00:00 AM -99999.99 -179968 -99999.99 -99999.99 -99999.99 -99999.99
11/11/2021 10:15:00 AM -99999.99 -179968 -99999.99 -99999.99 -99999.99 -99999.99
11/11/2021 10:30:00 AM -99999.99 -179968 -99999.99 -99999.99 -99999.99 -99999.99
11/11/2021 10:45:00 AM -99999.99 -179968 -99999.99 -99999.99 -99999.99 -99999.99
11/11/2021 11:00:00 AM -99999.99 -179968 -99999.99 -99999.99 -99999.99 -99999.99
11/11/2021 11:15:00 AM -99999.99 -179968 -99999.99 -99999.99 -99999.99 -99999.99
11/11/2021 11:30:00 AM -99999.99 -179968 -99999.99 -99999.99 -99999.99 -99999.99
11/11/2021 11:45:00 AM -99999.99 -179968 -99999.99 -99999.99 -99999.99 -99999.99
11/11/2021 12:00:00 PM -99999.99 -179968 -99999.99 -99999.99 -99999.99 -99999.99
11/11/2021 12:15:00 PM -99999.99 -179968 -99999.99 -99999.99 -99999.99 -99999.99
11/11/2021 12:30:00 PM -99999.99 -179968 -99999.99 -99999.99 -99999.99 -99999.99
11/11/2021 12:45:00 PM -99999.99 -179968 -99999.99 -99999.99 -99999.99 -99999.99
11/11/2021 1:00:00 PM -99999.99 -179968 -99999.99 -99999.99 -99999.99 -99999.99
11/11/2021 1:15:00 PM -99999.99 -179968 -99999.99 -99999.99 -99999.99 -99999.99
11/11/2021 1:30:00 PM -99999.99 -179968 -99999.99 -99999.99 -99999.99 -99999.99
11/11/2021 1:45:00 PM -99999.99 -179968 -99999.99 -99999.99 -99999.99 -99999.99
11/11/2021 2:00:00 PM -99999.99 -179968 -99999.99 -99999.99 -99999.99 -99999.99
11/11/2021 2:15:00 PM -99999.99 -179968 -99999.99 -99999.99 -99999.99 -99999.99
11/11/2021 2:30:00 PM -99999.99 -179968 -99999.99 -99999.99 -99999.99 -99999.99
11/11/2021 2:45:00 PM -99999.99 -179968 -99999.99 -99999.99 -99999.99 -99999.99
11/11/2021 3:00:00 PM -99999.99 -179968 -99999.99 -99999.99 -99999.99 -99999.99
11/11/2021 3:15:00 PM -99999.99 -179968 -99999.99 -99999.99 -99999.99 -99999.99
11/11/2021 3:30:00 PM -99999.99 -179968 -99999.99 -99999.99 -99999.99 -99999.99
11/11/2021 3:45:00 PM -99999.99 -179968 -99999.99 -99999.99 -99999.99 -99999.99
11/11/2021 4:00:00 PM -99999.99 -179968 -99999.99 -99999.99 -99999.99 -99999.99
11/11/2021 4:15:00 PM -99999.99 -179968 -99999.99 -99999.99 -99999.99 -99999.99
11/11/2021 4:30:00 PM -99999.99 -179968 -99999.99 -99999.99 -99999.99 -99999.99
11/11/2021 4:45:00 PM -99999.99 -179968 -99999.99 -99999.99 -99999.99 -99999.99
11/11/2021 5:00:00 PM -99999.99 -179968 -99999.99 -99999.99 -99999.99 -99999.99
11/11/2021 5:15:00 PM -99999.99 -179968 -99999.99 -99999.99 -99999.99 -99999.99
11/11/2021 5:30:00 PM -99999.99 -179968 -99999.99 -99999.99 -99999.99 -99999.99
11/11/2021 5:45:00 PM -99999.99 -179968 -99999.99 -99999.99 -99999.99 -99999.99
11/11/2021 6:00:00 PM -99999.99 -179968 -99999.99 -99999.99 -99999.99 -99999.99
11/11/2021 6:15:00 PM -99999.99 -179968 -99999.99 -99999.99 -99999.99 -99999.99
11/11/2021 6:30:00 PM -99999.99 -179968 -99999.99 -99999.99 -99999.99 -99999.99
11/11/2021 6:45:00 PM -99999.99 -179968 -99999.99 -99999.99 -99999.99 -99999.99
11/11/2021 7:00:00 PM -99999.99 -179968 -99999.99 -99999.99 -99999.99 -99999.99
11/11/2021 7:15:00 PM -99999.99 -179968 -99999.99 -99999.99 -99999.99 -99999.99
11/11/2021 7:30:00 PM -99999.99 -179968 -99999.99 -99999.99 -99999.99 -99999.99
11/11/2021 7:45:00 PM -99999.99 -179968 -99999.99 -99999.99 -99999.99 -99999.99
11/11/2021 8:00:00 PM -99999.99 -179968 -99999.99 -99999.99 -99999.99 -99999.99
11/11/2021 8:15:00 PM -99999.99 -179968 -99999.99 -99999.99 -99999.99 -99999.99
11/11/2021 8:30:00 PM -99999.99 -179968 -99999.99 -99999.99 -99999.99 -99999.99
11/11/2021 8:45:00 PM -99999.99 -179968 -99999.99 -99999.99 -99999.99 -99999.99
11/11/2021 9:00:00 PM -99999.99 -179968 -99999.99 -99999.99 -99999.99 -99999.99
11/11/2021 9:15:00 PM -99999.99 -179968 -99999.99 -99999.99 -99999.99 -99999.99
11/11/2021 9:30:00 PM -99999.99 -179968 -99999.99 -99999.99 -99999.99 -99999.99
11/11/2021 9:45:00 PM -99999.99 -179968 -99999.99 -99999.99 -99999.99 -99999.99
11/11/2021 10:00:00 PM -99999.99 -179968 -99999.99 -99999.99 -99999.99 -99999.99
11/11/2021 10:15:00 PM -99999.99 -179968 -99999.99 -99999.99 -99999.99 -99999.99
11/11/2021 10:30:00 PM -99999.99 -179968 -99999.99 -99999.99 -99999.99 -99999.99
11/11/2021 10:45:00 PM -99999.99 -179968 -99999.99 -99999.99 -99999.99 -99999.99
11/11/2021 11:00:00 PM -99999.99 -179968 -99999.99 -99999.99 -99999.99 -99999.99
11/11/2021 11:15:00 PM -99999.99 -179968 -99999.99 -99999.99 -99999.99 -99999.99
11/11/2021 11:30:00 PM -99999.99 -179968 -99999.99 -99999.99 -99999.99 -99999.99
11/11/2021 11:45:00 PM -99999.99 -179968 -99999.99 -99999.99 -99999.99 -99999.99
11/12/2021 12:00:00 AM -99999.99 -179968 -99999.99 -99999.99 -99999.99 -99999.99
11/12/2021 12:15:00 AM -99999.99 -179968 -99999.99 -99999.99 -99999.99 -99999.99
11/12/2021 12:30:00 AM -99999.99 -179968 -99999.99 -99999.99 -99999.99 -99999.99
11/12/2021 12:45:00 AM -99999.99 -179968 -99999.99 -99999.99 -99999.99 -99999.99
11/12/2021 1:00:00 AM -99999.99 -179968 -99999.99 -99999.99 -99999.99 -99999.99
11/12/2021 1:15:00 AM -99999.99 -179968 -99999.99 -99999.99 -99999.99 -99999.99
11/12/2021 1:30:00 AM -99999.99 -179968 -99999.99 -99999.99 -99999.99 -99999.99
11/12/2021 1:45:00 AM -99999.99 -179968 -99999.99 -99999.99 -99999.99 -99999.99
11/12/2021 2:00:00 AM -99999.99 -179968 -99999.99 -99999.99 -99999.99 -99999.99
11/12/2021 2:15:00 AM -99999.99 -179968 -99999.99 -99999.99 -99999.99 -99999.99
11/12/2021 2:30:00 AM -99999.99 -179968 -99999.99 -99999.99 -99999.99 -99999.99
11/12/2021 2:45:00 AM -99999.99 -179968 -99999.99 -99999.99 -99999.99 -99999.99
11/12/2021 3:00:00 AM -99999.99 -179968 -99999.99 -99999.99 -99999.99 -99999.99
11/12/2021 3:15:00 AM -99999.99 -179968 -99999.99 -99999.99 -99999.99 -99999.99
11/12/2021 3:30:00 AM -99999.99 -179968 -99999.99 -99999.99 -99999.99 -99999.99
11/12/2021 3:45:00 AM -99999.99 -179968 -99999.99 -99999.99 -99999.99 -99999.99
11/12/2021 4:00:00 AM -99999.99 -179968 -99999.99 -99999.99 -99999.99 -99999.99
11/12/2021 4:15:00 AM -99999.99 -179968 -99999.99 -99999.99 -99999.99 -99999.99
11/12/2021 4:30:00 AM -99999.99 -179968 -99999.99 -99999.99 -99999.99 -99999.99
11/12/2021 4:45:00 AM -99999.99 -179968 -99999.99 -99999.99 -99999.99 -99999.99
11/12/2021 5:00:00 AM -99999.99 -179968 -99999.99 -99999.99 -99999.99 -99999.99
11/12/2021 5:15:00 AM -99999.99 -179968 -99999.99 -99999.99 -99999.99 -99999.99
11/12/2021 5:30:00 AM -99999.99 -179968 -99999.99 -99999.99 -99999.99 -99999.99
11/12/2021 5:45:00 AM -99999.99 -179968 -99999.99 -99999.99 -99999.99 -99999.99
11/12/2021 6:00:00 AM -99999.99 -179968 -99999.99 -99999.99 -99999.99 -99999.99
11/12/2021 6:15:00 AM -99999.99 -179968 -99999.99 -99999.99 -99999.99 -99999.99
11/12/2021 6:30:00 AM -99999.99 -179968 -99999.99 -99999.99 -99999.99 -99999.99
11/12/2021 6:45:00 AM -99999.99 -179968 -99999.99 -99999.99 -99999.99 -99999.99
11/12/2021 7:00:00 AM -99999.99 -179968 -99999.99 -99999.99 -99999.99 -99999.99
11/12/2021 7:15:00 AM -99999.99 -179968 -99999.99 -99999.99 -99999.99 -99999.99
11/12/2021 7:30:00 AM -99999.99 -179968 -99999.99 -99999.99 -99999.99 -99999.99
11/12/2021 7:45:00 AM -99999.99 -179968 -99999.99 -99999.99 -99999.99 -99999.99
11/12/2021 8:00:00 AM -99999.99 -179968 -99999.99 -99999.99 -99999.99 -99999.99
11/12/2021 8:15:00 AM -99999.99 -179968 -99999.99 -99999.99 -99999.99 -99999.99
11/12/2021 8:30:00 AM -99999.99 -179968 -99999.99 -99999.99 -99999.99 -99999.99
11/12/2021 8:45:00 AM -99999.99 -179968 -99999.99 -99999.99 -99999.99 -99999.99
11/12/2021 9:00:00 AM -99999.99 -179968 -99999.99 -99999.99 -99999.99 -99999.99
11/12/2021 9:15:00 AM -99999.99 -179968 -99999.99 -99999.99 -99999.99 -99999.99
11/12/2021 9:30:00 AM -99999.99 -179968 -99999.99 -99999.99 -99999.99 -99999.99
11/12/2021 9:45:00 AM -99999.99 -179968 -99999.99 -99999.99 -99999.99 -99999.99
11/12/2021 10:00:00 AM -99999.99 -179968 -99999.99 -99999.99 -99999.99 -99999.99
11/12/2021 10:15:00 AM -99999.99 -179968 -99999.99 -99999.99 -99999.99 -99999.99
11/12/2021 10:30:00 AM -99999.99 -179968 -99999.99 -99999.99 -99999.99 -99999.99
11/12/2021 10:45:00 AM -99999.99 -179968 -99999.99 -99999.99 -99999.99 -99999.99
11/12/2021 11:00:00 AM -99999.99 -179968 -99999.99 -99999.99 -99999.99 -99999.99
11/12/2021 11:15:00 AM -99999.99 -179968 -99999.99 -99999.99 -99999.99 -99999.99
11/12/2021 11:30:00 AM -99999.99 -179968 -99999.99 -99999.99 -99999.99 -99999.99
11/12/2021 11:45:00 AM -99999.99 -179968 -99999.99 -99999.99 -99999.99 -99999.99
11/12/2021 12:00:00 PM -99999.99 -179968 -99999.99 -99999.99 -99999.99 -99999.99
11/12/2021 12:15:00 PM -99999.99 -179968 -99999.99 -99999.99 -99999.99 -99999.99
11/12/2021 12:30:00 PM -99999.99 -179968 -99999.99 -99999.99 -99999.99 -99999.99
11/12/2021 12:45:00 PM -99999.99 -179968 -99999.99 -99999.99 -99999.99 -99999.99
11/12/2021 1:00:00 PM -99999.99 -179968 -99999.99 -99999.99 -99999.99 -99999.99
11/12/2021 1:15:00 PM -99999.99 -179968 -99999.99 -99999.99 -99999.99 -99999.99
11/12/2021 1:30:00 PM -99999.99 -179968 -99999.99 -99999.99 -99999.99 -99999.99
11/12/2021 1:45:00 PM -99999.99 -179968 -99999.99 -99999.99 -99999.99 -99999.99
11/12/2021 2:00:00 PM -99999.99 -179968 -99999.99 -99999.99 -99999.99 -99999.99
11/12/2021 2:15:00 PM -99999.99 -179968 -99999.99 -99999.99 -99999.99 -99999.99
11/12/2021 2:30:00 PM -99999.99 -179968 -99999.99 -99999.99 -99999.99 -99999.99
11/12/2021 2:45:00 PM -99999.99 -179968 -99999.99 -99999.99 -99999.99 -99999.99
11/12/2021 3:00:00 PM -99999.99 -179968 -99999.99 -99999.99 -99999.99 -99999.99
11/12/2021 3:15:00 PM -99999.99 -179968 -99999.99 -99999.99 -99999.99 -99999.99
11/12/2021 3:30:00 PM -99999.99 -179968 -99999.99 -99999.99 -99999.99 -99999.99
11/12/2021 3:45:00 PM -99999.99 -179968 -99999.99 -99999.99 -99999.99 -99999.99
11/12/2021 4:00:00 PM -99999.99 -179968 -99999.99 -99999.99 -99999.99 -99999.99
11/12/2021 4:15:00 PM -99999.99 -179968 -99999.99 -99999.99 -99999.99 -99999.99
11/12/2021 4:30:00 PM -99999.99 -179968 -99999.99 -99999.99 -99999.99 -99999.99
11/12/2021 4:45:00 PM -99999.99 -179968 -99999.99 -99999.99 -99999.99 -99999.99
11/12/2021 5:00:00 PM -99999.99 -179968 -99999.99 -99999.99 -99999.99 -99999.99
11/12/2021 5:15:00 PM -99999.99 -179968 -99999.99 -99999.99 -99999.99 -99999.99
11/12/2021 5:30:00 PM -99999.99 -179968 -99999.99 -99999.99 -99999.99 -99999.99
11/12/2021 5:45:00 PM -99999.99 -179968 -99999.99 -99999.99 -99999.99 -99999.99
11/12/2021 6:00:00 PM -99999.99 -179968 -99999.99 -99999.99 -99999.99 -99999.99
11/12/2021 6:15:00 PM -99999.99 -179968 -99999.99 -99999.99 -99999.99 -99999.99
11/12/2021 6:30:00 PM -99999.99 -179968 -99999.99 -99999.99 -99999.99 -99999.99
11/12/2021 6:45:00 PM -99999.99 -179968 -99999.99 -99999.99 -99999.99 -99999.99
11/12/2021 7:00:00 PM -99999.99 -179968 -99999.99 -99999.99 -99999.99 -99999.99
11/12/2021 7:15:00 PM -99999.99 -179968 -99999.99 -99999.99 -99999.99 -99999.99
11/12/2021 7:30:00 PM -99999.99 -179968 -99999.99 -99999.99 -99999.99 -99999.99
11/12/2021 7:45:00 PM -99999.99 -179968 -99999.99 -99999.99 -99999.99 -99999.99
11/12/2021 8:00:00 PM -99999.99 -179968 -99999.99 -99999.99 -99999.99 -99999.99
11/12/2021 8:15:00 PM -99999.99 -179968 -99999.99 -99999.99 -99999.99 -99999.99
11/12/2021 8:30:00 PM -99999.99 -179968 -99999.99 -99999.99 -99999.99 -99999.99
11/12/2021 8:45:00 PM -99999.99 -179968 -99999.99 -99999.99 -99999.99 -99999.99
11/12/2021 9:00:00 PM -99999.99 -179968 -99999.99 -99999.99 -99999.99 -99999.99
11/12/2021 9:15:00 PM -99999.99 -179968 -99999.99 -99999.99 -99999.99 -99999.99
11/12/2021 9:30:00 PM -99999.99 -179968 -99999.99 -99999.99 -99999.99 -99999.99
11/12/2021 9:45:00 PM -99999.99 -179968 -99999.99 -99999.99 -99999.99 -99999.99
11/12/2021 10:00:00 PM -99999.99 -179968 -99999.99 -99999.99 -99999.99 -99999.99
11/12/2021 10:15:00 PM -99999.99 -179968 -99999.99 -99999.99 -99999.99 -99999.99
11/12/2021 10:30:00 PM -99999.99 -179968 -99999.99 -99999.99 -99999.99 -99999.99
11/12/2021 10:45:00 PM -99999.99 -179968 -99999.99 -99999.99 -99999.99 -99999.99
11/12/2021 11:00:00 PM -99999.99 -179968 -99999.99 -99999.99 -99999.99 -99999.99
11/12/2021 11:15:00 PM -99999.99 -179968 -99999.99 -99999.99 -99999.99 -99999.99
11/12/2021 11:30:00 PM -99999.99 -179968 -99999.99 -99999.99 -99999.99 -99999.99
11/12/2021 11:45:00 PM -99999.99 -179968 -99999.99 -99999.99 -99999.99 -99999.99
11/13/2021 12:00:00 AM -99999.99 -179968 -99999.99 -99999.99 -99999.99 -99999.99
11/13/2021 12:15:00 AM -99999.99 -179968 -99999.99 -99999.99 -99999.99 -99999.99
11/13/2021 12:30:00 AM -99999.99 -179968 -99999.99 -99999.99 -99999.99 -99999.99
11/13/2021 12:45:00 AM -99999.99 -179968 -99999.99 -99999.99 -99999.99 -99999.99
11/13/2021 1:00:00 AM -99999.99 -179968 -99999.99 -99999.99 -99999.99 -99999.99
11/13/2021 1:15:00 AM -99999.99 -179968 -99999.99 -99999.99 -99999.99 -99999.99
11/13/2021 1:30:00 AM -99999.99 -179968 -99999.99 -99999.99 -99999.99 -99999.99
11/13/2021 1:45:00 AM -99999.99 -179968 -99999.99 -99999.99 -99999.99 -99999.99
11/13/2021 2:00:00 AM -99999.99 -179968 -99999.99 -99999.99 -99999.99 -99999.99
11/13/2021 2:15:00 AM -99999.99 -179968 -99999.99 -99999.99 -99999.99 -99999.99
11/13/2021 2:30:00 AM -99999.99 -179968 -99999.99 -99999.99 -99999.99 -99999.99
11/13/2021 2:45:00 AM -99999.99 -179968 -99999.99 -99999.99 -99999.99 -99999.99
11/13/2021 3:00:00 AM -99999.99 -179968 -99999.99 -99999.99 -99999.99 -99999.99
11/13/2021 3:15:00 AM -99999.99 -179968 -99999.99 -99999.99 -99999.99 -99999.99
11/13/2021 3:30:00 AM -99999.99 -179968 -99999.99 -99999.99 -99999.99 -99999.99
11/13/2021 3:45:00 AM -99999.99 -179968 -99999.99 -99999.99 -99999.99 -99999.99
11/13/2021 4:00:00 AM -99999.99 -179968 -99999.99 -99999.99 -99999.99 -99999.99
11/13/2021 4:15:00 AM -99999.99 -179968 -99999.99 -99999.99 -99999.99 -99999.99
11/13/2021 4:30:00 AM -99999.99 -179968 -99999.99 -99999.99 -99999.99 -99999.99
11/13/2021 4:45:00 AM -99999.99 -179968 -99999.99 -99999.99 -99999.99 -99999.99
11/13/2021 5:00:00 AM -99999.99 -179968 -99999.99 -99999.99 -99999.99 -99999.99
11/13/2021 5:15:00 AM -99999.99 -179968 -99999.99 -99999.99 -99999.99 -99999.99
11/13/2021 5:30:00 AM -99999.99 -179968 -99999.99 -99999.99 -99999.99 -99999.99
11/13/2021 5:45:00 AM -99999.99 -179968 -99999.99 -99999.99 -99999.99 -99999.99
11/13/2021 6:00:00 AM -99999.99 -179968 -99999.99 -99999.99 -99999.99 -99999.99
11/13/2021 6:15:00 AM -99999.99 -179968 -99999.99 -99999.99 -99999.99 -99999.99
11/13/2021 6:30:00 AM -99999.99 -179968 -99999.99 -99999.99 -99999.99 -99999.99
11/13/2021 6:45:00 AM -99999.99 -179968 -99999.99 -99999.99 -99999.99 -99999.99
11/13/2021 7:00:00 AM -99999.99 -179968 -99999.99 -99999.99 -99999.99 -99999.99
11/13/2021 7:15:00 AM -99999.99 -179968 -99999.99 -99999.99 -99999.99 -99999.99
11/13/2021 7:30:00 AM -99999.99 -179968 -99999.99 -99999.99 -99999.99 -99999.99
11/13/2021 7:45:00 AM -99999.99 -179968 -99999.99 -99999.99 -99999.99 -99999.99
11/13/2021 8:00:00 AM -99999.99 -179968 -99999.99 -99999.99 -99999.99 -99999.99
11/13/2021 8:15:00 AM -99999.99 -179968 -99999.99 -99999.99 -99999.99 -99999.99
11/13/2021 8:30:00 AM -99999.99 -179968 -99999.99 -99999.99 -99999.99 -99999.99
11/13/2021 8:45:00 AM -99999.99 -179968 -99999.99 -99999.99 -99999.99 -99999.99
11/13/2021 9:00:00 AM -99999.99 -179968 -99999.99 -99999.99 -99999.99 -99999.99
11/13/2021 9:15:00 AM -99999.99 -179968 -99999.99 -99999.99 -99999.99 -99999.99
11/13/2021 9:30:00 AM -99999.99 -179968 -99999.99 -99999.99 -99999.99 -99999.99
11/13/2021 9:45:00 AM -99999.99 -179968 -99999.99 -99999.99 -99999.99 -99999.99
11/13/2021 10:00:00 AM -99999.99 -179968 -99999.99 -99999.99 -99999.99 -99999.99
11/13/2021 10:15:00 AM -99999.99 -179968 -99999.99 -99999.99 -99999.99 -99999.99
11/13/2021 10:30:00 AM -99999.99 -179968 -99999.99 -99999.99 -99999.99 -99999.99
11/13/2021 10:45:00 AM -99999.99 -179968 -99999.99 -99999.99 -99999.99 -99999.99
11/13/2021 11:00:00 AM -99999.99 -179968 -99999.99 -99999.99 -99999.99 -99999.99
11/13/2021 11:15:00 AM -99999.99 -179968 -99999.99 -99999.99 -99999.99 -99999.99
11/13/2021 11:30:00 AM -99999.99 -179968 -99999.99 -99999.99 -99999.99 -99999.99
11/13/2021 11:45:00 AM -99999.99 -179968 -99999.99 -99999.99 -99999.99 -99999.99
11/13/2021 12:00:00 PM -99999.99 -179968 -99999.99 -99999.99 -99999.99 -99999.99
11/13/2021 12:15:00 PM -99999.99 -179968 -99999.99 -99999.99 -99999.99 -99999.99
11/13/2021 12:30:00 PM -99999.99 -179968 -99999.99 -99999.99 -99999.99 -99999.99
11/13/2021 12:45:00 PM -99999.99 -179968 -99999.99 -99999.99 -99999.99 -99999.99
11/13/2021 1:00:00 PM -99999.99 -179968 -99999.99 -99999.99 -99999.99 -99999.99
11/13/2021 1:15:00 PM -99999.99 -179968 -99999.99 -99999.99 -99999.99 -99999.99
11/13/2021 1:30:00 PM -99999.99 -179968 -99999.99 -99999.99 -99999.99 -99999.99
11/13/2021 1:45:00 PM -99999.99 -179968 -99999.99 -99999.99 -99999.99 -99999.99
11/13/2021 2:00:00 PM -99999.99 -179968 -99999.99 -99999.99 -99999.99 -99999.99
11/13/2021 2:15:00 PM -99999.99 -179968 -99999.99 -99999.99 -99999.99 -99999.99
11/13/2021 2:30:00 PM -99999.99 -179968 -99999.99 -99999.99 -99999.99 -99999.99
11/13/2021 2:45:00 PM -99999.99 -179968 -99999.99 -99999.99 -99999.99 -99999.99
11/13/2021 3:00:00 PM -99999.99 -179968 -99999.99 -99999.99 -99999.99 -99999.99
11/13/2021 3:15:00 PM -99999.99 -179968 -99999.99 -99999.99 -99999.99 -99999.99
11/13/2021 3:30:00 PM -99999.99 -179968 -99999.99 -99999.99 -99999.99 -99999.99
11/13/2021 3:45:00 PM -99999.99 -179968 -99999.99 -99999.99 -99999.99 -99999.99
11/13/2021 4:00:00 PM -99999.99 -179968 -99999.99 -99999.99 -99999.99 -99999.99
11/13/2021 4:15:00 PM -99999.99 -179968 -99999.99 -99999.99 -99999.99 -99999.99
11/13/2021 4:30:00 PM -99999.99 -179968 -99999.99 -99999.99 -99999.99 -99999.99
11/13/2021 4:45:00 PM -99999.99 -179968 -99999.99 -99999.99 -99999.99 -99999.99
11/13/2021 5:00:00 PM -99999.99 -179968 -99999.99 -99999.99 -99999.99 -99999.99
11/13/2021 5:15:00 PM -99999.99 -179968 -99999.99 -99999.99 -99999.99 -99999.99
11/13/2021 5:30:00 PM -99999.99 -179968 -99999.99 -99999.99 -99999.99 -99999.99
11/13/2021 5:45:00 PM -99999.99 -179968 -99999.99 -99999.99 -99999.99 -99999.99
11/13/2021 6:00:00 PM -99999.99 -179968 -99999.99 -99999.99 -99999.99 -99999.99
11/13/2021 6:15:00 PM -99999.99 -179968 -99999.99 -99999.99 -99999.99 -99999.99
11/13/2021 6:30:00 PM -99999.99 -179968 -99999.99 -99999.99 -99999.99 -99999.99
11/13/2021 6:45:00 PM -99999.99 -179968 -99999.99 -99999.99 -99999.99 -99999.99
11/13/2021 7:00:00 PM -99999.99 -179968 -99999.99 -99999.99 -99999.99 -99999.99
11/13/2021 7:15:00 PM -99999.99 -179968 -99999.99 -99999.99 -99999.99 -99999.99
11/13/2021 7:30:00 PM -99999.99 -179968 -99999.99 -99999.99 -99999.99 -99999.99
11/13/2021 7:45:00 PM -99999.99 -179968 -99999.99 -99999.99 -99999.99 -99999.99
11/13/2021 8:00:00 PM -99999.99 -179968 -99999.99 -99999.99 -99999.99 -99999.99
11/13/2021 8:15:00 PM -99999.99 -179968 -99999.99 -99999.99 -99999.99 -99999.99
11/13/2021 8:30:00 PM -99999.99 -179968 -99999.99 -99999.99 -99999.99 -99999.99
11/13/2021 8:45:00 PM -99999.99 -179968 -99999.99 -99999.99 -99999.99 -99999.99
11/13/2021 9:00:00 PM -99999.99 -179968 -99999.99 -99999.99 -99999.99 -99999.99
11/13/2021 9:15:00 PM -99999.99 -179968 -99999.99 -99999.99 -99999.99 -99999.99
11/13/2021 9:30:00 PM -99999.99 -179968 -99999.99 -99999.99 -99999.99 -99999.99
11/13/2021 9:45:00 PM -99999.99 -179968 -99999.99 -99999.99 -99999.99 -99999.99
11/13/2021 10:00:00 PM -99999.99 -179968 -99999.99 -99999.99 -99999.99 -99999.99
11/13/2021 10:15:00 PM -99999.99 -179968 -99999.99 -99999.99 -99999.99 -99999.99
11/13/2021 10:30:00 PM -99999.99 -179968 -99999.99 -99999.99 -99999.99 -99999.99
11/13/2021 10:45:00 PM -99999.99 -179968 -99999.99 -99999.99 -99999.99 -99999.99
11/13/2021 11:00:00 PM -99999.99 -179968 -99999.99 -99999.99 -99999.99 -99999.99
11/13/2021 11:15:00 PM -99999.99 -179968 -99999.99 -99999.99 -99999.99 -99999.99
11/13/2021 11:30:00 PM -99999.99 -179968 -99999.99 -99999.99 -99999.99 -99999.99
11/13/2021 11:45:00 PM -99999.99 -179968 -99999.99 -99999.99 -99999.99 -99999.99
11/14/2021 12:00:00 AM -99999.99 -179968 -99999.99 -99999.99 -99999.99 -99999.99
11/14/2021 12:15:00 AM -99999.99 -179968 -99999.99 -99999.99 -99999.99 -99999.99
11/14/2021 12:30:00 AM -99999.99 -179968 -99999.99 -99999.99 -99999.99 -99999.99
11/14/2021 12:45:00 AM -99999.99 -179968 -99999.99 -99999.99 -99999.99 -99999.99
11/14/2021 1:00:00 AM -99999.99 -179968 -99999.99 -99999.99 -99999.99 -99999.99
11/14/2021 1:15:00 AM -99999.99 -179968 -99999.99 -99999.99 -99999.99 -99999.99
11/14/2021 1:30:00 AM -99999.99 -179968 -99999.99 -99999.99 -99999.99 -99999.99
11/14/2021 1:45:00 AM -99999.99 -179968 -99999.99 -99999.99 -99999.99 -99999.99
11/14/2021 2:00:00 AM -99999.99 -179968 -99999.99 -99999.99 -99999.99 -99999.99
11/14/2021 2:15:00 AM -99999.99 -179968 -99999.99 -99999.99 -99999.99 -99999.99
11/14/2021 2:30:00 AM -99999.99 -179968 -99999.99 -99999.99 -99999.99 -99999.99
11/14/2021 2:45:00 AM -99999.99 -179968 -99999.99 -99999.99 -99999.99 -99999.99
11/14/2021 3:00:00 AM -99999.99 -179968 -99999.99 -99999.99 -99999.99 -99999.99
11/14/2021 3:15:00 AM -99999.99 -179968 -99999.99 -99999.99 -99999.99 -99999.99
11/14/2021 3:30:00 AM -99999.99 -179968 -99999.99 -99999.99 -99999.99 -99999.99
11/14/2021 3:45:00 AM -99999.99 -179968 -99999.99 -99999.99 -99999.99 -99999.99
11/14/2021 4:00:00 AM -99999.99 -179968 -99999.99 -99999.99 -99999.99 -99999.99
11/14/2021 4:15:00 AM -99999.99 -179968 -99999.99 -99999.99 -99999.99 -99999.99
11/14/2021 4:30:00 AM -99999.99 -179968 -99999.99 -99999.99 -99999.99 -99999.99
11/14/2021 4:45:00 AM -99999.99 -179968 -99999.99 -99999.99 -99999.99 -99999.99
11/14/2021 5:00:00 AM -99999.99 -179968 -99999.99 -99999.99 -99999.99 -99999.99
11/14/2021 5:15:00 AM -99999.99 -179968 -99999.99 -99999.99 -99999.99 -99999.99
11/14/2021 5:30:00 AM -99999.99 -179968 -99999.99 -99999.99 -99999.99 -99999.99
11/14/2021 5:45:00 AM -99999.99 -179968 -99999.99 -99999.99 -99999.99 -99999.99
11/14/2021 6:00:00 AM -99999.99 -179968 -99999.99 -99999.99 -99999.99 -99999.99
11/14/2021 6:15:00 AM -99999.99 -179968 -99999.99 -99999.99 -99999.99 -99999.99
11/14/2021 6:30:00 AM -99999.99 -179968 -99999.99 -99999.99 -99999.99 -99999.99
11/14/2021 6:45:00 AM -99999.99 -179968 -99999.99 -99999.99 -99999.99 -99999.99
11/14/2021 7:00:00 AM -99999.99 -179968 -99999.99 -99999.99 -99999.99 -99999.99
11/14/2021 7:15:00 AM -99999.99 -179968 -99999.99 -99999.99 -99999.99 -99999.99
11/14/2021 7:30:00 AM -99999.99 -179968 -99999.99 -99999.99 -99999.99 -99999.99
11/14/2021 7:45:00 AM -99999.99 -179968 -99999.99 -99999.99 -99999.99 -99999.99
11/14/2021 8:00:00 AM -99999.99 -179968 -99999.99 -99999.99 -99999.99 -99999.99
11/14/2021 8:15:00 AM -99999.99 -179968 -99999.99 -99999.99 -99999.99 -99999.99
11/14/2021 8:30:00 AM -99999.99 -179968 -99999.99 -99999.99 -99999.99 -99999.99
11/14/2021 8:45:00 AM -99999.99 -179968 -99999.99 -99999.99 -99999.99 -99999.99
11/14/2021 9:00:00 AM -99999.99 -179968 -99999.99 -99999.99 -99999.99 -99999.99
11/14/2021 9:15:00 AM -99999.99 -179968 -99999.99 -99999.99 -99999.99 -99999.99
11/14/2021 9:30:00 AM -99999.99 -179968 -99999.99 -99999.99 -99999.99 -99999.99
11/14/2021 9:45:00 AM -99999.99 -179968 -99999.99 -99999.99 -99999.99 -99999.99
11/14/2021 10:00:00 AM -99999.99 -179968 -99999.99 -99999.99 -99999.99 -99999.99
11/14/2021 10:15:00 AM -99999.99 -179968 -99999.99 -99999.99 -99999.99 -99999.99
11/14/2021 10:30:00 AM -99999.99 -179968 -99999.99 -99999.99 -99999.99 -99999.99
11/14/2021 10:45:00 AM -99999.99 -179968 -99999.99 -99999.99 -99999.99 -99999.99
11/14/2021 11:00:00 AM -99999.99 -179968 -99999.99 -99999.99 -99999.99 -99999.99
11/14/2021 11:15:00 AM -99999.99 -179968 -99999.99 -99999.99 -99999.99 -99999.99
11/14/2021 11:30:00 AM -99999.99 -179968 -99999.99 -99999.99 -99999.99 -99999.99
11/14/2021 11:45:00 AM -99999.99 -179968 -99999.99 -99999.99 -99999.99 -99999.99
11/14/2021 12:00:00 PM -99999.99 -179968 -99999.99 -99999.99 -99999.99 -99999.99
11/14/2021 12:15:00 PM -99999.99 -179968 -99999.99 -99999.99 -99999.99 -99999.99
11/14/2021 12:30:00 PM -99999.99 -179968 -99999.99 -99999.99 -99999.99 -99999.99
11/14/2021 12:45:00 PM -99999.99 -179968 -99999.99 -99999.99 -99999.99 -99999.99
11/14/2021 1:00:00 PM -99999.99 -179968 -99999.99 -99999.99 -99999.99 -99999.99
11/14/2021 1:15:00 PM -99999.99 -179968 -99999.99 -99999.99 -99999.99 -99999.99
11/14/2021 1:30:00 PM -99999.99 -179968 -99999.99 -99999.99 -99999.99 -99999.99
11/14/2021 1:45:00 PM -99999.99 -179968 -99999.99 -99999.99 -99999.99 -99999.99
11/14/2021 2:00:00 PM -99999.99 -179968 -99999.99 -99999.99 -99999.99 -99999.99
11/14/2021 2:15:00 PM -99999.99 -179968 -99999.99 -99999.99 -99999.99 -99999.99
11/14/2021 2:30:00 PM -99999.99 -179968 -99999.99 -99999.99 -99999.99 -99999.99
11/14/2021 2:45:00 PM -99999.99 -179968 -99999.99 -99999.99 -99999.99 -99999.99
11/14/2021 3:00:00 PM -99999.99 -179968 -99999.99 -99999.99 -99999.99 -99999.99
11/14/2021 3:15:00 PM -99999.99 -179968 -99999.99 -99999.99 -99999.99 -99999.99
11/14/2021 3:30:00 PM -99999.99 -179968 -99999.99 -99999.99 -99999.99 -99999.99
11/14/2021 3:45:00 PM -99999.99 -179968 -99999.99 -99999.99 -99999.99 -99999.99
11/14/2021 4:00:00 PM -99999.99 -179968 -99999.99 -99999.99 -99999.99 -99999.99
11/14/2021 4:15:00 PM -99999.99 -179968 -99999.99 -99999.99 -99999.99 -99999.99
11/14/2021 4:30:00 PM -99999.99 -179968 -99999.99 -99999.99 -99999.99 -99999.99
11/14/2021 4:45:00 PM -99999.99 -179968 -99999.99 -99999.99 -99999.99 -99999.99
11/14/2021 5:00:00 PM -99999.99 -179968 -99999.99 -99999.99 -99999.99 -99999.99
11/14/2021 5:15:00 PM -99999.99 -179968 -99999.99 -99999.99 -99999.99 -99999.99
11/14/2021 5:30:00 PM -99999.99 -179968 -99999.99 -99999.99 -99999.99 -99999.99
11/14/2021 5:45:00 PM -99999.99 -179968 -99999.99 -99999.99 -99999.99 -99999.99
11/14/2021 6:00:00 PM -99999.99 -179968 -99999.99 -99999.99 -99999.99 -99999.99
11/14/2021 6:15:00 PM -99999.99 -179968 -99999.99 -99999.99 -99999.99 -99999.99
11/14/2021 6:30:00 PM -99999.99 -179968 -99999.99 -99999.99 -99999.99 -99999.99
11/14/2021 6:45:00 PM -99999.99 -179968 -99999.99 -99999.99 -99999.99 -99999.99
11/14/2021 7:00:00 PM -99999.99 -179968 -99999.99 -99999.99 -99999.99 -99999.99
11/14/2021 7:15:00 PM -99999.99 -179968 -99999.99 -99999.99 -99999.99 -99999.99
11/14/2021 7:30:00 PM -99999.99 -179968 -99999.99 -99999.99 -99999.99 -99999.99
11/14/2021 7:45:00 PM -99999.99 -179968 -99999.99 -99999.99 -99999.99 -99999.99
11/14/2021 8:00:00 PM -99999.99 -179968 -99999.99 -99999.99 -99999.99 -99999.99
11/14/2021 8:15:00 PM -99999.99 -179968 -99999.99 -99999.99 -99999.99 -99999.99
11/14/2021 8:30:00 PM -99999.99 -179968 -99999.99 -99999.99 -99999.99 -99999.99
11/14/2021 8:45:00 PM -99999.99 -179968 -99999.99 -99999.99 -99999.99 -99999.99
11/14/2021 9:00:00 PM -99999.99 -179968 -99999.99 -99999.99 -99999.99 -99999.99
11/14/2021 9:15:00 PM -99999.99 -179968 -99999.99 -99999.99 -99999.99 -99999.99
11/14/2021 9:30:00 PM -99999.99 -179968 -99999.99 -99999.99 -99999.99 -99999.99
11/14/2021 9:45:00 PM -99999.99 -179968 -99999.99 -99999.99 -99999.99 -99999.99
11/14/2021 10:00:00 PM -99999.99 -179968 -99999.99 -99999.99 -99999.99 -99999.99
11/14/2021 10:15:00 PM -99999.99 -179968 -99999.99 -99999.99 -99999.99 -99999.99
11/14/2021 10:30:00 PM -99999.99 -179968 -99999.99 -99999.99 -99999.99 -99999.99
11/14/2021 10:45:00 PM -99999.99 -179968 -99999.99 -99999.99 -99999.99 -99999.99
11/14/2021 11:00:00 PM -99999.99 -179968 -99999.99 -99999.99 -99999.99 -99999.99
11/14/2021 11:15:00 PM -99999.99 -179968 -99999.99 -99999.99 -99999.99 -99999.99
11/14/2021 11:30:00 PM -99999.99 -179968 -99999.99 -99999.99 -99999.99 -99999.99
11/14/2021 11:45:00 PM -99999